Provisional Data: Kishacoquillas Creek near Belleville, PA


Please select a monitoring station.
Please select start date.
Please select start date.

Toggle Unit: C/F Toggle Unit: C/F
Sample Time Temperature (C) Temperature (F) Specific Conductivity (mS/cm) pH   Turbidity (NTU+) DO (mg/L)
10/17/2022 12:00:00 AM 12.13 53.834 0.418 9.08 3.14 8.36
10/17/2022 12:15:00 AM 12.05 53.69 0.419 9.1 3.84 8.34
10/17/2022 12:30:00 AM 11.98 53.564 0.419 9.11 3.35 8.35
10/17/2022 12:45:00 AM 11.91 53.438 0.42 9.11 2.85 8.3
10/17/2022 1:00:00 AM 11.84 53.312 0.421 9.12 3.01 8.26
10/17/2022 1:15:00 AM 11.77 53.186 0.421 9.13 2.19 8.26
10/17/2022 1:30:00 AM 11.71 53.078 0.422 9.13 3.7 8.23
10/17/2022 1:45:00 AM 11.66 52.988 0.422 9.14 2.55 8.26
10/17/2022 2:00:00 AM 11.6 52.88 0.423 9.14 2.82 8.22
10/17/2022 2:15:00 AM 11.53 52.754 0.423 9.15 2.99 8.24
10/17/2022 2:30:00 AM 11.48 52.664 0.424 9.17 3.14 8.18
10/17/2022 2:45:00 AM 11.43 52.574 0.424 9.18 2.95 8.21
10/17/2022 3:00:00 AM 11.38 52.484 0.424 9.18 2.48 8.19
10/17/2022 3:15:00 AM 11.33 52.394 0.425 9.19 2.86 8.21
10/17/2022 3:30:00 AM 11.28 52.304 0.425 9.2 2.71 8.21
10/17/2022 3:45:00 AM 11.22 52.196 0.425 9.21 2.86 8.2
10/17/2022 4:00:00 AM 11.17 52.106 0.425 9.21 2.3 8.22
10/17/2022 4:15:00 AM 11.12 52.016 0.425 9.21 3.61 8.2
10/17/2022 4:30:00 AM 11.08 51.944 0.425 9.22 2.55 8.2
10/17/2022 4:45:00 AM 11.04 51.872 0.426 9.22 2.17 8.2
10/17/2022 5:00:00 AM 11.02 51.836 0.426 9.22 2.12 8.19
10/17/2022 5:15:00 AM 10.99 51.782 0.426 9.2 3.08 8.21
10/17/2022 5:30:00 AM 10.97 51.746 0.426 9.19 2.34 8.21
10/17/2022 5:45:00 AM 10.95 51.71 0.426 9.18 2.37 8.2
10/17/2022 6:00:00 AM 10.93 51.674 0.426 9.17 4.68 8.21
10/17/2022 6:15:00 AM 10.93 51.674 0.426 9.16 3.48 8.21
10/17/2022 6:30:00 AM 10.92 51.656 0.426 9.14 2.62 8.21
10/17/2022 6:45:00 AM 10.91 51.638 0.426 9.13 2.25 8.18
10/17/2022 7:00:00 AM 10.89 51.602 0.426 9.11 2.78 8.19
10/17/2022 7:15:00 AM 10.88 51.584 0.427 9.08 2.47 8.17
10/17/2022 7:30:00 AM 10.87 51.566 0.427 9.08 2.68 8.17
10/17/2022 7:45:00 AM 10.86 51.548 0.427 9.09 2.21 8.14
10/17/2022 8:00:00 AM 10.85 51.53 0.427 9.07 2.98 8.16
10/17/2022 8:15:00 AM 10.85 51.53 0.427 9.03 1.99 8.22
10/17/2022 8:30:00 AM 10.85 51.53 0.427 8.99 2.46 8.27
10/17/2022 8:45:00 AM 10.85 51.53 0.427 8.97 2.11 8.38
10/17/2022 9:00:00 AM 10.86 51.548 0.427 8.94 2.36 8.43
10/17/2022 9:15:00 AM 10.88 51.584 0.427 8.86 3.02 8.54
10/17/2022 9:30:00 AM 10.89 51.602 0.427 8.82 2.18 8.71
10/17/2022 9:45:00 AM 10.94 51.692 0.426 8.8 2.19 9.01
10/17/2022 10:00:00 AM 11 51.8 0.426 8.74 2.28 9.28
10/17/2022 10:15:00 AM 11.05 51.89 0.425 8.71 2.01 9.46
10/17/2022 10:30:00 AM 11.14 52.052 0.425 8.58 1.87 9.78
10/17/2022 10:45:00 AM 11.24 52.232 0.424 8.49 1.99 10.11
10/17/2022 11:00:00 AM 11.31 52.358 0.424 8.36 2.11 10.43
10/17/2022 11:15:00 AM 11.33 52.394 0.424 8.31 2.12 10.56
10/17/2022 11:30:00 AM 11.38 52.484 0.423 8.33 2.43 10.8
10/17/2022 11:45:00 AM 11.52 52.736 0.423 8.29 2.1 11.15
10/17/2022 12:00:00 PM 11.74 53.132 0.424 8.26 2.97 11.5
10/17/2022 12:15:00 PM 11.93 53.474 0.423 8.22 1.9 11.73
10/17/2022 12:30:00 PM 11.99 53.582 0.423 8.21 2.32 11.84
10/17/2022 12:45:00 PM 12.07 53.726 0.423 8.2 1.79 12
10/17/2022 1:00:00 PM 12.14 53.852 0.422 8.21 2.6 12.23
10/17/2022 1:15:00 PM 12.16 53.888 0.422 8.22 1.85 12.37
10/17/2022 1:30:00 PM 12.23 54.014 0.421 8.23 1.88 12.54
10/17/2022 1:45:00 PM 12.29 54.122 0.421 8.24 1.9 12.72
10/17/2022 2:00:00 PM 12.42 54.356 0.42 8.23 1.91 12.97
10/17/2022 2:15:00 PM 12.65 54.77 0.42 8.15 1.76 13.17
10/17/2022 2:30:00 PM 12.63 54.734 0.419 8.19 2.18 13.14
10/17/2022 2:45:00 PM 12.58 54.644 0.419 8.25 1.71 13.07
10/17/2022 3:00:00 PM 12.58 54.644 0.42 8.28 1.75 13.06
10/17/2022 3:15:00 PM 12.59 54.662 0.42 8.28 2.54 13.13
10/17/2022 3:30:00 PM 12.59 54.662 0.42 8.28 1.91 13.09
10/17/2022 3:45:00 PM 12.58 54.644 0.421 8.23 1.49 13.03
10/17/2022 4:00:00 PM 12.54 54.572 0.421 7.76 3.14 12.98
10/17/2022 4:15:00 PM 12.55 54.59 0.421 8.13 2.02 12.91
10/17/2022 4:30:00 PM 12.49 54.482 0.419 8.04 2.19 12.83
10/17/2022 4:45:00 PM 12.43 54.374 0.419 8.21 1.93 12.71
10/17/2022 5:00:00 PM 12.35 54.23 0.418 8.32 1.94 12.62
10/17/2022 5:15:00 PM 12.28 54.104 0.419 8.43 1.98 12.46
10/17/2022 5:30:00 PM 12.21 53.978 0.418 8.48 3.27 12.36
10/17/2022 5:45:00 PM 12.13 53.834 0.418 8.53 2.06 12.26
10/17/2022 6:00:00 PM 12.05 53.69 0.417 8.55 1.83 12.07
10/17/2022 6:15:00 PM 11.96 53.528 0.416 8.58 1.98 11.89
10/17/2022 6:30:00 PM 11.88 53.384 0.416 8.64 2.38 11.66
10/17/2022 6:45:00 PM 11.79 53.222 0.416 8.67 2.47 11.42
10/17/2022 7:00:00 PM 11.71 53.078 0.416 8.69 1.8 11.15
10/17/2022 7:15:00 PM 11.61 52.898 0.416 8.76 2.07 10.88
10/17/2022 7:30:00 PM 11.52 52.736 0.416 8.84 1.79 10.61
10/17/2022 7:45:00 PM 11.42 52.556 0.416 8.88 2.13 10.38
10/17/2022 8:00:00 PM 11.34 52.412 0.416 8.87 1.91 10.18
10/17/2022 8:15:00 PM 11.26 52.268 0.415 8.9 2.32 9.96
10/17/2022 8:30:00 PM 11.19 52.142 0.416 8.92 4.95 9.76
10/17/2022 8:45:00 PM 11.09 51.962 0.415 8.92 2.32 9.65
10/17/2022 9:00:00 PM 11 51.8 0.415 8.98 1.93 9.54
10/17/2022 9:15:00 PM 10.91 51.638 0.415 8.97 2.9 9.44
10/17/2022 9:30:00 PM 10.83 51.494 0.415 8.98 4.79 9.38
10/17/2022 9:45:00 PM 10.77 51.386 0.415 8.94 6.64 9.31
10/17/2022 10:00:00 PM 10.69 51.242 0.416 8.94 3.14 9.3
10/17/2022 10:15:00 PM 10.62 51.116 0.416 8.95 3.35 9.22
10/17/2022 10:30:00 PM 10.54 50.972 0.416 8.98 3.99 9.18
10/17/2022 10:45:00 PM 10.47 50.846 0.416 9 3.89 9.15
10/17/2022 11:00:00 PM 10.4 50.72 0.417 9 4.67 9.15
10/17/2022 11:15:00 PM 10.34 50.612 0.417 8.98 4.55 9.11
10/17/2022 11:30:00 PM 10.28 50.504 0.418 9 7.31 9.09
10/17/2022 11:45:00 PM 10.2 50.36 0.418 8.99 4.43 9.04
10/18/2022 12:00:00 AM 10.14 50.252 0.418 9 4.42 9.01
10/18/2022 12:15:00 AM 10.05 50.09 0.417 9.04 4.91 9
10/18/2022 12:30:00 AM 9.98 49.964 0.418 9.08 3.42 8.93
10/18/2022 12:45:00 AM 9.91 49.838 0.42 9.11 3.92 8.94
10/18/2022 1:00:00 AM 9.85 49.73 0.421 9.12 3.92 8.93
10/18/2022 1:15:00 AM 9.78 49.604 0.42 9.14 4.26 8.9
10/18/2022 1:30:00 AM 9.71 49.478 0.422 9.14 4.59 8.9
10/18/2022 1:45:00 AM 9.65 49.37 0.423 9.14 3.4 8.89
10/18/2022 2:00:00 AM 9.59 49.262 0.423 9.16 3.99 8.9
10/18/2022 2:15:00 AM 9.53 49.154 0.422 9.17 4.48 8.89
10/18/2022 2:30:00 AM 9.48 49.064 0.424 9.18 3.8 8.86
10/18/2022 2:45:00 AM 9.42 48.956 0.425 9.2 4.13 8.85
10/18/2022 3:00:00 AM 9.35 48.83 0.425 9.22 5.12 8.85
10/18/2022 3:15:00 AM 9.31 48.758 0.426 9.21 3.96 8.82
10/18/2022 3:30:00 AM 9.26 48.668 0.426 9.22 3.37 8.83
10/18/2022 3:45:00 AM 9.21 48.578 0.427 9.23 3.67 8.81
10/18/2022 4:00:00 AM 9.17 48.506 0.427 9.22 3.11 8.81
10/18/2022 4:15:00 AM 9.12 48.416 0.425 9.23 4.37 8.81
10/18/2022 4:30:00 AM 9.07 48.326 0.427 9.24 3.53 8.79
10/18/2022 4:45:00 AM 9 48.2 0.428 9.24 3.98 8.82
10/18/2022 5:00:00 AM 8.95 48.11 0.428 9.23 4.53 8.81
10/18/2022 5:15:00 AM 8.9 48.02 0.427 9.23 4.76 8.86
10/18/2022 5:30:00 AM 8.85 47.93 0.427 9.23 3.76 8.87
10/18/2022 5:45:00 AM 8.82 47.876 0.427 9.23 4.81 8.85
10/18/2022 6:00:00 AM 8.77 47.786 0.429 9.22 4.13 8.86
10/18/2022 6:15:00 AM 8.72 47.696 0.429 9.23 3.67 8.88
10/18/2022 6:30:00 AM 8.68 47.624 0.429 9.23 3.12 8.9
10/18/2022 6:45:00 AM 8.63 47.534 0.429 9.24 3.6 8.92
10/18/2022 7:00:00 AM 8.58 47.444 0.43 9.24 4.54 8.92
10/18/2022 7:15:00 AM 8.53 47.354 0.43 9.25 3.9 8.93
10/18/2022 7:30:00 AM 8.49 47.282 0.43 9.24 3.81 8.97
10/18/2022 7:45:00 AM 8.46 47.228 0.43 9.24 3.62 8.97
10/18/2022 8:00:00 AM 8.41 47.138 0.428 9.25 8.21 9.02
10/18/2022 8:15:00 AM 8.38 47.084 0.43 9.24 5.47 9.05
10/18/2022 8:30:00 AM 8.35 47.03 0.43 9.24 3.57 9.15
10/18/2022 8:45:00 AM 8.33 46.994 0.43 9.22 3.07 9.21
10/18/2022 9:00:00 AM 8.32 46.976 0.43 9.17 3.29 9.34
10/18/2022 9:15:00 AM 8.32 46.976 0.43 9.15 3.47 9.5
10/18/2022 9:30:00 AM 8.33 46.994 0.429 9.11 4.06 9.71
10/18/2022 9:45:00 AM 8.38 47.084 0.429 9.04 3.37 9.92
10/18/2022 10:00:00 AM 8.45 47.21 0.429 8.95 3.65 10.24
10/18/2022 10:15:00 AM 8.49 47.282 0.429 8.86 2.87 10.43
10/18/2022 10:30:00 AM 8.51 47.318 0.429 8.83 3.34 10.69
10/18/2022 10:45:00 AM 8.55 47.39 0.428 8.81 3.46 10.97
10/18/2022 11:00:00 AM 8.59 47.462 0.428 8.81 3.36 11.21
10/18/2022 11:15:00 AM 8.69 47.642 0.427 8.76 3.87 11.51
10/18/2022 11:30:00 AM 8.76 47.768 0.427 8.73 3.07 11.75
10/18/2022 11:45:00 AM 8.81 47.858 0.426 8.75 3.15 11.95
10/18/2022 12:00:00 PM 8.88 47.984 0.426 8.76 3.27 12.1
10/18/2022 12:15:00 PM 8.94 48.092 0.426 8.76 3.23 12.25
10/18/2022 12:30:00 PM 8.99 48.182 0.426 8.68 3.28 12.39
10/18/2022 12:45:00 PM 9.02 48.236 0.426 8.72 3.23 12.47
10/18/2022 1:00:00 PM 9.03 48.254 0.425 8.71 3.62 12.51
10/18/2022 1:15:00 PM 9.06 48.308 0.423 8.7 3.07 12.58
10/18/2022 1:30:00 PM 9.29 48.722 0.423 8.64 3.41 12.86
10/18/2022 1:45:00 PM 9.48 49.064 0.424 8.55 3.19 13.05
10/18/2022 2:00:00 PM 9.47 49.046 0.424 8.55 2.95 13.11
10/18/2022 2:15:00 PM 9.45 49.01 0.424 8.56 3.56 13.03
10/18/2022 2:30:00 PM 9.48 49.064 0.425 8.63 3.46 13.09
10/18/2022 2:45:00 PM 9.54 49.172 0.422 8.68 3.42 13.14
10/18/2022 3:00:00 PM 9.58 49.244 0.423 8.65 3.37 13.14
10/18/2022 3:15:00 PM 9.6 49.28 0.422 8.66 3.58 13.13
10/18/2022 3:30:00 PM 9.62 49.316 0.421 8.6 3.28 13.16
10/18/2022 3:45:00 PM 9.62 49.316 0.422 8.62 3.04 13.1
10/18/2022 4:00:00 PM 9.6 49.28 0.423 8.62 3.15 13.05
10/18/2022 4:15:00 PM 9.56 49.208 0.421 8.63 4.13 12.94
10/18/2022 4:30:00 PM 9.53 49.154 0.421 8.68 3.01 12.86
10/18/2022 4:45:00 PM 9.49 49.082 0.422 8.69 3.1 12.8
10/18/2022 5:00:00 PM 9.43 48.974 0.423 8.76 3.66 12.78
10/18/2022 5:15:00 PM 9.39 48.902 0.423 8.79 6.29 12.67
10/18/2022 5:30:00 PM 9.35 48.83 0.421 8.78 13.1 12.57
10/18/2022 5:45:00 PM 9.31 48.758 0.423 8.85 3.8 12.56
10/18/2022 6:00:00 PM 9.26 48.668 0.422 8.85 3.55 12.4
10/18/2022 6:15:00 PM 9.22 48.596 0.421 8.86 3.53 12.2
10/18/2022 6:30:00 PM 9.18 48.524 0.422 8.84 3.05 11.97
10/18/2022 6:45:00 PM 9.13 48.434 0.424 8.82 3.45 11.73
10/18/2022 7:00:00 PM 9.09 48.362 0.423 8.85 3.1 11.46
10/18/2022 7:15:00 PM 9.03 48.254 0.424 8.87 3.57 11.24
10/18/2022 7:30:00 PM 8.98 48.164 0.422 8.89 3.62 11.08
10/18/2022 7:45:00 PM 8.95 48.11 0.421 8.89 3.01 10.9
10/18/2022 8:00:00 PM 8.92 48.056 0.423 8.85 2.93 10.76
10/18/2022 8:15:00 PM 8.88 47.984 0.423 8.85 3.13 10.63
10/18/2022 8:30:00 PM 8.84 47.912 0.422 8.87 3.88 10.52
10/18/2022 8:45:00 PM 8.81 47.858 0.422 8.87 2.85 10.47
10/18/2022 9:00:00 PM 8.77 47.786 0.422 8.89 3.31 10.36
10/18/2022 9:15:00 PM 8.73 47.714 0.422 8.91 3.24 10.3
10/18/2022 9:30:00 PM 8.7 47.66 0.421 8.9 2.91 10.26
10/18/2022 9:45:00 PM 8.66 47.588 0.421 8.9 3.83 10.23
10/18/2022 10:00:00 PM 8.64 47.552 0.422 8.88 3.41 10.19
10/18/2022 10:15:00 PM 8.6 47.48 0.421 8.89 3.18 10.16
10/18/2022 10:30:00 PM 8.57 47.426 0.418 8.88 3.18 10.12
10/18/2022 10:45:00 PM 8.54 47.372 0.422 8.86 5.87 10.09
10/18/2022 11:00:00 PM 8.52 47.336 0.422 8.85 6.11 10.07
10/18/2022 11:15:00 PM 8.48 47.264 0.422 8.87 2.99 10.01
10/18/2022 11:30:00 PM 8.45 47.21 0.422 8.9 3.41 9.98
10/18/2022 11:45:00 PM 8.44 47.192 0.423 8.91 3.07 9.95
10/19/2022 12:00:00 AM 8.4 47.12 0.423 8.96 2.96 9.94
10/19/2022 12:15:00 AM 8.37 47.066 0.423 8.97 3.26 9.89
10/19/2022 12:30:00 AM 8.34 47.012 0.423 8.98 3.23 9.9
10/19/2022 12:45:00 AM 8.31 46.958 0.424 8.98 3.34 9.84
10/19/2022 1:00:00 AM 8.31 46.958 0.424 8.97 2.98 9.82
10/19/2022 1:15:00 AM 8.3 46.94 0.424 9 3.22 9.81
10/19/2022 1:30:00 AM 8.27 46.886 0.424 8.99 3.44 9.77
10/19/2022 1:45:00 AM 8.24 46.832 0.427 8.99 2.8 9.75
10/19/2022 2:00:00 AM 8.21 46.778 0.425 9.01 2.78 9.74
10/19/2022 2:15:00 AM 8.2 46.76 0.427 9.04 2.65 9.71
10/19/2022 2:30:00 AM 8.18 46.724 0.427 9.03 2.85 9.68
10/19/2022 2:45:00 AM 8.17 46.706 0.428 9.07 3.06 9.68
10/19/2022 3:00:00 AM 8.17 46.706 0.428 9.05 2.68 9.65
10/19/2022 3:15:00 AM 8.17 46.706 0.429 9.03 2.57 9.63
10/19/2022 3:30:00 AM 8.16 46.688 0.429 9.03 5.6 9.62
10/19/2022 3:45:00 AM 8.14 46.652 0.429 9 2.77 9.61
10/19/2022 4:00:00 AM 8.13 46.634 0.429 8.96 3.18 9.61
10/19/2022 4:15:00 AM 8.11 46.598 0.429 8.95 3.29 9.59
10/19/2022 4:30:00 AM 8.1 46.58 0.43 8.96 2.94 9.57
10/19/2022 4:45:00 AM 8.08 46.544 0.43 8.96 2.8 9.56
10/19/2022 5:00:00 AM 8.08 46.544 0.431 8.98 2.9 9.56
10/19/2022 5:15:00 AM 8.07 46.526 0.431 9 3.16 9.54
10/19/2022 5:30:00 AM 8.06 46.508 0.431 9.03 3.47 9.56
10/19/2022 5:45:00 AM 8.04 46.472 0.429 9.06 2.9 9.54
10/19/2022 6:00:00 AM 8.01 46.418 0.429 9.05 2.93 9.52
10/19/2022 6:15:00 AM 7.99 46.382 0.43 9.07 3.07 9.55
10/19/2022 6:30:00 AM 7.98 46.364 0.431 9.07 3.54 9.53
10/19/2022 6:45:00 AM 7.95 46.31 0.432 9.04 3.46 9.53
10/19/2022 7:00:00 AM 7.92 46.256 0.431 9.03 3.92 9.53
10/19/2022 7:15:00 AM 7.89 46.202 0.43 9.06 3.56 9.52
10/19/2022 7:30:00 AM 7.86 46.148 0.433 9.09 4.71 9.52
10/19/2022 7:45:00 AM 7.83 46.094 0.432 9.11 3.98 9.56
10/19/2022 8:00:00 AM 7.81 46.058 0.431 9.11 32.53 9.56
10/19/2022 8:15:00 AM 7.79 46.022 0.431 9.1 8.58 9.63
10/19/2022 8:30:00 AM 7.78 46.004 0.432 9.08 3.04 9.68
10/19/2022 8:45:00 AM 7.77 45.986 0.432 9.06 3.03 9.71
10/19/2022 9:00:00 AM 7.76 45.968 0.432 9.04 3.29 9.79
10/19/2022 9:15:00 AM 7.75 45.95 0.432 9.03 2.96 9.87
10/19/2022 9:30:00 AM 7.76 45.968 0.433 9.03 3.28 10
10/19/2022 9:45:00 AM 7.77 45.986 0.434 9.02 2.98 10.13
10/19/2022 10:00:00 AM 7.8 46.04 0.433 9.01 2.95 10.3
10/19/2022 10:15:00 AM 7.81 46.058 0.433 8.99 2.8 10.46
10/19/2022 10:30:00 AM 7.87 46.166 0.432 8.97 2.78 10.68
10/19/2022 10:45:00 AM 7.94 46.292 0.432 8.91 2.81 10.97
10/19/2022 11:00:00 AM 7.96 46.328 0.432 8.88 2.78 11.14
10/19/2022 11:15:00 AM 8.01 46.418 0.431 8.84 2.61 11.39
10/19/2022 11:30:00 AM 8.16 46.688 0.431 8.74 3.31 11.76
10/19/2022 11:45:00 AM 8.3 46.94 0.43 8.63 2.95 12.15
10/19/2022 12:00:00 PM 8.35 47.03 0.429 8.59 2.95 12.38
10/19/2022 12:15:00 PM 8.38 47.084 0.429 8.56 2.92 12.62
10/19/2022 12:30:00 PM 8.46 47.228 0.429 8.54 3.06 12.87
10/19/2022 12:45:00 PM 8.56 47.408 0.428 8.54 4.43 13.18
10/19/2022 1:00:00 PM 8.65 47.57 0.428 8.54 3.22 13.47
10/19/2022 1:15:00 PM 8.73 47.714 0.427 8.55 3.63 13.67
10/19/2022 1:30:00 PM 8.79 47.822 0.427 8.59 3.23 13.79
10/19/2022 1:45:00 PM 8.84 47.912 0.426 8.56 2.72 13.91
10/19/2022 2:00:00 PM 8.97 48.146 0.427 8.59 2.58 14.12
10/19/2022 2:15:00 PM 9.02 48.236 0.427 8.69 3.01 14.22
10/19/2022 2:30:00 PM 9.07 48.326 0.425 8.7 7.59 14.31
10/19/2022 2:45:00 PM 9.09 48.362 0.426 8.76 2.41 14.37
10/19/2022 3:00:00 PM 9.15 48.47 0.425 8.66 3.4 14.45
10/19/2022 3:15:00 PM 9.38 48.884 0.425 8.5 4.09 14.62
10/19/2022 3:30:00 PM 9.32 48.776 0.424 8.53 4.39 14.55
10/19/2022 3:45:00 PM 9.31 48.758 0.421 8.63 3.28 14.5
10/19/2022 4:00:00 PM 9.37 48.866 0.42 8.65 4.22 14.57
10/19/2022 4:15:00 PM 9.49 49.082 0.419 8.51 2.7 14.69
10/19/2022 4:30:00 PM 9.56 49.208 0.418 8.51 4 14.68
10/19/2022 4:45:00 PM 9.53 49.154 0.419 8.68 2.53 14.56
10/19/2022 5:00:00 PM 9.53 49.154 0.417 8.75 3.84 14.42
10/19/2022 5:15:00 PM 9.53 49.154 0.418 8.78 21.62 14.33
10/19/2022 5:30:00 PM 9.53 49.154 0.421 8.88 4.17 14.29
10/19/2022 5:45:00 PM 9.5 49.1 0.421 8.87 2.9 14.12
10/19/2022 6:00:00 PM 9.45 49.01 0.42 8.9 2.88 13.84
10/19/2022 6:15:00 PM 9.4 48.92 0.42 8.9 2.45 13.56
10/19/2022 6:30:00 PM 9.36 48.848 0.421 8.91 2.18 13.26
10/19/2022 6:45:00 PM 9.31 48.758 0.423 8.83 3.66 12.98
10/19/2022 7:00:00 PM 9.23 48.614 0.422 8.87 3.36 12.66
10/19/2022 7:15:00 PM 9.18 48.524 0.422 8.82 3.3 12.34
10/19/2022 7:30:00 PM 9.13 48.434 0.422 8.82 3.97 12.05
10/19/2022 7:45:00 PM 9.07 48.326 0.423 8.85 3.67 11.76
10/19/2022 8:00:00 PM 9.04 48.272 0.423 8.8 4.3 11.49
10/19/2022 8:15:00 PM 9 48.2 0.423 8.81 4.07 11.27
10/19/2022 8:30:00 PM 8.96 48.128 0.424 8.78 3.78 11.1
10/19/2022 8:45:00 PM 8.93 48.074 0.424 8.77 4.28 10.92
10/19/2022 9:00:00 PM 8.89 48.002 0.424 8.78 10.18 10.79
10/19/2022 9:15:00 PM 8.85 47.93 0.424 8.82 3.57 10.7
10/19/2022 9:30:00 PM 8.82 47.876 0.424 8.84 4.35 10.64
10/19/2022 9:45:00 PM 8.8 47.84 0.424 8.84 4.3 10.54
10/19/2022 10:00:00 PM 8.78 47.804 0.424 8.83 3.59 10.48
10/19/2022 10:15:00 PM 8.77 47.786 0.424 8.82 3.93 10.42
10/19/2022 10:30:00 PM 8.76 47.768 0.424 8.82 4.21 10.35
10/19/2022 10:45:00 PM 8.73 47.714 0.424 8.79 3.4 10.28
10/19/2022 11:00:00 PM 8.72 47.696 0.425 8.78 3.77 10.22
10/19/2022 11:15:00 PM 8.7 47.66 0.425 8.76 3.6 10.15
10/19/2022 11:30:00 PM 8.68 47.624 0.425 8.77 4.33 10.1
10/19/2022 11:45:00 PM 8.66 47.588 0.426 8.78 3.58 10.05
10/20/2022 12:00:00 AM 8.65 47.57 0.426 8.77 5.09 9.99
10/20/2022 12:15:00 AM 8.63 47.534 0.426 8.76 3.52 9.91
10/20/2022 12:30:00 AM 8.6 47.48 0.427 8.76 4.61 9.85
10/20/2022 12:45:00 AM 8.56 47.408 0.426 8.77 3.44 9.83
10/20/2022 1:00:00 AM 8.51 47.318 0.427 8.8 3.76 9.81
10/20/2022 1:15:00 AM 8.48 47.264 0.427 8.8 3.75 9.77
10/20/2022 1:30:00 AM 8.43 47.174 0.427 8.82 2.87 9.77
10/20/2022 1:45:00 AM 8.37 47.066 0.428 8.87 3.86 9.72
10/20/2022 2:00:00 AM 8.33 46.994 0.427 8.88 2.99 9.72
10/20/2022 2:15:00 AM 8.28 46.904 0.428 8.88 3.35 9.68
10/20/2022 2:30:00 AM 8.23 46.814 0.429 8.92 3.43 9.68
10/20/2022 2:45:00 AM 8.18 46.724 0.429 8.93 4.04 9.67
10/20/2022 3:00:00 AM 8.14 46.652 0.429 8.92 3.93 9.64
10/20/2022 3:15:00 AM 8.09 46.562 0.429 8.93 3.73 9.65
10/20/2022 3:30:00 AM 8.05 46.49 0.43 8.96 3.26 9.65
10/20/2022 3:45:00 AM 8.01 46.418 0.43 9 3.37 9.64
10/20/2022 4:00:00 AM 7.97 46.346 0.43 9.03 2.94 9.6
10/20/2022 4:15:00 AM 7.94 46.292 0.43 9.07 3.68 9.63
10/20/2022 4:30:00 AM 7.9 46.22 0.43 9.1 3.49 9.62
10/20/2022 4:45:00 AM 7.87 46.166 0.43 9.16 5.96 9.63
10/20/2022 5:00:00 AM 7.84 46.112 0.431 9.2 2.99 9.62
10/20/2022 5:15:00 AM 7.8 46.04 0.43 9.22 4.35 9.65
10/20/2022 5:30:00 AM 7.77 45.986 0.431 9.23 3.79 9.63
10/20/2022 5:45:00 AM 7.73 45.914 0.431 9.24 3.14 9.63
10/20/2022 6:00:00 AM 7.69 45.842 0.431 9.25 2.95 9.63
10/20/2022 6:15:00 AM 7.65 45.77 0.43 9.26 3.21 9.63
10/20/2022 6:30:00 AM 7.61 45.698 0.43 9.31 3.02 9.61
10/20/2022 6:45:00 AM 7.59 45.662 0.43 9.31 3.24 9.59
10/20/2022 7:00:00 AM 7.55 45.59 0.43 9.34 3.07 9.63
10/20/2022 7:15:00 AM 7.52 45.536 0.43 9.35 4.03 9.57
10/20/2022 7:30:00 AM 7.49 45.482 0.43 9.37 3.99 9.62
10/20/2022 7:45:00 AM 3.89 39.002 0 29.87 0.02 12.73
10/20/2022 8:00:00 AM 7.46 45.428 0.467 7.8 2.03 9.54
10/20/2022 8:15:00 AM 7.43 45.374 0.467 7.9 1.7 9.53
10/20/2022 8:30:00 AM 7.41 45.338 0.467 7.96 4.49 9.57
10/20/2022 8:45:00 AM 7.4 45.32 0.466 7.95 1.66 9.69
10/20/2022 9:00:00 AM 7.4 45.32 0.466 7.9 1.49 9.8
10/20/2022 9:15:00 AM 7.43 45.374 0.466 7.83 1.6 9.95
10/20/2022 9:30:00 AM 7.49 45.482 0.465 7.83 1.67 10.21
10/20/2022 9:45:00 AM 7.54 45.572 0.465 7.86 2.01 10.47
10/20/2022 10:00:00 AM 7.58 45.644 0.465 7.89 1.66 10.72
10/20/2022 10:15:00 AM 7.62 45.716 0.464 7.93 1.61 11.04
10/20/2022 10:30:00 AM 7.7 45.86 0.464 8.01 1.36 11.34
10/20/2022 10:45:00 AM 7.78 46.004 0.463 8.1 1.19 11.68
10/20/2022 11:00:00 AM 7.86 46.148 0.463 8.21 1.34 12.02
10/20/2022 11:15:00 AM 8 46.4 0.462 8.36 1.29 12.36
10/20/2022 11:30:00 AM 8.08 46.544 0.461 8.41 1.5 12.66
10/20/2022 11:45:00 AM 8.19 46.742 0.46 8.44 1.49 12.96
10/20/2022 12:00:00 PM 8.37 47.066 0.46 8.42 1.27 13.21
10/20/2022 12:15:00 PM 8.59 47.462 0.459 8.36 1.7 13.46
10/20/2022 12:30:00 PM 8.77 47.786 0.458 8.28 1.43 13.66
10/20/2022 12:45:00 PM 8.92 48.056 0.458 8.19 1.34 13.79
10/20/2022 1:00:00 PM 9.08 48.344 0.457 8.19 1.47 13.91
10/20/2022 1:15:00 PM 9.26 48.668 0.458 8.21 1.92 14.02
10/20/2022 1:30:00 PM 9.44 48.992 0.457 8.23 2.75 14.08
10/20/2022 1:45:00 PM 9.63 49.334 0.456 8.25 4.43 14.14
10/20/2022 2:00:00 PM 9.82 49.676 0.456 8.28 7.9 14.26
10/20/2022 2:15:00 PM 10.03 50.054 0.456 8.28 8.69 14.28
10/20/2022 2:30:00 PM 10.21 50.378 0.455 8.28 1.57 14.26
10/20/2022 2:45:00 PM 10.37 50.666 0.455 8.27 5.62 14.26
10/20/2022 3:00:00 PM 10.37 50.666 0.453 8.27 3.96 14.25
10/20/2022 3:15:00 PM 10.43 50.774 0.453 8.27 6.24 14.27
10/20/2022 3:30:00 PM 10.58 51.044 0.453 8.3 1.67 14.31
10/20/2022 3:45:00 PM 10.7 51.26 0.453 8.3 1.48 14.34
10/20/2022 4:00:00 PM 10.73 51.314 0.452 8.3 1.79 14.39
10/20/2022 4:15:00 PM 10.71 51.278 0.453 8.3 1.34 14.27
10/20/2022 4:30:00 PM 10.63 51.134 0.452 8.28 1.47 14.19
10/20/2022 4:45:00 PM 10.57 51.026 0.451 8.29 1.83 14.1
10/20/2022 5:00:00 PM 10.52 50.936 0.452 8.3 14.19 14
10/20/2022 5:15:00 PM 10.48 50.864 0.452 8.3 3.04 13.86
10/20/2022 5:30:00 PM 10.42 50.756 0.452 8.31 2.64 13.73
10/20/2022 5:45:00 PM 10.33 50.594 0.452 8.29 4.17 13.55
10/20/2022 6:00:00 PM 10.26 50.468 0.451 8.28 1.42 13.36
10/20/2022 6:15:00 PM 10.17 50.306 0.451 8.28 1.3 13.06
10/20/2022 6:30:00 PM 10.07 50.126 0.452 8.26 1.45 12.78
10/20/2022 6:45:00 PM 9.95 49.91 0.452 8.22 1.78 12.44
10/20/2022 7:00:00 PM 9.84 49.712 0.452 8.16 1.63 12.13
10/20/2022 7:15:00 PM 9.73 49.514 0.453 8.12 1.6 11.82
10/20/2022 7:30:00 PM 9.64 49.352 0.453 8.08 2.04 11.53
10/20/2022 7:45:00 PM 9.55 49.19 0.454 8.04 2.14 11.24
10/20/2022 8:00:00 PM 9.49 49.082 0.454 8.01 2.1 11.03
10/20/2022 8:15:00 PM 9.46 49.028 0.454 7.98 2.13 10.8
10/20/2022 8:30:00 PM 9.44 48.992 0.454 7.96 2.09 10.6
10/20/2022 8:45:00 PM 9.42 48.956 0.455 7.95 1.91 10.44
10/20/2022 9:00:00 PM 9.4 48.92 0.455 7.96 1.84 10.28
10/20/2022 9:15:00 PM 9.38 48.884 0.455 7.96 1.91 10.17
10/20/2022 9:30:00 PM 9.38 48.884 0.455 7.95 2.67 10.08
10/20/2022 9:45:00 PM 9.37 48.866 0.455 7.95 2.44 10
10/20/2022 10:00:00 PM 9.36 48.848 0.455 7.94 2.06 9.91
10/20/2022 10:15:00 PM 9.36 48.848 0.455 7.94 2.29 9.87
10/20/2022 10:30:00 PM 9.36 48.848 0.455 7.94 2.02 9.81
10/20/2022 10:45:00 PM 9.35 48.83 0.455 7.94 2.11 9.77
10/20/2022 11:00:00 PM 9.33 48.794 0.455 7.92 2.09 9.67
10/20/2022 11:15:00 PM 9.29 48.722 0.455 7.89 2.6 9.62
10/20/2022 11:30:00 PM 9.23 48.614 0.455 7.87 2.47 9.56
10/20/2022 11:45:00 PM 9.19 48.542 0.456 7.84 2.38 9.47
10/21/2022 12:00:00 AM 9.16 48.488 0.456 7.82 1.86 9.44
10/21/2022 12:15:00 AM 9.12 48.416 0.456 7.81 2.55 9.38
10/21/2022 12:30:00 AM 9.06 48.308 0.456 7.8 2.32 9.34
10/21/2022 12:45:00 AM 8.99 48.182 0.456 7.79 2.21 9.31
10/21/2022 1:00:00 AM 8.92 48.056 0.457 7.79 2.11 9.27
10/21/2022 1:15:00 AM 8.84 47.912 0.457 7.78 2.89 9.23
10/21/2022 1:30:00 AM 8.77 47.786 0.457 7.78 2.64 9.21
10/21/2022 1:45:00 AM 8.7 47.66 0.458 7.77 2.23 9.18
10/21/2022 2:00:00 AM 8.64 47.552 0.458 7.77 2.1 9.17
10/21/2022 2:15:00 AM 8.56 47.408 0.458 7.77 1.79 9.14
10/21/2022 2:30:00 AM 8.49 47.282 0.459 7.76 2.21 9.17
10/21/2022 2:45:00 AM 8.42 47.156 0.459 7.76 2.46 9.13
10/21/2022 3:00:00 AM 8.36 47.048 0.459 7.76 1.97 9.08
10/21/2022 3:15:00 AM 8.29 46.922 0.46 7.75 1.94 9.08
10/21/2022 3:30:00 AM 8.22 46.796 0.461 7.75 2.08 9.08
10/21/2022 3:45:00 AM 8.17 46.706 0.461 7.74 1.84 9.07
10/21/2022 4:00:00 AM 8.09 46.562 0.461 7.74 2.4 9.09
10/21/2022 4:15:00 AM 8.04 46.472 0.462 7.74 2.25 9.08
10/21/2022 4:30:00 AM 7.99 46.382 0.462 7.74 2.75 9.06
10/21/2022 4:45:00 AM 7.94 46.292 0.462 7.74 2.07 9.09
10/21/2022 5:00:00 AM 7.88 46.184 0.463 7.74 2.4 9.11
10/21/2022 5:15:00 AM 7.83 46.094 0.463 7.73 2.09 9.04
10/21/2022 5:30:00 AM 7.77 45.986 0.463 7.73 2.88 9.13
10/21/2022 5:45:00 AM 7.72 45.896 0.464 7.73 2.18 9.13
10/21/2022 6:00:00 AM 7.67 45.806 0.464 7.73 2.08 9.15
10/21/2022 6:15:00 AM 7.62 45.716 0.464 7.74 1.84 9.14
10/21/2022 6:30:00 AM 7.56 45.608 0.464 7.73 2.29 9.18
10/21/2022 6:45:00 AM 7.5 45.5 0.464 7.74 3.64 9.2
10/21/2022 7:00:00 AM 7.45 45.41 0.465 7.74 2.4 9.2
10/21/2022 7:15:00 AM 7.4 45.32 0.465 7.73 2.15 9.19
10/21/2022 7:30:00 AM 7.36 45.248 0.465 7.74 2 9.23
10/21/2022 7:45:00 AM 7.32 45.176 0.465 7.73 2.28 9.25
10/21/2022 8:00:00 AM 7.27 45.086 0.465 7.73 1.71 9.3
10/21/2022 8:15:00 AM 7.22 44.996 0.465 7.73 1.88 9.34
10/21/2022 8:30:00 AM 7.19 44.942 0.465 7.73 2.02 9.39
10/21/2022 8:45:00 AM 7.18 44.924 0.466 7.73 1.83 9.47
10/21/2022 9:00:00 AM 7.18 44.924 0.466 7.73 1.7 9.59
10/21/2022 9:15:00 AM 7.19 44.942 0.466 7.74 2.54 9.74
10/21/2022 9:30:00 AM 7.22 44.996 0.465 7.74 2 9.91
10/21/2022 9:45:00 AM 7.25 45.05 0.465 7.75 2.21 10.13
10/21/2022 10:00:00 AM 7.3 45.14 0.465 7.76 1.55 10.35
10/21/2022 10:15:00 AM 7.36 45.248 0.465 7.77 1.25 10.55
10/21/2022 10:30:00 AM 7.47 45.446 0.465 7.78 1.61 10.78
10/21/2022 10:45:00 AM 7.59 45.662 0.464 7.81 2.16 11.05
10/21/2022 11:00:00 AM 7.72 45.896 0.464 7.84 1.33 11.29
10/21/2022 11:15:00 AM 7.86 46.148 0.464 7.86 1.26 11.52
10/21/2022 11:30:00 AM 8.03 46.454 0.463 7.89 1.33 11.72
10/21/2022 11:45:00 AM 8.21 46.778 0.464 7.91 1.22 11.93
10/21/2022 12:00:00 PM 8.42 47.156 0.463 7.95 1.5 12.12
10/21/2022 12:15:00 PM 8.64 47.552 0.462 7.98 1.35 12.37
10/21/2022 12:30:00 PM 8.86 47.948 0.461 8 2.15 12.63
10/21/2022 12:45:00 PM 9.08 48.344 0.461 8.01 1.33 12.86
10/21/2022 1:00:00 PM 9.33 48.794 0.46 8.03 1.74 13.08
10/21/2022 1:15:00 PM 9.57 49.226 0.46 8.08 1.57 13.3
10/21/2022 1:30:00 PM 9.8 49.64 0.459 8.1 1.32 13.48
10/21/2022 1:45:00 PM 10.05 50.09 0.458 8.13 1.26 13.67
10/21/2022 2:00:00 PM 10.28 50.504 0.457 8.15 1.22 13.77
10/21/2022 2:15:00 PM 10.52 50.936 0.457 8.17 3.25 13.84
10/21/2022 2:30:00 PM 10.73 51.314 0.457 8.17 1.61 13.93
10/21/2022 2:45:00 PM 10.93 51.674 0.456 8.16 2.09 14
10/21/2022 3:00:00 PM 11.1 51.98 0.455 8.18 2.11 14.06
10/21/2022 3:15:00 PM 11.23 52.214 0.456 8.18 3.29 14.04
10/21/2022 3:30:00 PM 11.34 52.412 0.455 8.19 2.96 14.01
10/21/2022 3:45:00 PM 11.43 52.574 0.455 8.2 3.5 13.96
10/21/2022 4:00:00 PM 11.48 52.664 0.455 8.21 2.8 13.98
10/21/2022 4:15:00 PM 11.51 52.718 0.455 8.21 2.2 13.88
10/21/2022 4:30:00 PM 11.53 52.754 0.455 8.22 8.79 13.72
10/21/2022 4:45:00 PM 11.5 52.7 0.454 8.24 5.37 13.61
10/21/2022 5:00:00 PM 11.47 52.646 0.455 8.23 1.79 13.47
10/21/2022 5:15:00 PM 11.44 52.592 0.454 8.24 1.56 13.35
10/21/2022 5:30:00 PM 11.38 52.484 0.455 8.22 3.35 13.18
10/21/2022 5:45:00 PM 11.32 52.376 0.455 8.23 1.86 12.97
10/21/2022 6:00:00 PM 11.24 52.232 0.455 8.22 2 12.74
10/21/2022 6:15:00 PM 11.13 52.034 0.455 8.26 1.73 12.46
10/21/2022 6:30:00 PM 11.03 51.854 0.455 8.28 2.22 12.17
10/21/2022 6:45:00 PM 10.92 51.656 0.455 8.33 2.42 11.84
10/21/2022 7:00:00 PM 10.82 51.476 0.456 8.39 2.37 11.5
10/21/2022 7:15:00 PM 10.74 51.332 0.456 8.45 2.64 11.19
10/21/2022 7:30:00 PM 10.66 51.188 0.456 8.52 3.24 10.9
10/21/2022 7:45:00 PM 10.57 51.026 0.456 8.48 2.3 10.63
10/21/2022 8:00:00 PM 10.49 50.882 0.456 8.35 2.87 10.39
10/21/2022 8:15:00 PM 10.42 50.756 0.456 8.2 2.84 10.18
10/21/2022 8:30:00 PM 10.35 50.63 0.456 8.08 3.47 10
10/21/2022 8:45:00 PM 10.29 50.522 0.456 7.99 3.05 9.85
10/21/2022 9:00:00 PM 10.22 50.396 0.456 7.92 4.38 9.74
10/21/2022 9:15:00 PM 10.15 50.27 0.456 7.86 3.53 9.62
10/21/2022 9:30:00 PM 10.09 50.162 0.456 7.83 3.58 9.54
10/21/2022 9:45:00 PM 10.02 50.036 0.456 7.81 3.33 9.45
10/21/2022 10:00:00 PM 9.95 49.91 0.455 7.8 3.11 9.4
10/21/2022 10:15:00 PM 9.88 49.784 0.455 7.78 3.3 9.34
10/21/2022 10:30:00 PM 9.81 49.658 0.455 7.77 3.37 9.28
10/21/2022 10:45:00 PM 9.74 49.532 0.455 7.76 3.18 9.23
10/21/2022 11:00:00 PM 9.67 49.406 0.455 7.75 3.07 9.18
10/21/2022 11:15:00 PM 9.6 49.28 0.455 7.75 2.71 9.13
10/21/2022 11:30:00 PM 9.52 49.136 0.455 7.74 2.93 9.12
10/21/2022 11:45:00 PM 9.45 49.01 0.455 7.73 3.11 9.07
10/22/2022 12:00:00 AM 9.37 48.866 0.455 7.73 3 9.05
10/22/2022 12:15:00 AM 9.3 48.74 0.455 7.72 3.23 9.01
10/22/2022 12:30:00 AM 9.23 48.614 0.456 7.72 2.73 8.98
10/22/2022 12:45:00 AM 9.15 48.47 0.456 7.71 2.47 8.97
10/22/2022 1:00:00 AM 9.08 48.344 0.456 7.71 2.86 8.95
10/22/2022 1:15:00 AM 9 48.2 0.456 7.71 3.29 8.92
10/22/2022 1:30:00 AM 8.93 48.074 0.456 7.7 2.53 8.92
10/22/2022 1:45:00 AM 8.85 47.93 0.457 7.7 2.05 8.9
10/22/2022 2:00:00 AM 8.78 47.804 0.457 7.7 2.31 8.91
10/22/2022 2:15:00 AM 8.71 47.678 0.457 7.7 2.39 8.88
10/22/2022 2:30:00 AM 8.64 47.552 0.458 7.69 2.38 8.9
10/22/2022 2:45:00 AM 8.57 47.426 0.458 7.69 2.17 8.88
10/22/2022 3:00:00 AM 8.51 47.318 0.458 7.69 2.54 8.89
10/22/2022 3:15:00 AM 8.44 47.192 0.458 7.69 3.89 8.9
10/22/2022 3:30:00 AM 8.39 47.102 0.459 7.69 2.94 8.92
10/22/2022 3:45:00 AM 8.33 46.994 0.459 7.69 2.78 8.9
10/22/2022 4:00:00 AM 8.28 46.904 0.46 7.7 2.54 8.91
10/22/2022 4:15:00 AM 8.23 46.814 0.46 7.69 2.11 8.9
10/22/2022 4:30:00 AM 8.18 46.724 0.461 7.69 2.01 8.9
10/22/2022 4:45:00 AM 8.13 46.634 0.461 7.69 2.24 8.91
10/22/2022 5:00:00 AM 8.08 46.544 0.462 7.69 2.32 8.93
10/22/2022 5:15:00 AM 8.03 46.454 0.462 7.7 2.64 8.92
10/22/2022 5:30:00 AM 7.99 46.382 0.463 7.7 2.3 8.93
10/22/2022 5:45:00 AM 7.95 46.31 0.463 7.7 2.42 8.93
10/22/2022 6:00:00 AM 7.9 46.22 0.463 7.7 2.09 8.92
10/22/2022 6:15:00 AM 7.86 46.148 0.464 7.7 2.13 8.9
10/22/2022 6:30:00 AM 7.82 46.076 0.464 7.7 2.68 8.94
10/22/2022 6:45:00 AM 7.77 45.986 0.465 7.7 2.22 8.95
10/22/2022 7:00:00 AM 7.73 45.914 0.465 7.7 2.54 8.94
10/22/2022 7:15:00 AM 7.7 45.86 0.465 7.71 2.56 8.93
10/22/2022 7:30:00 AM 7.66 45.788 0.466 7.7 2.41 8.95
10/22/2022 7:45:00 AM 7.62 45.716 0.466 7.7 2.43 8.94
10/22/2022 8:00:00 AM 7.58 45.644 0.466 7.7 2.44 9
10/22/2022 8:15:00 AM 7.55 45.59 0.467 7.71 3.01 9.04
10/22/2022 8:30:00 AM 7.53 45.554 0.467 7.7 1.94 9.08
10/22/2022 8:45:00 AM 7.53 45.554 0.467 7.7 2.75 9.13
10/22/2022 9:00:00 AM 7.53 45.554 0.467 7.7 2.23 9.27
10/22/2022 9:15:00 AM 7.55 45.59 0.467 7.71 2.04 9.38
10/22/2022 9:30:00 AM 7.6 45.68 0.468 7.71 1.81 9.53
10/22/2022 9:45:00 AM 7.65 45.77 0.468 7.7 1.69 9.75
10/22/2022 10:00:00 AM 7.72 45.896 0.468 7.71 1.88 9.95
10/22/2022 10:15:00 AM 7.79 46.022 0.467 7.72 1.72 10.19
10/22/2022 10:30:00 AM 7.91 46.238 0.467 7.74 1.7 10.46
10/22/2022 10:45:00 AM 8.04 46.472 0.467 7.78 1.83 10.73
10/22/2022 11:00:00 AM 8.2 46.76 0.467 7.82 2.04 10.98
10/22/2022 11:15:00 AM 8.36 47.048 0.467 7.86 2.38 11.23
10/22/2022 11:30:00 AM 8.53 47.354 0.466 7.88 1.82 11.47
10/22/2022 11:45:00 AM 8.72 47.696 0.466 7.88 2.01 11.71
10/22/2022 12:00:00 PM 8.93 48.074 0.465 7.91 2.4 11.96
10/22/2022 12:15:00 PM 9.15 48.47 0.465 7.93 1.4 12.23
10/22/2022 12:30:00 PM 9.38 48.884 0.464 7.96 2.22 12.48
10/22/2022 12:45:00 PM 9.62 49.316 0.464 7.96 1.93 12.71
10/22/2022 1:00:00 PM 9.86 49.748 0.463 7.98 2 12.94
10/22/2022 1:15:00 PM 10.1 50.18 0.463 8.02 2.54 13.13
10/22/2022 1:30:00 PM 10.36 50.648 0.462 8.07 2.93 13.32
10/22/2022 1:45:00 PM 10.62 51.116 0.461 8.09 1.5 13.45
10/22/2022 2:00:00 PM 10.87 51.566 0.46 8.09 1.63 13.64
10/22/2022 2:15:00 PM 11.11 51.998 0.46 8.12 1.57 13.7
10/22/2022 2:30:00 PM 11.33 52.394 0.459 8.13 2.59 13.79
10/22/2022 2:45:00 PM 11.53 52.754 0.459 8.12 2.51 13.9
10/22/2022 3:00:00 PM 11.72 53.096 0.457 8.18 2.14 13.91
10/22/2022 3:15:00 PM 11.87 53.366 0.458 8.15 2.49 13.88
10/22/2022 3:30:00 PM 12 53.6 0.457 8.15 1.83 13.9
10/22/2022 3:45:00 PM 12.09 53.762 0.457 8.17 2.19 13.84
10/22/2022 4:00:00 PM 12.14 53.852 0.456 8.18 3.06 13.81
10/22/2022 4:15:00 PM 12.18 53.924 0.456 8.18 1.97 13.8
10/22/2022 4:30:00 PM 12.2 53.96 0.456 8.17 2.43 13.67
10/22/2022 4:45:00 PM 12.18 53.924 0.456 8.17 1.74 13.52
10/22/2022 5:00:00 PM 12.16 53.888 0.456 8.17 1.85 13.35
10/22/2022 5:15:00 PM 12.13 53.834 0.457 8.18 2.77 13.17
10/22/2022 5:30:00 PM 12.08 53.744 0.456 8.18 1.72 13.02
10/22/2022 5:45:00 PM 12.01 53.618 0.457 8.18 1.57 12.8
10/22/2022 6:00:00 PM 11.93 53.474 0.457 8.17 1.7 12.58
10/22/2022 6:15:00 PM 11.84 53.312 0.457 8.19 2.29 12.34
10/22/2022 6:30:00 PM 11.75 53.15 0.457 8.23 1.59 12.03
10/22/2022 6:45:00 PM 11.66 52.988 0.457 8.34 1.5 11.71
10/22/2022 7:00:00 PM 11.56 52.808 0.457 8.45 1.62 11.4
10/22/2022 7:15:00 PM 11.45 52.61 0.457 8.63 1.81 11.11
10/22/2022 7:30:00 PM 11.37 52.466 0.458 8.68 1.7 10.82
10/22/2022 7:45:00 PM 11.28 52.304 0.458 8.69 2.84 10.48
10/22/2022 8:00:00 PM 11.21 52.178 0.458 8.59 2.16 10.24
10/22/2022 8:15:00 PM 11.14 52.052 0.458 8.42 2.61 10.03
10/22/2022 8:30:00 PM 11.07 51.926 0.458 8.24 3.25 9.84
10/22/2022 8:45:00 PM 11 51.8 0.458 8.12 2.56 9.65
10/22/2022 9:00:00 PM 10.94 51.692 0.459 8.02 2.82 9.49
10/22/2022 9:15:00 PM 10.87 51.566 0.458 7.96 3.14 9.37
10/22/2022 9:30:00 PM 10.81 51.458 0.458 7.93 2.55 9.27
10/22/2022 9:45:00 PM 10.74 51.332 0.458 7.88 3.17 9.2
10/22/2022 10:00:00 PM 10.67 51.206 0.458 7.85 2.96 9.11
10/22/2022 10:15:00 PM 10.6 51.08 0.457 7.83 3.03 9.08
10/22/2022 10:30:00 PM 10.53 50.954 0.457 7.81 4.27 9.01
10/22/2022 10:45:00 PM 10.45 50.81 0.457 7.79 3.25 8.98
10/22/2022 11:00:00 PM 10.37 50.666 0.457 7.78 3.24 8.93
10/22/2022 11:15:00 PM 10.3 50.54 0.457 7.77 2.94 8.86
10/22/2022 11:30:00 PM 10.23 50.414 0.457 7.76 3.63 8.82
10/22/2022 11:45:00 PM 10.15 50.27 0.457 7.75 3.39 8.78
10/23/2022 12:00:00 AM 10.07 50.126 0.457 7.74 3.35 8.77
10/23/2022 12:15:00 AM 9.99 49.982 0.456 7.74 3.06 8.73
10/23/2022 12:30:00 AM 9.91 49.838 0.457 7.73 4.97 8.68
10/23/2022 12:45:00 AM 9.84 49.712 0.457 7.73 3.69 8.68
10/23/2022 1:00:00 AM 9.75 49.55 0.456 7.72 3.33 8.66
10/23/2022 1:15:00 AM 9.68 49.424 0.457 7.72 3.29 8.64
10/23/2022 1:30:00 AM 9.6 49.28 0.456 7.72 4.83 8.63
10/23/2022 1:45:00 AM 9.52 49.136 0.456 7.71 3.41 8.59
10/23/2022 2:00:00 AM 9.45 49.01 0.456 7.71 3.35 8.57
10/23/2022 2:15:00 AM 9.37 48.866 0.457 7.71 4.18 8.57
10/23/2022 2:30:00 AM 9.29 48.722 0.457 7.71 3.52 8.57
10/23/2022 2:45:00 AM 9.23 48.614 0.457 7.71 3.9 8.57
10/23/2022 3:00:00 AM 9.15 48.47 0.457 7.71 3.55 8.56
10/23/2022 3:15:00 AM 9.08 48.344 0.458 7.71 4.04 8.55
10/23/2022 3:30:00 AM 9.03 48.254 0.459 7.71 4.43 8.55
10/23/2022 3:45:00 AM 8.96 48.128 0.458 7.71 4.01 8.56
10/23/2022 4:00:00 AM 8.9 48.02 0.458 7.71 4.03 8.57
10/23/2022 4:15:00 AM 8.84 47.912 0.459 7.71 4.24 8.54
10/23/2022 4:30:00 AM 8.78 47.804 0.459 7.71 4.2 8.58
10/23/2022 4:45:00 AM 8.73 47.714 0.46 7.71 3.45 8.57
10/23/2022 5:00:00 AM 8.68 47.624 0.461 7.71 5.74 8.56
10/23/2022 5:15:00 AM 8.63 47.534 0.461 7.71 3.56 8.61
10/23/2022 5:30:00 AM 8.57 47.426 0.462 7.71 5.98 8.61
10/23/2022 5:45:00 AM 8.53 47.354 0.464 7.71 5.08 8.6
10/23/2022 6:00:00 AM 8.48 47.264 0.466 7.72 3.44 8.6
10/23/2022 6:15:00 AM 8.44 47.192 0.468 7.71 4.11 8.63
10/23/2022 6:30:00 AM 8.39 47.102 0.471 7.72 3.47 8.64
10/23/2022 6:45:00 AM 8.35 47.03 0.473 7.71 3.5 8.62
10/23/2022 7:00:00 AM 8.31 46.958 0.474 7.71 3.9 8.65
10/23/2022 7:15:00 AM 8.26 46.868 0.475 7.72 4.27 8.63
10/23/2022 7:30:00 AM 8.22 46.796 0.476 7.72 4.1 8.67
10/23/2022 7:45:00 AM 8.18 46.724 0.476 7.71 4.12 8.67
10/23/2022 8:00:00 AM 8.16 46.688 0.476 7.71 4.3 8.69
10/23/2022 8:15:00 AM 8.14 46.652 0.475 7.71 4.06 8.75
10/23/2022 8:30:00 AM 8.13 46.634 0.475 7.71 3.95 8.82
10/23/2022 8:45:00 AM 8.13 46.634 0.474 7.72 3.7 8.9
10/23/2022 9:00:00 AM 8.19 46.742 0.474 7.71 3.98 9.1
10/23/2022 9:15:00 AM 8.25 46.85 0.473 7.72 3.72 9.36
10/23/2022 9:30:00 AM 8.29 46.922 0.472 7.73 3.85 9.56
10/23/2022 9:45:00 AM 8.32 46.976 0.472 7.74 3.66 9.71
10/23/2022 10:00:00 AM 8.37 47.066 0.471 7.77 4.02 9.93
10/23/2022 10:15:00 AM 8.48 47.264 0.471 7.8 6.32 10.29
10/23/2022 10:30:00 AM 8.65 47.57 0.47 7.86 4.05 10.64
10/23/2022 10:45:00 AM 8.78 47.804 0.47 7.92 4.18 11
10/23/2022 11:00:00 AM 8.87 47.966 0.469 7.99 4.31 11.23
10/23/2022 11:15:00 AM 8.98 48.164 0.469 8.08 6.45 11.52
10/23/2022 11:30:00 AM 9.12 48.416 0.468 8.13 7.26 11.77
10/23/2022 11:45:00 AM 9.26 48.668 0.467 8.15 5.81 11.99
10/23/2022 12:00:00 PM 9.32 48.776 0.467 8.12 5.36 12.18
10/23/2022 12:15:00 PM 9.59 49.262 0.466 8.14 4.04 12.46
10/23/2022 12:30:00 PM 9.91 49.838 0.465 8.08 5.31 12.81
10/23/2022 12:45:00 PM 10.03 50.054 0.465 8.06 8.86 13.05
10/23/2022 1:00:00 PM 10.1 50.18 0.464 8.07 4.88 13.16
10/23/2022 1:15:00 PM 10.29 50.522 0.463 8.09 12.07 13.37
10/23/2022 1:30:00 PM 10.55 50.99 0.462 8.11 26.8 13.69
10/23/2022 1:45:00 PM 10.73 51.314 0.461 8.13 9.09 13.87
10/23/2022 2:00:00 PM 10.89 51.602 0.461 8.17 11.78 13.96
10/23/2022 2:15:00 PM 11.03 51.854 0.46 8.18 23.94 14.09
10/23/2022 2:30:00 PM 11.16 52.088 0.459 8.18 4.19 14.09
10/23/2022 2:45:00 PM 11.29 52.322 0.459 8.2 6.24 14.19
10/23/2022 3:00:00 PM 11.41 52.538 0.458 8.24 3.93 14.23
10/23/2022 3:15:00 PM 11.51 52.718 0.458 8.23 7.48 14.21
10/23/2022 3:30:00 PM 11.58 52.844 0.456 8.24 71.18 14.24
10/23/2022 3:45:00 PM 11.64 52.952 0.456 8.25 6.92 14.18
10/23/2022 4:00:00 PM 11.7 53.06 0.456 8.25 17.02 14.05
10/23/2022 4:15:00 PM 11.74 53.132 0.456 8.26 14.71 14.01
10/23/2022 4:30:00 PM 11.78 53.204 0.456 8.25 4.82 13.9
10/23/2022 4:45:00 PM 11.82 53.276 0.455 8.26 4.24 13.83
10/23/2022 5:00:00 PM 11.83 53.294 0.455 8.27 2.99 13.68
10/23/2022 5:15:00 PM 11.83 53.294 0.455 8.25 6.12 13.45
10/23/2022 5:30:00 PM 11.83 53.294 0.455 8.29 5.42 13.24
10/23/2022 5:45:00 PM 11.83 53.294 0.455 8.28 6.98 13.01
10/23/2022 6:00:00 PM 11.83 53.294 0.455 8.29 10.39 12.75
10/23/2022 6:15:00 PM 11.82 53.276 0.456 8.31 10.45 12.46
10/23/2022 6:30:00 PM 11.81 53.258 0.456 8.33 12.55 12.12
10/23/2022 6:45:00 PM 11.79 53.222 0.456 8.36 14.13 11.77
10/23/2022 7:00:00 PM 11.78 53.204 0.457 8.4 3.92 11.45
10/23/2022 7:15:00 PM 11.76 53.168 0.457 8.47 3.84 11.11
10/23/2022 7:30:00 PM 11.75 53.15 0.457 8.53 4.29 10.81
10/23/2022 7:45:00 PM 11.73 53.114 0.457 8.6 4.68 10.52
10/23/2022 8:00:00 PM 11.72 53.096 0.457 8.73 4.68 10.26
10/23/2022 8:15:00 PM 11.71 53.078 0.457 8.87 5.03 9.99
10/23/2022 8:30:00 PM 11.7 53.06 0.457 8.97 4.45 9.82
10/23/2022 8:45:00 PM 11.69 53.042 0.457 9.12 4.1 9.6
10/23/2022 9:00:00 PM 11.67 53.006 0.457 9.25 4.62 9.42
10/23/2022 9:15:00 PM 11.63 52.934 0.457 9.29 4.23 9.3
10/23/2022 9:30:00 PM 11.61 52.898 0.457 9.38 3.93 9.15
10/23/2022 9:45:00 PM 11.58 52.844 0.457 9.51 4.27 9.03
10/23/2022 10:00:00 PM 11.55 52.79 0.456 9.69 4.34 8.95
10/23/2022 10:15:00 PM 11.52 52.736 0.456 9.97 4.52 8.85
10/23/2022 10:30:00 PM 11.48 52.664 0.456 10.08 4.02 8.79
10/23/2022 10:45:00 PM 11.43 52.574 0.456 10.1 5.14 8.73
10/23/2022 11:00:00 PM 11.38 52.484 0.456 10.02 4.62 8.68
10/23/2022 11:15:00 PM 11.35 52.43 0.455 10 5.56 8.63
10/23/2022 11:30:00 PM 11.32 52.376 0.456 10.16 6.62 8.58
10/23/2022 11:45:00 PM 11.3 52.34 0.455 10.38 4.99 8.5
10/24/2022 12:00:00 AM 11.27 52.286 0.455 10.76 4.93 8.47
10/24/2022 12:15:00 AM 11.25 52.25 0.455 11.33 5.22 8.42
10/24/2022 12:30:00 AM 11.23 52.214 0.455 12.06 5.12 8.41
10/24/2022 12:45:00 AM 11.22 52.196 0.455 12.86 4.48 8.36
10/24/2022 1:00:00 AM 11.21 52.178 0.455 13.22 5.16 8.33
10/24/2022 1:15:00 AM 11.2 52.16 0.455 13.49 4.76 8.28
10/24/2022 1:30:00 AM 11.19 52.142 0.455 13.57 4.89 8.21
10/24/2022 1:45:00 AM 11.18 52.124 0.455 13.44 4.29 8.24
10/24/2022 2:00:00 AM 11.18 52.124 0.455 13.33 4.56 8.2
10/24/2022 2:15:00 AM 11.18 52.124 0.456 13.31 4.24 8.12
10/24/2022 2:30:00 AM 11.18 52.124 0.456 13.37 4.65 8.12
10/24/2022 2:45:00 AM 11.18 52.124 0.456 13.32 4.15 8.06
10/24/2022 3:00:00 AM 11.18 52.124 0.456 13.32 4.54 8.06
10/24/2022 3:15:00 AM 11.18 52.124 0.457 13.28 4.89 8.01
10/24/2022 3:30:00 AM 11.18 52.124 0.457 13.15 4.9 8.01
10/24/2022 3:45:00 AM 11.19 52.142 0.458 13.24 4.85 7.97
10/24/2022 4:00:00 AM 11.19 52.142 0.458 13.25 5.05 7.94
10/24/2022 4:15:00 AM 11.2 52.16 0.458 13.27 5.08 7.93
10/24/2022 4:30:00 AM 11.21 52.178 0.459 13.14 5.19 7.91
10/24/2022 4:45:00 AM 11.21 52.178 0.459 13.03 4.8 7.9
10/24/2022 5:00:00 AM 11.22 52.196 0.46 12.98 4.87 7.87
10/24/2022 5:15:00 AM 11.23 52.214 0.46 12.87 4.87 7.84
10/24/2022 5:30:00 AM 11.24 52.232 0.46 12.86 5.77 7.8
10/24/2022 5:45:00 AM 11.24 52.232 0.461 12.82 5.12 7.8
10/24/2022 6:00:00 AM 11.24 52.232 0.461 12.83 4.61 7.77
10/24/2022 6:15:00 AM 11.25 52.25 0.461 12.71 5.08 7.76
10/24/2022 6:30:00 AM 11.26 52.268 0.462 12.8 4.99 7.75
10/24/2022 6:45:00 AM 11.27 52.286 0.462 12.74 4.93 7.75
10/24/2022 7:00:00 AM 11.27 52.286 0.462 12.77 5.37 7.73
10/24/2022 7:15:00 AM 11.28 52.304 0.463 12.77 4.99 7.69
10/24/2022 7:30:00 AM 11.29 52.322 0.463 12.6 4.84 7.65
10/24/2022 7:45:00 AM 11.29 52.322 0.464 12.56 4.66 7.64
10/24/2022 8:00:00 AM 11.3 52.34 0.464 12.43 6.3 7.65
10/24/2022 8:15:00 AM 11.32 52.376 0.464 12.49 4.64 7.68
10/24/2022 8:30:00 AM 11.34 52.412 0.464 12.39 4.56 7.7
10/24/2022 8:45:00 AM 11.37 52.466 0.465 12.23 5.12 7.8
10/24/2022 9:00:00 AM 11.4 52.52 0.465 11.88 5.03 7.86
10/24/2022 9:15:00 AM 11.45 52.61 0.465 11.58 4.65 8
10/24/2022 9:30:00 AM 11.5 52.7 0.465 11.28 4.7 8.22
10/24/2022 9:45:00 AM 11.55 52.79 0.465 10.84 4.3 8.42
10/24/2022 10:00:00 AM 11.61 52.898 0.464 10.36 4.17 8.66
10/24/2022 10:15:00 AM 11.68 53.024 0.464 9.88 4.24 8.89
10/24/2022 10:30:00 AM 11.76 53.168 0.464 9.49 4.08 9.22
10/24/2022 10:45:00 AM 11.85 53.33 0.464 9.08 4.21 9.62
10/24/2022 11:00:00 AM 11.95 53.51 0.463 8.66 4.32 9.94
10/24/2022 11:15:00 AM 12.07 53.726 0.463 8.34 4.05 10.35
10/24/2022 11:30:00 AM 12.18 53.924 0.462 8.17 4.1 10.72
10/24/2022 11:45:00 AM 12.27 54.086 0.462 8.08 4.16 11.04
10/24/2022 12:00:00 PM 12.33 54.194 0.461 8.08 4.48 11.28
10/24/2022 12:15:00 PM 12.44 54.392 0.461 8.09 4.18 11.59
10/24/2022 12:30:00 PM 12.54 54.572 0.46 8.1 4.33 11.83
10/24/2022 12:45:00 PM 12.64 54.752 0.46 8.09 4.4 12.07
10/24/2022 1:00:00 PM 12.74 54.932 0.46 8.09 4.7 12.22
10/24/2022 1:15:00 PM 12.86 55.148 0.46 8.1 4.39 12.44
10/24/2022 1:30:00 PM 13.01 55.418 0.46 8.11 4.85 12.68
10/24/2022 1:45:00 PM 13.14 55.652 0.46 8.11 4.81 12.87
10/24/2022 2:00:00 PM 13.26 55.868 0.458 8.11 4.57 12.98
10/24/2022 2:15:00 PM 13.36 56.048 0.457 8.13 4.7 13.07
10/24/2022 2:30:00 PM 13.56 56.408 0.456 8.16 17.38 13.32
10/24/2022 2:45:00 PM 13.62 56.516 0.456 8.16 15.03 13.51
10/24/2022 3:00:00 PM 13.67 56.606 0.454 8.19 10.23 13.52
10/24/2022 3:15:00 PM 13.77 56.786 0.453 8.21 21.56 13.54
10/24/2022 3:30:00 PM 13.86 56.948 0.454 8.23 15.18 13.6
10/24/2022 3:45:00 PM 13.94 57.092 0.453 8.24 8.4 13.69
10/24/2022 4:00:00 PM 13.99 57.182 0.453 8.25 10.94 13.69
10/24/2022 4:15:00 PM 13.99 57.182 0.453 8.24 12.91 13.56
10/24/2022 4:30:00 PM 14 57.2 0.452 8.24 8.57 13.42
10/24/2022 4:45:00 PM 14 57.2 0.452 8.23 7.47 13.28
10/24/2022 5:00:00 PM 13.99 57.182 0.453 8.24 6.35 13.07
10/24/2022 5:15:00 PM 13.98 57.164 0.452 8.22 6.92 12.87
10/24/2022 5:30:00 PM 13.94 57.092 0.452 8.21 7.6 12.6
10/24/2022 5:45:00 PM 13.92 57.056 0.452 8.2 8.02 12.28
10/24/2022 6:00:00 PM 13.89 57.002 0.452 8.19 11.1 12.08
10/24/2022 6:15:00 PM 13.84 56.912 0.453 8.21 6.06 11.81
10/24/2022 6:30:00 PM 13.78 56.804 0.453 8.21 8.09 11.46
10/24/2022 6:45:00 PM 13.72 56.696 0.453 8.21 6.8 11.09
10/24/2022 7:00:00 PM 13.67 56.606 0.454 8.24 6.39 10.72
10/24/2022 7:15:00 PM 13.64 56.552 0.436 8.24 5.43 10.37
10/24/2022 7:30:00 PM 13.6 56.48 0.454 8.25 5.68 10.01
10/24/2022 7:45:00 PM 13.56 56.408 0.454 8.21 8.23 9.68
10/24/2022 8:00:00 PM 13.51 56.318 0.454 8.17 8.23 9.38
10/24/2022 8:15:00 PM 13.46 56.228 0.438 8.14 7.93 9.12
10/24/2022 8:30:00 PM 13.42 56.156 0.448 8.13 7.85 8.88
10/24/2022 8:45:00 PM 13.38 56.084 0.454 8.1 8.98 8.69
10/24/2022 9:00:00 PM 13.37 56.066 0.448 8.09 9.04 8.51
10/24/2022 9:15:00 PM 13.35 56.03 0.408 8.1 7.77 8.35
10/24/2022 9:30:00 PM 13.34 56.012 0.452 8.08 7.87 8.28
10/24/2022 9:45:00 PM 13.33 55.994 0.454 8.05 7.66 8.15
10/24/2022 10:00:00 PM 13.32 55.976 0.454 8.04 7.89 8.1
10/24/2022 10:15:00 PM 13.31 55.958 0.454 8.01 8.37 8.02
10/24/2022 10:30:00 PM 13.3 55.94 0.454 8 8.72 7.95
10/24/2022 10:45:00 PM 13.3 55.94 0.454 7.97 8.64 7.89
10/24/2022 11:00:00 PM 13.29 55.922 0.454 7.98 7.93 7.79
10/24/2022 11:15:00 PM 13.29 55.922 0.454 7.95 8.26 7.72
10/24/2022 11:30:00 PM 13.28 55.904 0.453 7.94 8.8 7.66
10/24/2022 11:45:00 PM 13.28 55.904 0.453 7.93 9.03 7.59
10/25/2022 12:00:00 AM 13.27 55.886 0.453 7.94 8.87 7.52
10/25/2022 12:15:00 AM 13.26 55.868 0.453 7.92 9.41 7.48
10/25/2022 12:30:00 AM 13.25 55.85 0.453 7.91 8.99 7.4
10/25/2022 12:45:00 AM 13.24 55.832 0.454 7.89 8.61 7.35
10/25/2022 1:00:00 AM 13.23 55.814 0.454 7.88 22.69 7.29
10/25/2022 1:15:00 AM 13.23 55.814 0.454 7.86 22.3 7.29
10/25/2022 1:30:00 AM 13.21 55.778 0.454 7.86 23.32 7.22
10/25/2022 1:45:00 AM 13.2 55.76 0.454 7.84 22.74 7.18
10/25/2022 2:00:00 AM 13.19 55.742 0.454 7.84 22.19 7.11
10/25/2022 2:15:00 AM 13.18 55.724 0.454 7.83 23.28 7.09
10/25/2022 2:30:00 AM 13.17 55.706 0.455 7.82 24.21 7.07
10/25/2022 2:45:00 AM 13.17 55.706 0.455 7.81 22.75 7.06
10/25/2022 3:00:00 AM 13.16 55.688 0.455 7.81 23.49 7.04
10/25/2022 3:15:00 AM 13.15 55.67 0.456 7.79 23.29 7.02
10/25/2022 3:30:00 AM 13.14 55.652 0.456 7.81 22.52 6.99
10/25/2022 3:45:00 AM 13.14 55.652 0.456 7.8 22.72 6.98
10/25/2022 4:00:00 AM 13.13 55.634 0.457 7.78 23.56 6.92
10/25/2022 4:15:00 AM 13.12 55.616 0.457 7.78 22.9 6.91
10/25/2022 4:30:00 AM 13.12 55.616 0.457 7.79 23.73 6.95
10/25/2022 4:45:00 AM 13.12 55.616 0.458 7.78 23.77 6.93
10/25/2022 5:00:00 AM 13.11 55.598 0.458 7.79 23.55 6.94
10/25/2022 5:15:00 AM 13.11 55.598 0.458 7.77 22.86 6.94
10/25/2022 5:30:00 AM 13.11 55.598 0.459 7.78 23.89 6.91
10/25/2022 5:45:00 AM 13.11 55.598 0.459 7.76 26.14 6.92
10/25/2022 6:00:00 AM 13.11 55.598 0.459 7.75 22.99 6.88
10/25/2022 6:15:00 AM 13.11 55.598 0.46 7.76 23.44 6.89
10/25/2022 6:30:00 AM 13.11 55.598 0.46 7.75 23.45 6.86
10/25/2022 6:45:00 AM 13.1 55.58 0.461 7.75 23.27 6.87
10/25/2022 7:00:00 AM 13.11 55.598 0.461 7.74 23.15 6.86
10/25/2022 7:15:00 AM 13.11 55.598 0.461 7.74 23.18 6.84
10/25/2022 7:30:00 AM 13.11 55.598 0.462 7.74 23.32 6.82
10/25/2022 7:45:00 AM 13.11 55.598 0.462 7.73 22.96 6.81
10/25/2022 8:00:00 AM 13.11 55.598 0.462 7.73 22.93 6.81
10/25/2022 8:15:00 AM 13.12 55.616 0.463 7.74 22.8 6.84
10/25/2022 8:30:00 AM 13.14 55.652 0.463 7.73 23.37 6.88
10/25/2022 8:45:00 AM 13.16 55.688 0.463 7.73 24.05 6.95
10/25/2022 9:00:00 AM 13.17 55.706 0.463 7.71 23.24 7
10/25/2022 9:15:00 AM 13.19 55.742 0.464 7.71 23.17 7.06
10/25/2022 9:30:00 AM 13.21 55.778 0.464 7.71 23.35 7.17
10/25/2022 9:45:00 AM 13.24 55.832 0.464 7.72 23.2 7.32
10/25/2022 10:00:00 AM 13.28 55.904 0.464 7.72 23.48 7.51
10/25/2022 10:15:00 AM 13.32 55.976 0.464 7.72 23.23 7.68
10/25/2022 10:30:00 AM 13.36 56.048 0.464 7.74 23.37 7.9
10/25/2022 10:45:00 AM 13.41 56.138 0.464 7.75 24.19 8.17
10/25/2022 11:00:00 AM 13.48 56.264 0.464 7.77 23.03 8.44
10/25/2022 11:15:00 AM 13.55 56.39 0.463 7.77 23.06 8.74
10/25/2022 11:30:00 AM 13.6 56.48 0.463 7.78 23.64 8.95
10/25/2022 11:45:00 AM 13.65 56.57 0.463 7.79 23.97 9.2
10/25/2022 12:00:00 PM 13.7 56.66 0.463 7.82 23.62 9.44
10/25/2022 12:15:00 PM 13.75 56.75 0.463 7.83 23.78 9.65
10/25/2022 12:30:00 PM 13.82 56.876 0.462 7.86 23.52 9.92
10/25/2022 12:45:00 PM 13.9 57.02 0.462 7.89 23.63 10.17
10/25/2022 1:00:00 PM 13.96 57.128 0.462 7.91 23.69 10.4
10/25/2022 1:15:00 PM 14.01 57.218 0.461 7.92 9.14 10.53
10/25/2022 1:30:00 PM 14.08 57.344 0.461 7.92 9.09 10.7
10/25/2022 1:45:00 PM 14.16 57.488 0.461 7.95 9.69 10.92
10/25/2022 2:00:00 PM 14.26 57.668 0.46 7.98 9.44 11.17
10/25/2022 2:15:00 PM 14.34 57.812 0.46 8 9.73 11.37
10/25/2022 2:30:00 PM 14.45 58.01 0.46 8.01 9.67 11.61
10/25/2022 2:45:00 PM 14.62 58.316 0.459 8.03 9.76 11.88
10/25/2022 3:00:00 PM 14.72 58.496 0.459 8.04 10.94 12.07
10/25/2022 3:15:00 PM 14.78 58.604 0.458 8.08 10.58 12.18
10/25/2022 3:30:00 PM 14.83 58.694 0.458 8.09 9.93 12.25
10/25/2022 3:45:00 PM 14.93 58.874 0.457 8.12 10.39 12.39
10/25/2022 4:00:00 PM 15 59 0.456 8.15 11.25 12.47
10/25/2022 4:15:00 PM 15.04 59.072 0.456 8.15 10.72 12.42
10/25/2022 4:30:00 PM 15.06 59.108 0.457 8.18 11.59 12.42
10/25/2022 4:45:00 PM 15.06 59.108 0.457 8.14 11.01 12.32
10/25/2022 5:00:00 PM 15.07 59.126 0.457 8.12 10.95 12.16
10/25/2022 5:15:00 PM 15.06 59.108 0.456 8.12 10.77 11.98
10/25/2022 5:30:00 PM 15.04 59.072 0.457 8.1 11.05 11.76
10/25/2022 5:45:00 PM 14.99 58.982 0.456 8.08 11.24 11.45
10/25/2022 6:00:00 PM 14.95 58.91 0.457 8.06 10.96 11.16
10/25/2022 6:15:00 PM 14.9 58.82 0.457 8.03 11.88 10.79
10/25/2022 6:30:00 PM 14.86 58.748 0.457 7.99 11.7 10.4
10/25/2022 6:45:00 PM 14.82 58.676 0.458 7.96 11.22 10.06
10/25/2022 7:00:00 PM 14.78 58.604 0.458 7.93 12.17 9.69
10/25/2022 7:15:00 PM 14.74 58.532 0.459 7.9 11.89 9.33
10/25/2022 7:30:00 PM 14.71 58.478 0.459 7.87 12.09 9.02
10/25/2022 7:45:00 PM 14.68 58.424 0.459 7.85 12.83 8.72
10/25/2022 8:00:00 PM 14.65 58.37 0.459 7.82 12.21 8.44
10/25/2022 8:15:00 PM 14.63 58.334 0.459 7.8 13.53 8.25
10/25/2022 8:30:00 PM 14.62 58.316 0.459 7.78 13.74 8.07
10/25/2022 8:45:00 PM 14.6 58.28 0.459 7.77 13.32 7.9
10/25/2022 9:00:00 PM 14.59 58.262 0.459 7.76 13.95 7.77
10/25/2022 9:15:00 PM 14.59 58.262 0.459 7.75 15.39 7.63
10/25/2022 9:30:00 PM 14.58 58.244 0.459 7.74 13.58 7.49
10/25/2022 9:45:00 PM 14.57 58.226 0.459 7.72 13.97 7.41
10/25/2022 10:00:00 PM 14.57 58.226 0.458 7.72 13.97 7.38
10/25/2022 10:15:00 PM 14.57 58.226 0.458 7.72 14.4 7.3
10/25/2022 10:30:00 PM 14.56 58.208 0.458 7.71 14.57 7.24
10/25/2022 10:45:00 PM 14.57 58.226 0.457 7.71 14.52 7.2
10/25/2022 11:00:00 PM 14.56 58.208 0.457 7.7 14.6 7.11
10/25/2022 11:15:00 PM 14.55 58.19 0.457 7.7 14.61 7.07
10/25/2022 11:30:00 PM 14.54 58.172 0.457 7.69 15.18 7.01
10/25/2022 11:45:00 PM 14.53 58.154 0.457 7.68 14.98 6.93
10/26/2022 12:00:00 AM 14.49 58.082 0.457 7.68 14.79 6.9
10/26/2022 12:15:00 AM 14.44 57.992 0.457 7.66 15.94 6.82
10/26/2022 12:30:00 AM 14.4 57.92 0.457 7.66 15.31 6.77
10/26/2022 12:45:00 AM 14.37 57.866 0.457 7.66 15.9 6.74
10/26/2022 1:00:00 AM 14.34 57.812 0.457 7.65 15.93 6.7
10/26/2022 1:15:00 AM 14.31 57.758 0.457 7.64 17.09 6.66
10/26/2022 1:30:00 AM 14.26 57.668 0.457 7.65 16.1 6.65
10/26/2022 1:45:00 AM 14.21 57.578 0.457 7.64 16.14 6.56
10/26/2022 2:00:00 AM 14.15 57.47 0.458 7.64 16.05 6.55
10/26/2022 2:15:00 AM 14.1 57.38 0.458 7.63 15.8 6.53
10/26/2022 2:30:00 AM 14.04 57.272 0.458 7.63 16.42 6.49
10/26/2022 2:45:00 AM 13.97 57.146 0.458 7.63 16.39 6.51
10/26/2022 3:00:00 AM 13.92 57.056 0.458 7.63 15.98 6.47
10/26/2022 3:15:00 AM 13.88 56.984 0.459 7.63 16.4 6.5
10/26/2022 3:30:00 AM 13.84 56.912 0.459 7.63 15.38 6.45
10/26/2022 3:45:00 AM 13.79 56.822 0.459 7.63 14.64 6.43
10/26/2022 4:00:00 AM 13.72 56.696 0.46 7.62 15.28 6.4
10/26/2022 4:15:00 AM 13.69 56.642 0.46 7.62 15.23 6.41
10/26/2022 4:30:00 AM 13.67 56.606 0.461 7.62 15.77 6.43
10/26/2022 4:45:00 AM 13.63 56.534 0.461 7.62 14.74 6.4
10/26/2022 5:00:00 AM 13.59 56.462 0.461 7.61 15.54 6.41
10/26/2022 5:15:00 AM 13.57 56.426 0.462 7.61 16.11 6.39
10/26/2022 5:30:00 AM 13.54 56.372 0.462 7.61 15.7 6.36
10/26/2022 5:45:00 AM 13.51 56.318 0.462 7.61 15.51 6.4
10/26/2022 6:00:00 AM 13.49 56.282 0.463 7.61 16 6.39
10/26/2022 6:15:00 AM 13.46 56.228 0.463 7.61 16.32 6.38
10/26/2022 6:30:00 AM 13.44 56.192 0.464 7.61 15.72 6.38
10/26/2022 6:45:00 AM 13.43 56.174 0.464 7.61 15.98 6.39
10/26/2022 7:00:00 AM 13.41 56.138 0.464 7.62 15.62 6.39
10/26/2022 7:15:00 AM 13.39 56.102 0.465 7.61 15.64 6.37
10/26/2022 7:30:00 AM 13.38 56.084 0.465 7.63 16.76 6.4
10/26/2022 7:45:00 AM 13.37 56.066 0.465 7.63 16.18 6.39
10/26/2022 8:00:00 AM 13.36 56.048 0.466 7.63 16.05 6.41
10/26/2022 8:15:00 AM 13.37 56.066 0.466 7.64 16.39 6.44
10/26/2022 8:30:00 AM 13.38 56.084 0.466 7.64 16.95 6.51
10/26/2022 8:45:00 AM 13.39 56.102 0.466 7.64 16.25 6.56
10/26/2022 9:00:00 AM 13.4 56.12 0.466 7.65 16.64 6.61
10/26/2022 9:15:00 AM 13.43 56.174 0.467 7.66 16.34 6.72
10/26/2022 9:30:00 AM 13.44 56.192 0.467 7.66 16.15 6.84
10/26/2022 9:45:00 AM 13.46 56.228 0.467 7.66 15.9 6.96
10/26/2022 10:00:00 AM 13.48 56.264 0.467 7.67 15.96 7.09
10/26/2022 10:15:00 AM 13.52 56.336 0.467 7.68 16.55 7.28
10/26/2022 10:30:00 AM 13.57 56.426 0.467 7.7 16.58 7.53
10/26/2022 10:45:00 AM 13.65 56.57 0.467 7.7 16.01 7.83
10/26/2022 11:00:00 AM 13.7 56.66 0.467 7.71 16.02 8.1
10/26/2022 11:15:00 AM 13.73 56.714 0.466 7.72 16.05 8.31
10/26/2022 11:30:00 AM 13.75 56.75 0.467 7.75 15.46 8.49
10/26/2022 11:45:00 AM 13.78 56.804 0.466 7.75 15.46 8.69
10/26/2022 12:00:00 PM 13.83 56.894 0.466 7.77 16.23 8.99
10/26/2022 12:15:00 PM 13.88 56.984 0.466 7.79 16.58 9.24
10/26/2022 12:30:00 PM 13.92 57.056 0.466 7.8 17.69 9.42
10/26/2022 12:45:00 PM 13.93 57.074 0.465 7.81 16.03 9.49
10/26/2022 1:00:00 PM 13.94 57.092 0.465 7.82 17.03 9.56
10/26/2022 1:15:00 PM 13.94 57.092 0.465 7.82 16.19 9.59
10/26/2022 1:30:00 PM 13.96 57.128 0.465 7.82 15.67 9.65
10/26/2022 1:45:00 PM 13.97 57.146 0.464 7.84 15.77 9.68
10/26/2022 2:00:00 PM 13.96 57.128 0.464 7.84 15.72 9.65
10/26/2022 2:15:00 PM 13.97 57.146 0.464 7.84 15.74 9.6
10/26/2022 2:30:00 PM 13.96 57.128 0.464 7.83 16.12 9.52
10/26/2022 2:45:00 PM 13.95 57.11 0.464 7.83 19.49 9.42
10/26/2022 3:00:00 PM 13.95 57.11 0.464 7.83 15.97 9.36
10/26/2022 3:15:00 PM 13.97 57.146 0.464 7.82 16.12 9.36
10/26/2022 3:30:00 PM 13.98 57.164 0.464 7.82 16.58 9.28
10/26/2022 3:45:00 PM 13.98 57.164 0.465 7.82 16.17 9.22
10/26/2022 4:00:00 PM 13.98 57.164 0.465 7.81 16.56 9.1
10/26/2022 4:15:00 PM 13.97 57.146 0.465 7.8 16.59 8.98
10/26/2022 4:30:00 PM 13.96 57.128 0.464 7.8 17.35 8.87
10/26/2022 4:45:00 PM 13.97 57.146 0.465 7.8 16.83 8.84
10/26/2022 5:00:00 PM 13.97 57.146 0.465 7.79 16.6 8.84
10/26/2022 5:15:00 PM 13.97 57.146 0.464 7.79 16.6 8.76
10/26/2022 5:30:00 PM 13.96 57.128 0.464 7.79 16.59 8.66
10/26/2022 5:45:00 PM 13.95 57.11 0.465 7.78 16.34 8.47
10/26/2022 6:00:00 PM 13.93 57.074 0.465 7.77 17.57 8.33
10/26/2022 6:15:00 PM 13.9 57.02 0.465 7.75 16.55 8.22
10/26/2022 6:30:00 PM 13.88 56.984 0.465 7.74 16.35 8.07
10/26/2022 6:45:00 PM 13.85 56.93 0.465 7.74 16.4 7.93
10/26/2022 7:00:00 PM 13.81 56.858 0.465 7.73 16.59 7.8
10/26/2022 7:15:00 PM 13.78 56.804 0.465 7.72 16.94 7.7
10/26/2022 7:30:00 PM 13.75 56.75 0.465 7.72 16.74 7.62
10/26/2022 7:45:00 PM 13.71 56.678 0.465 7.71 16.76 7.5
10/26/2022 8:00:00 PM 13.66 56.588 0.465 7.7 18.86 7.34
10/26/2022 8:15:00 PM 13.62 56.516 0.465 7.69 17.71 7.28
10/26/2022 8:30:00 PM 13.57 56.426 0.465 7.69 17.22 7.21
10/26/2022 8:45:00 PM 13.53 56.354 0.465 7.68 17.92 7.15
10/26/2022 9:00:00 PM 13.47 56.246 0.465 7.68 17.41 7.06
10/26/2022 9:15:00 PM 13.4 56.12 0.465 7.67 17.34 7.03
10/26/2022 9:30:00 PM 13.36 56.048 0.465 7.67 18.87 7.01
10/26/2022 9:45:00 PM 13.32 55.976 0.465 7.66 18.54 6.96
10/26/2022 10:00:00 PM 13.27 55.886 0.464 7.66 18.02 6.94
10/26/2022 10:15:00 PM 13.2 55.76 0.464 7.65 18.2 6.93
10/26/2022 10:30:00 PM 13.15 55.67 0.464 7.65 18.41 6.87
10/26/2022 10:45:00 PM 13.09 55.562 0.464 7.65 18.04 6.87
10/26/2022 11:00:00 PM 13.05 55.49 0.464 7.65 18.27 6.86
10/26/2022 11:15:00 PM 13.02 55.436 0.464 7.65 18.07 6.88
10/26/2022 11:30:00 PM 12.98 55.364 0.464 7.65 18.35 6.82
10/26/2022 11:45:00 PM 12.95 55.31 0.463 7.65 18.21 6.81
10/27/2022 12:00:00 AM 12.91 55.238 0.464 7.66 18.09 6.85
10/27/2022 12:15:00 AM 12.87 55.166 0.463 7.66 18.21 6.78
10/27/2022 12:30:00 AM 12.84 55.112 0.463 7.65 18.72 6.81
10/27/2022 12:45:00 AM 12.81 55.058 0.463 7.66 19.04 6.84
10/27/2022 1:00:00 AM 12.78 55.004 0.463 7.66 18.59 6.88
10/27/2022 1:15:00 AM 12.74 54.932 0.463 7.66 20.02 6.86
10/27/2022 1:30:00 AM 12.71 54.878 0.463 7.66 17.98 6.89
10/27/2022 1:45:00 AM 12.67 54.806 0.463 7.66 18.95 6.88
10/27/2022 2:00:00 AM 12.63 54.734 0.463 7.66 18.49 6.88
10/27/2022 2:15:00 AM 12.61 54.698 0.463 7.66 18.41 6.88
10/27/2022 2:30:00 AM 12.57 54.626 0.463 7.66 18.67 6.89
10/27/2022 2:45:00 AM 12.55 54.59 0.463 7.66 18.32 6.86
10/27/2022 3:00:00 AM 12.51 54.518 0.463 7.66 18.21 6.86
10/27/2022 3:15:00 AM 12.47 54.446 0.463 7.66 18.94 6.88
10/27/2022 3:30:00 AM 12.44 54.392 0.463 7.67 18.57 6.89
10/27/2022 3:45:00 AM 12.41 54.338 0.463 7.66 18.43 6.89
10/27/2022 4:00:00 AM 12.38 54.284 0.463 7.67 18.87 6.89
10/27/2022 4:15:00 AM 12.35 54.23 0.464 7.66 18.46 6.88
10/27/2022 4:30:00 AM 12.33 54.194 0.464 7.66 18.21 6.9
10/27/2022 4:45:00 AM 12.29 54.122 0.464 7.66 19.65 6.89
10/27/2022 5:00:00 AM 12.26 54.068 0.464 7.66 18.68 6.91
10/27/2022 5:15:00 AM 12.22 53.996 0.465 7.66 19.27 6.92
10/27/2022 5:30:00 AM 12.18 53.924 0.465 7.66 18.83 6.92
10/27/2022 5:45:00 AM 12.14 53.852 0.465 7.66 19.53 6.94
10/27/2022 6:00:00 AM 12.1 53.78 0.465 7.67 18.92 6.96
10/27/2022 6:15:00 AM 12.05 53.69 0.465 7.66 19.65 6.95
10/27/2022 6:30:00 AM 12.01 53.618 0.466 7.66 20.3 6.97
10/27/2022 6:45:00 AM 11.97 53.546 0.466 7.66 19.92 6.98
10/27/2022 7:00:00 AM 11.93 53.474 0.466 7.66 19.36 7.01
10/27/2022 7:15:00 AM 11.9 53.42 0.466 7.65 19.14 7.01
10/27/2022 7:30:00 AM 11.86 53.348 0.467 7.66 19.65 7.01
10/27/2022 7:45:00 AM 11.83 53.294 0.467 7.66 19.23 7.03
10/27/2022 8:00:00 AM 11.79 53.222 0.467 7.65 20.1 7.06
10/27/2022 8:15:00 AM 11.76 53.168 0.467 7.65 19.64 7.09
10/27/2022 8:30:00 AM 11.73 53.114 0.467 7.66 19.34 7.18
10/27/2022 8:45:00 AM 11.73 53.114 0.467 7.66 19.66 7.28
10/27/2022 9:00:00 AM 11.71 53.078 0.468 7.67 19.25 7.4
10/27/2022 9:15:00 AM 11.7 53.06 0.468 7.68 19.27 7.56
10/27/2022 9:30:00 AM 11.69 53.042 0.471 7.69 19.62 7.7
10/27/2022 9:45:00 AM 11.69 53.042 0.47 7.7 19.71 7.89
10/27/2022 10:00:00 AM 11.7 53.06 0.469 7.71 20.66 8.13
10/27/2022 10:15:00 AM 11.75 53.15 0.469 7.73 19.32 8.43
10/27/2022 10:30:00 AM 11.81 53.258 0.468 7.73 18.85 8.69
10/27/2022 10:45:00 AM 11.89 53.402 0.468 7.74 18.94 8.96
10/27/2022 11:00:00 AM 11.96 53.528 0.468 7.76 18.55 9.22
10/27/2022 11:15:00 AM 12.05 53.69 0.468 7.78 18.86 9.5
10/27/2022 11:30:00 AM 12.14 53.852 0.468 7.77 18.88 9.72
10/27/2022 11:45:00 AM 12.25 54.05 0.468 7.77 19.38 9.95
10/27/2022 12:00:00 PM 12.38 54.284 0.467 7.8 18.92 10.19
10/27/2022 12:15:00 PM 12.53 54.554 0.467 7.83 18.9 10.44
10/27/2022 12:30:00 PM 12.69 54.842 0.466 7.84 18.8 10.67
10/27/2022 12:45:00 PM 12.86 55.148 0.466 7.86 18.75 10.91
10/27/2022 1:00:00 PM 13.02 55.436 0.466 7.87 18.94 11.15
10/27/2022 1:15:00 PM 13.18 55.724 0.465 7.9 19.15 11.38
10/27/2022 1:30:00 PM 13.35 56.03 0.465 7.95 18.93 11.58
10/27/2022 1:45:00 PM 13.53 56.354 0.465 7.96 19.3 11.79
10/27/2022 2:00:00 PM 13.72 56.696 0.465 7.98 19.28 11.96
10/27/2022 2:15:00 PM 13.92 57.056 0.465 7.97 19.54 12.12
10/27/2022 2:30:00 PM 14.07 57.326 0.464 7.97 20.64 12.22
10/27/2022 2:45:00 PM 14.23 57.614 0.465 7.96 19.39 12.36
10/27/2022 3:00:00 PM 14.34 57.812 0.464 7.98 25.51 12.48
10/27/2022 3:15:00 PM 14.43 57.974 0.464 8 20.7 12.51
10/27/2022 3:30:00 PM 14.46 58.028 0.463 8 20.47 12.5
10/27/2022 3:45:00 PM 14.48 58.064 0.463 8.02 27.13 12.5
10/27/2022 4:00:00 PM 14.47 58.046 0.463 8.03 27.02 12.41
10/27/2022 4:15:00 PM 14.44 57.992 0.463 8.04 31.33 12.3
10/27/2022 4:30:00 PM 14.43 57.974 0.463 8.04 30.81 12.18
10/27/2022 4:45:00 PM 14.35 57.83 0.463 8.04 31.31 12.07
10/27/2022 5:00:00 PM 14.27 57.686 0.464 8.04 33.3 11.88
10/27/2022 5:15:00 PM 14.19 57.542 0.464 8.04 35.04 11.7
10/27/2022 5:30:00 PM 14.1 57.38 0.464 8.05 34.26 11.54
10/27/2022 5:45:00 PM 14 57.2 0.463 8.04 35.22 11.33
10/27/2022 6:00:00 PM 13.9 57.02 0.464 8.02 34.58 11.11
10/27/2022 6:15:00 PM 13.77 56.786 0.464 7.98 33.19 10.84
10/27/2022 6:30:00 PM 13.63 56.534 0.464 7.94 30.16 10.52
10/27/2022 6:45:00 PM 13.48 56.264 0.465 7.91 27.4 10.22
10/27/2022 7:00:00 PM 13.35 56.03 0.465 7.88 25.63 9.89
10/27/2022 7:15:00 PM 13.21 55.778 0.465 7.85 24.48 9.57
10/27/2022 7:30:00 PM 13.09 55.562 0.466 7.82 24.3 9.28
10/27/2022 7:45:00 PM 12.97 55.346 0.466 7.8 24.22 9.05
10/27/2022 8:00:00 PM 12.86 55.148 0.466 7.77 24.76 8.79
10/27/2022 8:15:00 PM 12.75 54.95 0.466 7.74 24.76 8.59
10/27/2022 8:30:00 PM 12.65 54.77 0.466 7.72 24.64 8.45
10/27/2022 8:45:00 PM 12.54 54.572 0.467 7.71 25.01 8.28
10/27/2022 9:00:00 PM 12.43 54.374 0.467 7.7 24.89 8.17
10/27/2022 9:15:00 PM 12.35 54.23 0.466 7.69 25.32 8.1
10/27/2022 9:30:00 PM 12.24 54.032 0.466 7.69 26.09 8.01
10/27/2022 9:45:00 PM 12.15 53.87 0.466 7.68 26.04 7.95
10/27/2022 10:00:00 PM 12.05 53.69 0.466 7.68 26.46 7.9
10/27/2022 10:15:00 PM 11.96 53.528 0.466 7.68 28.24 7.86
10/27/2022 10:30:00 PM 11.87 53.366 0.466 7.67 27.51 7.83
10/27/2022 10:45:00 PM 11.77 53.186 0.466 7.67 27.9 7.76
10/27/2022 11:00:00 PM 11.67 53.006 0.467 7.66 28.26 7.74
10/27/2022 11:15:00 PM 11.58 52.844 0.467 7.66 28.81 7.71
10/27/2022 11:30:00 PM 11.49 52.682 0.467 7.67 29.66 7.7
10/27/2022 11:45:00 PM 11.39 52.502 0.467 7.66 31.38 7.68
10/28/2022 12:00:00 AM 11.3 52.34 0.467 7.66 29.87 7.66
10/28/2022 12:15:00 AM 11.2 52.16 0.467 7.66 30.89 7.63
10/28/2022 12:30:00 AM 11.11 51.998 0.467 7.66 30.05 7.63
10/28/2022 12:45:00 AM 11.01 51.818 0.468 7.66 30.37 7.63
10/28/2022 1:00:00 AM 10.91 51.638 0.468 7.67 29.83 7.6
10/28/2022 1:15:00 AM 10.82 51.476 0.468 7.66 28.98 7.6
10/28/2022 1:30:00 AM 10.73 51.314 0.468 7.67 30.33 7.61
10/28/2022 1:45:00 AM 10.63 51.134 0.468 7.67 29.74 7.6
10/28/2022 2:00:00 AM 10.54 50.972 0.469 7.67 32.41 7.61
10/28/2022 2:15:00 AM 10.44 50.792 0.469 7.68 29.44 7.61
10/28/2022 2:30:00 AM 10.34 50.612 0.469 7.68 30.04 7.61
10/28/2022 2:45:00 AM 10.26 50.468 0.469 7.68 30.14 7.63
10/28/2022 3:00:00 AM 10.16 50.288 0.47 7.68 30.98 7.65
10/28/2022 3:15:00 AM 10.08 50.144 0.47 7.68 30.94 7.62
10/28/2022 3:30:00 AM 9.99 49.982 0.47 7.68 33.1 7.62
10/28/2022 3:45:00 AM 9.9 49.82 0.471 7.68 31.36 7.63
10/28/2022 4:00:00 AM 9.81 49.658 0.471 7.68 27.78 7.66
10/28/2022 4:15:00 AM 9.72 49.496 0.471 7.68 33.27 7.68
10/28/2022 4:30:00 AM 9.64 49.352 0.471 7.69 32.35 7.74
10/28/2022 4:45:00 AM 9.55 49.19 0.472 7.69 33.78 7.76
10/28/2022 5:00:00 AM 9.47 49.046 0.472 7.69 31.89 7.78
10/28/2022 5:15:00 AM 9.39 48.902 0.472 7.7 32.38 7.84
10/28/2022 5:30:00 AM 9.3 48.74 0.472 7.69 32.94 7.86
10/28/2022 5:45:00 AM 9.23 48.614 0.472 7.7 34.25 7.9
10/28/2022 6:00:00 AM 9.16 48.488 0.472 7.7 33.11 7.94
10/28/2022 6:15:00 AM 9.09 48.362 0.472 7.71 35.31 7.97
10/28/2022 6:30:00 AM 9.02 48.236 0.472 7.71 34.81 7.99
10/28/2022 6:45:00 AM 8.96 48.128 0.472 7.71 32.86 8.03
10/28/2022 7:00:00 AM 8.9 48.02 0.472 7.71 34.1 8.05
10/28/2022 7:15:00 AM 8.85 47.93 0.472 7.71 34.92 8.07
10/28/2022 7:30:00 AM 8.8 47.84 0.472 7.72 33.21 8.1
10/28/2022 7:45:00 AM 8.75 47.75 0.472 7.72 34.75 8.12
10/28/2022 8:00:00 AM 8.71 47.678 0.472 7.72 33.98 8.16
10/28/2022 8:15:00 AM 8.68 47.624 0.472 7.72 33.59 8.23
10/28/2022 8:30:00 AM 8.65 47.57 0.472 7.72 34.16 8.31
10/28/2022 8:45:00 AM 8.65 47.57 0.472 7.71 33.75 8.43
10/28/2022 9:00:00 AM 8.65 47.57 0.472 7.71 34.51 8.55
10/28/2022 9:15:00 AM 8.67 47.606 0.472 7.71 42.55 8.7
10/28/2022 9:30:00 AM 8.7 47.66 0.472 7.71 37.74 8.92
10/28/2022 9:45:00 AM 8.75 47.75 0.471 7.71 34.69 9.12
10/28/2022 10:00:00 AM 8.8 47.84 0.471 7.72 36 9.4
10/28/2022 10:15:00 AM 8.86 47.948 0.471 7.73 34.36 9.68
10/28/2022 10:30:00 AM 8.94 48.092 0.47 7.74 34.88 10.01
10/28/2022 10:45:00 AM 9.07 48.326 0.47 7.75 35.58 10.33
10/28/2022 11:00:00 AM 9.18 48.524 0.47 7.77 34.91 10.61
10/28/2022 11:15:00 AM 9.28 48.704 0.469 7.8 34.41 10.92
10/28/2022 11:30:00 AM 9.36 48.848 0.469 7.83 34.43 11.22
10/28/2022 11:45:00 AM 9.46 49.028 0.468 7.87 24.62 11.49
10/28/2022 12:00:00 PM 9.6 49.28 0.468 7.89 24.59 11.75
10/28/2022 12:15:00 PM 9.75 49.55 0.467 7.9 24.51 12.03
10/28/2022 12:30:00 PM 9.96 49.928 0.467 7.91 25.1 12.3
10/28/2022 12:45:00 PM 10.11 50.198 0.466 7.86 24.92 12.53
10/28/2022 1:00:00 PM 10.3 50.54 0.465 7.85 34.31 12.8
10/28/2022 1:15:00 PM 10.46 50.828 0.465 7.89 32.6 12.97
10/28/2022 1:30:00 PM 10.63 51.134 0.464 7.92 33.75 13.16
10/28/2022 1:45:00 PM 10.8 51.44 0.464 7.96 33.41 13.32
10/28/2022 2:00:00 PM 10.97 51.746 0.464 8 33.76 13.46
10/28/2022 2:15:00 PM 11.17 52.106 0.463 8.02 36.89 13.57
10/28/2022 2:30:00 PM 11.25 52.25 0.463 8.02 49.64 13.66
10/28/2022 2:45:00 PM 11.32 52.376 0.462 8.04 40.53 13.68
10/28/2022 3:00:00 PM 11.5 52.7 0.462 8.06 45.77 13.73
10/28/2022 3:15:00 PM 11.69 53.042 0.462 8.06 50.57 13.75
10/28/2022 3:30:00 PM 11.76 53.168 0.462 8.06 56.07 13.78
10/28/2022 3:45:00 PM 11.77 53.186 0.462 8.09 64.77 13.77
10/28/2022 4:00:00 PM 11.81 53.258 0.462 8.11 56.01 13.69
10/28/2022 4:15:00 PM 11.81 53.258 0.46 8.12 57.76 13.63
10/28/2022 4:30:00 PM 11.8 53.24 0.461 8.13 65.98 13.56
10/28/2022 4:45:00 PM 11.8 53.24 0.461 8.16 71.69 13.45
10/28/2022 5:00:00 PM 11.78 53.204 0.46 8.17 73.57 13.37
10/28/2022 5:15:00 PM 11.72 53.096 0.46 8.22 80.17 13.21
10/28/2022 5:30:00 PM 11.65 52.97 0.46 8.33 95.29 13
10/28/2022 5:45:00 PM 11.58 52.844 0.459 8.52 104 12.75
10/28/2022 6:00:00 PM 11.5 52.7 0.46 8.73 87.62 12.51
10/28/2022 6:15:00 PM 11.42 52.556 0.46 8.85 35.97 12.25
10/28/2022 6:30:00 PM 11.33 52.394 0.46 8.79 34.38 11.95
10/28/2022 6:45:00 PM 11.25 52.25 0.46 8.73 35.04 11.67
10/28/2022 7:00:00 PM 11.15 52.07 0.461 8.55 33.41 11.38
10/28/2022 7:15:00 PM 11.07 51.926 0.461 8.32 34.58 11.1
10/28/2022 7:30:00 PM 10.97 51.746 0.462 8.13 33.72 10.78
10/28/2022 7:45:00 PM 10.88 51.584 0.462 8.01 34.53 10.51
10/28/2022 8:00:00 PM 10.77 51.386 0.462 7.94 38.33 10.26
10/28/2022 8:15:00 PM 10.69 51.242 0.462 7.9 36.49 10.02
10/28/2022 8:30:00 PM 10.6 51.08 0.462 7.87 36.64 9.84
10/28/2022 8:45:00 PM 10.51 50.918 0.462 7.84 35.2 9.66
10/28/2022 9:00:00 PM 10.42 50.756 0.462 7.83 36.87 9.51
10/28/2022 9:15:00 PM 10.34 50.612 0.462 7.82 36.83 9.4
10/28/2022 9:30:00 PM 10.26 50.468 0.462 7.81 36.54 9.29
10/28/2022 9:45:00 PM 10.17 50.306 0.462 7.8 37.72 9.22
10/28/2022 10:00:00 PM 10.09 50.162 0.462 7.79 38.47 9.17
10/28/2022 10:15:00 PM 10.01 50.018 0.462 7.79 37.73 9.13
10/28/2022 10:30:00 PM 9.93 49.874 0.462 7.78 36.45 9.07
10/28/2022 10:45:00 PM 9.85 49.73 0.461 7.78 24.71 9.02
10/28/2022 11:00:00 PM 9.78 49.604 0.461 7.77 33.74 8.98
10/28/2022 11:15:00 PM 9.7 49.46 0.461 7.77 33.11 8.94
10/28/2022 11:30:00 PM 9.62 49.316 0.461 7.76 32.91 8.9
10/28/2022 11:45:00 PM 9.53 49.154 0.461 7.76 42.39 8.88
10/29/2022 12:00:00 AM 9.45 49.01 0.461 7.76 35.62 8.86
10/29/2022 12:15:00 AM 9.37 48.866 0.461 7.76 34.97 8.83
10/29/2022 12:30:00 AM 9.29 48.722 0.461 7.75 36.75 8.79
10/29/2022 12:45:00 AM 9.22 48.596 0.46 7.75 36.61 8.78
10/29/2022 1:00:00 AM 9.12 48.416 0.46 7.75 40.17 8.76
10/29/2022 1:15:00 AM 9.05 48.29 0.46 7.74 38.64 8.73
10/29/2022 1:30:00 AM 8.97 48.146 0.46 7.74 33.07 8.73
10/29/2022 1:45:00 AM 8.87 47.966 0.46 7.74 35.64 8.72
10/29/2022 2:00:00 AM 8.8 47.84 0.46 7.74 38.34 8.7
10/29/2022 2:15:00 AM 8.71 47.678 0.46 7.74 40.36 8.72
10/29/2022 2:30:00 AM 8.64 47.552 0.46 7.74 43.62 8.69
10/29/2022 2:45:00 AM 8.56 47.408 0.46 7.74 43.15 8.71
10/29/2022 3:00:00 AM 8.48 47.264 0.46 7.74 43.09 8.73
10/29/2022 3:15:00 AM 8.41 47.138 0.459 7.74 42.64 8.71
10/29/2022 3:30:00 AM 8.35 47.03 0.459 7.74 40.64 8.73
10/29/2022 3:45:00 AM 8.27 46.886 0.46 7.74 45.56 8.74
10/29/2022 4:00:00 AM 8.2 46.76 0.46 7.74 44.12 8.74
10/29/2022 4:15:00 AM 8.14 46.652 0.46 7.74 40.77 8.76
10/29/2022 4:30:00 AM 8.07 46.526 0.46 7.74 42.07 8.76
10/29/2022 4:45:00 AM 8.01 46.418 0.46 7.74 42.29 8.77
10/29/2022 5:00:00 AM 7.95 46.31 0.46 7.75 43.47 8.78
10/29/2022 5:15:00 AM 7.89 46.202 0.46 7.75 44.28 8.79
10/29/2022 5:30:00 AM 7.82 46.076 0.46 7.75 44.32 8.8
10/29/2022 5:45:00 AM 7.77 45.986 0.461 7.75 42.32 8.81
10/29/2022 6:00:00 AM 7.71 45.878 0.461 7.75 44.95 8.82
10/29/2022 6:15:00 AM 7.65 45.77 0.461 7.75 41.36 8.83
10/29/2022 6:30:00 AM 7.59 45.662 0.461 7.75 40.96 8.84
10/29/2022 6:45:00 AM 7.53 45.554 0.462 7.75 25.55 8.88
10/29/2022 7:00:00 AM 7.48 45.464 0.462 7.76 37.64 8.88
10/29/2022 7:15:00 AM 7.42 45.356 0.462 7.76 35.58 8.89
10/29/2022 7:30:00 AM 7.37 45.266 0.463 7.76 36.95 8.9
10/29/2022 7:45:00 AM 7.32 45.176 0.463 7.76 33.19 8.93
10/29/2022 8:00:00 AM 7.27 45.086 0.463 7.76 36.16 8.97
10/29/2022 8:15:00 AM 7.23 45.014 0.464 7.76 29.28 9.01
10/29/2022 8:30:00 AM 7.2 44.96 0.464 7.76 38.45 9.07
10/29/2022 8:45:00 AM 7.17 44.906 0.464 7.77 38.1 9.14
10/29/2022 9:00:00 AM 7.17 44.906 0.465 7.77 41.74 9.26
10/29/2022 9:15:00 AM 7.17 44.906 0.465 7.76 46.22 9.37
10/29/2022 9:30:00 AM 7.18 44.924 0.465 7.77 49.7 9.52
10/29/2022 9:45:00 AM 7.24 45.032 0.465 7.76 48.75 9.69
10/29/2022 10:00:00 AM 7.3 45.14 0.465 7.75 47.26 9.88
10/29/2022 10:15:00 AM 7.39 45.302 0.466 7.75 49.35 10.13
10/29/2022 10:30:00 AM 7.51 45.518 0.465 7.75 50.96 10.37
10/29/2022 10:45:00 AM 7.65 45.77 0.465 7.76 48.88 10.58
10/29/2022 11:00:00 AM 7.8 46.04 0.465 7.78 47.37 10.88
10/29/2022 11:15:00 AM 7.96 46.328 0.465 7.79 49.47 11.11
10/29/2022 11:30:00 AM 8.13 46.634 0.465 7.74 47.51 11.33
10/29/2022 11:45:00 AM 8.3 46.94 0.465 7.68 50.31 11.54
10/29/2022 12:00:00 PM 8.49 47.282 0.465 7.74 50.89 11.71
10/29/2022 12:15:00 PM 8.69 47.642 0.465 7.81 49.61 11.93
10/29/2022 12:30:00 PM 8.9 48.02 0.465 7.86 43.84 12.12
10/29/2022 12:45:00 PM 9.13 48.434 0.464 7.89 51.94 12.34
10/29/2022 1:00:00 PM 9.36 48.848 0.464 7.89 48.29 12.53
10/29/2022 1:15:00 PM 9.59 49.262 0.464 7.91 50.2 12.73
10/29/2022 1:30:00 PM 9.82 49.676 0.463 7.95 55.09 12.88
10/29/2022 1:45:00 PM 10.06 50.108 0.463 7.97 27.92 13.03
10/29/2022 2:00:00 PM 10.3 50.54 0.463 7.99 50.51 13.24
10/29/2022 2:15:00 PM 10.53 50.954 0.463 7.99 52.9 13.35
10/29/2022 2:30:00 PM 10.75 51.35 0.463 7.98 46.4 13.46
10/29/2022 2:45:00 PM 10.96 51.728 0.463 8 57.38 13.57
10/29/2022 3:00:00 PM 11.13 52.034 0.463 8.01 65.85 13.58
10/29/2022 3:15:00 PM 11.26 52.268 0.463 8.03 151 13.61
10/29/2022 3:30:00 PM 11.36 52.448 0.463 8.04 208.5 13.62
10/29/2022 3:45:00 PM 11.41 52.538 0.462 8.07 63.83 13.61
10/29/2022 4:00:00 PM 11.46 52.628 0.461 8.08 39.56 13.56
10/29/2022 4:15:00 PM 11.48 52.664 0.461 8.1 59.41 13.45
10/29/2022 4:30:00 PM 11.5 52.7 0.461 8.1 60.99 13.4
10/29/2022 4:45:00 PM 11.49 52.682 0.461 8.12 46.76 13.27
10/29/2022 5:00:00 PM 11.48 52.664 0.461 8.13 75.08 13.13
10/29/2022 5:15:00 PM 11.45 52.61 0.461 8.13 47.23 13.02
10/29/2022 5:30:00 PM 11.39 52.502 0.462 8.16 40.97 12.85
10/29/2022 5:45:00 PM 11.33 52.394 0.461 8.26 46.4 12.68
10/29/2022 6:00:00 PM 11.24 52.232 0.462 8.49 49.67 12.47
10/29/2022 6:15:00 PM 11.13 52.034 0.462 8.64 52.65 12.2
10/29/2022 6:30:00 PM 11 51.8 0.462 8.59 54.79 11.91
10/29/2022 6:45:00 PM 10.86 51.548 0.462 8.54 56.76 11.61
10/29/2022 7:00:00 PM 10.74 51.332 0.462 8.42 59.61 11.3
10/29/2022 7:15:00 PM 10.61 51.098 0.462 8.25 63.76 11
10/29/2022 7:30:00 PM 10.48 50.864 0.463 8.12 55.14 10.71
10/29/2022 7:45:00 PM 10.36 50.648 0.463 8.01 56.76 10.45
10/29/2022 8:00:00 PM 10.26 50.468 0.463 7.95 46.11 10.2
10/29/2022 8:15:00 PM 10.15 50.27 0.463 7.93 41.39 10
10/29/2022 8:30:00 PM 10.06 50.108 0.463 7.9 37.29 9.82
10/29/2022 8:45:00 PM 9.98 49.964 0.463 7.87 35.56 9.68
10/29/2022 9:00:00 PM 9.9 49.82 0.463 7.85 35.31 9.55
10/29/2022 9:15:00 PM 9.81 49.658 0.463 7.84 37.3 9.43
10/29/2022 9:30:00 PM 9.74 49.532 0.463 7.83 39.92 9.35
10/29/2022 9:45:00 PM 9.65 49.37 0.463 7.82 40.34 9.31
10/29/2022 10:00:00 PM 9.57 49.226 0.463 7.81 38.11 9.25
10/29/2022 10:15:00 PM 9.5 49.1 0.463 7.81 39.67 9.18
10/29/2022 10:30:00 PM 9.42 48.956 0.463 7.8 37.44 9.12
10/29/2022 10:45:00 PM 9.34 48.812 0.462 7.8 39.65 9.1
10/29/2022 11:00:00 PM 9.26 48.668 0.462 7.79 38.87 9.06
10/29/2022 11:15:00 PM 9.18 48.524 0.462 7.79 39.91 9.02
10/29/2022 11:30:00 PM 9.09 48.362 0.461 7.79 40.7 9
10/29/2022 11:45:00 PM 9.02 48.236 0.462 7.79 41.32 8.94
10/30/2022 12:00:00 AM 8.94 48.092 0.462 7.78 41.76 8.93
10/30/2022 12:15:00 AM 8.84 47.912 0.462 7.78 41.47 8.92
10/30/2022 12:30:00 AM 8.75 47.75 0.461 7.78 42.51 8.9
10/30/2022 12:45:00 AM 8.67 47.606 0.461 7.78 42.59 8.88
10/30/2022 1:00:00 AM 8.58 47.444 0.461 7.78 41.94 8.87
10/30/2022 1:15:00 AM 8.49 47.282 0.461 7.78 41.3 8.86
10/30/2022 1:30:00 AM 8.41 47.138 0.461 7.78 40.49 8.88
10/30/2022 1:45:00 AM 8.31 46.958 0.461 7.77 42.04 8.83
10/30/2022 2:00:00 AM 8.22 46.796 0.461 7.78 42.13 8.85
10/30/2022 2:15:00 AM 8.13 46.634 0.461 7.77 42.78 8.83
10/30/2022 2:30:00 AM 8.05 46.49 0.461 7.77 41.22 8.83
10/30/2022 2:45:00 AM 7.95 46.31 0.46 7.77 41.63 8.85
10/30/2022 3:00:00 AM 7.87 46.166 0.46 7.77 40.33 8.84
10/30/2022 3:15:00 AM 7.79 46.022 0.46 7.77 41.76 8.86
10/30/2022 3:30:00 AM 7.7 45.86 0.461 7.77 42.24 8.84
10/30/2022 3:45:00 AM 7.62 45.716 0.461 7.77 68.92 8.88
10/30/2022 4:00:00 AM 7.55 45.59 0.461 7.77 45.9 8.89
10/30/2022 4:15:00 AM 7.46 45.428 0.461 7.77 57.56 8.9
10/30/2022 4:30:00 AM 7.39 45.302 0.461 7.77 35.18 8.92
10/30/2022 4:45:00 AM 7.33 45.194 0.461 7.77 71 8.91
10/30/2022 5:00:00 AM 7.26 45.068 0.461 7.77 6.68 8.93
10/30/2022 5:15:00 AM 7.19 44.942 0.461 7.77 8.13 8.94
10/30/2022 5:30:00 AM 7.13 44.834 0.462 7.77 6.96 8.96
10/30/2022 5:45:00 AM 7.07 44.726 0.462 7.77 6.81 8.95
10/30/2022 6:00:00 AM 7.02 44.636 0.462 7.77 6.78 8.95
10/30/2022 6:15:00 AM 6.97 44.546 0.462 7.77 6.4 8.93
10/30/2022 6:30:00 AM 6.9 44.42 0.463 7.77 6.18 8.97
10/30/2022 6:45:00 AM 6.84 44.312 0.463 7.78 6.44 8.99
10/30/2022 7:00:00 AM 6.78 44.204 0.463 7.78 7.73 9
10/30/2022 7:15:00 AM 6.73 44.114 0.463 7.78 9.58 9.01
10/30/2022 7:30:00 AM 6.69 44.042 0.464 7.78 6.29 9.01
10/30/2022 7:45:00 AM 6.64 43.952 0.464 7.78 6.85 9.04
10/30/2022 8:00:00 AM 6.61 43.898 0.464 7.78 6.63 9.03
10/30/2022 8:15:00 AM 6.57 43.826 0.465 7.78 6.63 9.09
10/30/2022 8:30:00 AM 6.54 43.772 0.465 7.78 6.37 9.12
10/30/2022 8:45:00 AM 6.52 43.736 0.466 7.78 6.27 9.17
10/30/2022 9:00:00 AM 6.51 43.718 0.466 7.79 6.76 9.29
10/30/2022 9:15:00 AM 6.52 43.736 0.466 7.79 6.74 9.44
10/30/2022 9:30:00 AM 6.56 43.808 0.467 7.78 6.75 9.59
10/30/2022 9:45:00 AM 6.61 43.898 0.466 7.79 6.24 9.75
10/30/2022 10:00:00 AM 6.67 44.006 0.467 7.78 8.22 9.97
10/30/2022 10:15:00 AM 6.76 44.168 0.467 7.77 7.07 10.24
10/30/2022 10:30:00 AM 6.88 44.384 0.466 7.77 6.87 10.47
10/30/2022 10:45:00 AM 7.02 44.636 0.466 7.79 6.42 10.7
10/30/2022 11:00:00 AM 7.17 44.906 0.466 7.8 6.15 11
10/30/2022 11:15:00 AM 7.32 45.176 0.466 7.8 6.53 11.28
10/30/2022 11:30:00 AM 7.49 45.482 0.466 7.77 7.74 11.51
10/30/2022 11:45:00 AM 7.68 45.824 0.465 7.73 6.34 11.7
10/30/2022 12:00:00 PM 7.82 46.076 0.465 7.78 6.68 11.94
10/30/2022 12:15:00 PM 8.01 46.418 0.465 7.85 6.16 12.22
10/30/2022 12:30:00 PM 8.22 46.796 0.465 7.9 6.46 12.42
10/30/2022 12:45:00 PM 8.44 47.192 0.464 7.92 6.05 12.63
10/30/2022 1:00:00 PM 8.65 47.57 0.464 7.93 6.15 12.91
10/30/2022 1:15:00 PM 8.88 47.984 0.463 7.95 5.75 13.13
10/30/2022 1:30:00 PM 9.07 48.326 0.463 7.98 6.06 13.37
10/30/2022 1:45:00 PM 9.23 48.614 0.462 8.01 6.12 13.58
10/30/2022 2:00:00 PM 9.54 49.172 0.462 8.03 6.05 13.78
10/30/2022 2:15:00 PM 9.76 49.568 0.461 8.04 6.48 13.9
10/30/2022 2:30:00 PM 9.89 49.802 0.461 8.05 9.77 14.02
10/30/2022 2:45:00 PM 9.97 49.946 0.461 8.09 13.94 14.04
10/30/2022 3:00:00 PM 10.15 50.27 0.46 8.1 16.18 14.18
10/30/2022 3:15:00 PM 10.33 50.594 0.46 8.12 20.37 14.27
10/30/2022 3:30:00 PM 10.51 50.918 0.46 8.12 9.42 14.34
10/30/2022 3:45:00 PM 10.56 51.008 0.459 8.13 8.72 14.33
10/30/2022 4:00:00 PM 10.57 51.026 0.46 8.14 11.96 14.24
10/30/2022 4:15:00 PM 10.59 51.062 0.459 8.18 10.11 14.19
10/30/2022 4:30:00 PM 10.6 51.08 0.46 8.19 23.39 14.13
10/30/2022 4:45:00 PM 10.64 51.152 0.46 8.2 40.38 14.02
10/30/2022 5:00:00 PM 10.66 51.188 0.459 8.19 73.15 13.95
10/30/2022 5:15:00 PM 10.65 51.17 0.459 8.29 33 13.8
10/30/2022 5:30:00 PM 10.62 51.116 0.459 8.3 40.6 13.6
10/30/2022 5:45:00 PM 10.58 51.044 0.459 8.44 18.51 13.35
10/30/2022 6:00:00 PM 10.51 50.918 0.459 8.69 23.6 13.07
10/30/2022 6:15:00 PM 10.45 50.81 0.459 8.99 28.08 12.75
10/30/2022 6:30:00 PM 10.38 50.684 0.459 9.24 32.64 12.42
10/30/2022 6:45:00 PM 10.31 50.558 0.46 9.58 32.98 12.1
10/30/2022 7:00:00 PM 10.24 50.432 0.46 10.05 9.97 11.81
10/30/2022 7:15:00 PM 10.17 50.306 0.46 10.59 13.28 11.49
10/30/2022 7:30:00 PM 10.1 50.18 0.46 10.91 7.24 11.17
10/30/2022 7:45:00 PM 10.04 50.072 0.46 10.9 6.09 10.89
10/30/2022 8:00:00 PM 9.98 49.964 0.461 10.86 5.72 10.59
10/30/2022 8:15:00 PM 9.92 49.856 0.461 10.65 4.46 10.37
10/30/2022 8:30:00 PM 9.88 49.784 0.461 10.55 6.7 10.16
10/30/2022 8:45:00 PM 9.84 49.712 0.461 10.44 4.77 9.99
10/30/2022 9:00:00 PM 9.78 49.604 0.461 10.03 4.41 9.81
10/30/2022 9:15:00 PM 9.73 49.514 0.461 9.47 4.11 9.7
10/30/2022 9:30:00 PM 9.66 49.388 0.46 8.99 4.25 9.57
10/30/2022 9:45:00 PM 9.61 49.298 0.46 8.6 4.45 9.49
10/30/2022 10:00:00 PM 9.56 49.208 0.46 8.37 4.42 9.38
10/30/2022 10:15:00 PM 9.5 49.1 0.46 8.2 4.7 9.34
10/30/2022 10:30:00 PM 9.43 48.974 0.46 8.04 5.6 9.28
10/30/2022 10:45:00 PM 9.36 48.848 0.46 7.97 5.8 9.23
10/30/2022 11:00:00 PM 9.3 48.74 0.46 7.92 6.02 9.18
10/30/2022 11:15:00 PM 9.23 48.614 0.46 7.89 4.73 9.1
10/30/2022 11:30:00 PM 9.16 48.488 0.46 7.87 4.81 9.04
10/30/2022 11:45:00 PM 9.09 48.362 0.46 7.85 5.24 9
10/31/2022 12:00:00 AM 9.02 48.236 0.461 7.84 5.66 8.97
10/31/2022 12:15:00 AM 8.94 48.092 0.461 7.83 5.24 8.91
10/31/2022 12:30:00 AM 8.88 47.984 0.461 7.82 6.22 8.87
10/31/2022 12:45:00 AM 8.81 47.858 0.461 7.81 5.15 8.85
10/31/2022 1:00:00 AM 8.75 47.75 0.461 7.8 6.55 8.78
10/31/2022 1:15:00 AM 8.68 47.624 0.461 7.8 4.74 8.72
10/31/2022 1:30:00 AM 8.62 47.516 0.461 7.8 4.76 8.73
10/31/2022 1:45:00 AM 8.55 47.39 0.461 7.8 4.91 8.7
10/31/2022 2:00:00 AM 8.49 47.282 0.461 7.8 4.73 8.69
10/31/2022 2:15:00 AM 8.45 47.21 0.461 7.8 4.88 8.67
10/31/2022 2:30:00 AM 8.4 47.12 0.461 7.81 5.56 8.65
10/31/2022 2:45:00 AM 8.35 47.03 0.461 7.82 4.83 8.65
10/31/2022 3:00:00 AM 8.32 46.976 0.461 7.84 5.51 8.63
10/31/2022 3:15:00 AM 8.29 46.922 0.461 7.86 4.67 8.62
10/31/2022 3:30:00 AM 8.26 46.868 0.461 7.87 4.47 8.58
10/31/2022 3:45:00 AM 8.21 46.778 0.461 7.87 4.79 8.6
10/31/2022 4:00:00 AM 8.17 46.706 0.461 7.85 4.64 8.59
10/31/2022 4:15:00 AM 8.14 46.652 0.461 7.84 4.86 8.58
10/31/2022 4:30:00 AM 8.11 46.598 0.462 7.83 4.7 8.59
10/31/2022 4:45:00 AM 8.07 46.526 0.462 7.83 4.62 8.58
10/31/2022 5:00:00 AM 8.04 46.472 0.461 7.82 5.35 8.58
10/31/2022 5:15:00 AM 8.02 46.436 0.461 7.82 4.57 8.58
10/31/2022 5:30:00 AM 8 46.4 0.462 7.83 4.3 8.57
10/31/2022 5:45:00 AM 7.98 46.364 0.462 7.84 4.77 8.56
10/31/2022 6:00:00 AM 7.98 46.364 0.462 7.88 4.31 8.57
10/31/2022 6:15:00 AM 7.96 46.328 0.462 7.95 4.51 8.53
10/31/2022 6:30:00 AM 7.93 46.274 0.462 7.94 5.08 8.54
10/31/2022 6:45:00 AM 7.9 46.22 0.462 7.92 4.52 8.55
10/31/2022 7:00:00 AM 7.88 46.184 0.463 7.89 4.25 8.53
10/31/2022 7:15:00 AM 7.88 46.184 0.463 7.89 4.49 8.54
10/31/2022 7:30:00 AM 7.89 46.202 0.463 7.93 4.84 8.54
10/31/2022 7:45:00 AM 7.9 46.22 0.463 7.97 4.57 8.52
10/31/2022 8:00:00 AM 7.91 46.238 0.464 8.03 4.35 8.53
10/31/2022 8:15:00 AM 7.92 46.256 0.464 8.09 4.18 8.51
10/31/2022 8:30:00 AM 7.94 46.292 0.464 8.17 4.29 8.57
10/31/2022 8:45:00 AM 7.96 46.328 0.464 8.31 4.36 8.59
10/31/2022 9:00:00 AM 7.98 46.364 0.464 8.46 4.29 8.68
10/31/2022 9:15:00 AM 8.01 46.418 0.464 8.58 5.01 8.74
10/31/2022 9:30:00 AM 8.05 46.49 0.464 8.7 5.54 8.84
10/31/2022 9:45:00 AM 8.1 46.58 0.465 8.78 4.22 8.95
10/31/2022 10:00:00 AM 8.17 46.706 0.468 8.88 4.14 9.06
10/31/2022 10:15:00 AM 8.26 46.868 0.467 8.96 4.1 9.31
10/31/2022 10:30:00 AM 8.35 47.03 0.466 8.97 4.47 9.6
10/31/2022 10:45:00 AM 8.44 47.192 0.466 8.98 4.14 9.9
10/31/2022 11:00:00 AM 8.56 47.408 0.465 8.99 4.26 10.19
10/31/2022 11:15:00 AM 8.67 47.606 0.465 8.96 4.44 10.57
10/31/2022 11:30:00 AM 8.76 47.768 0.465 8.92 4.21 10.88
10/31/2022 11:45:00 AM 8.86 47.948 0.465 8.9 4.14 11.19
10/31/2022 12:00:00 PM 8.93 48.074 0.464 8.89 4.63 11.39
10/31/2022 12:15:00 PM 9.02 48.236 0.464 8.94 4.11 11.64
10/31/2022 12:30:00 PM 9.18 48.524 0.463 9.01 4.08 11.96
10/31/2022 12:45:00 PM 9.38 48.884 0.463 8.78 3.46 12.34
10/31/2022 1:00:00 PM 9.55 49.19 0.462 8.42 3.79 12.64
10/31/2022 1:15:00 PM 9.71 49.478 0.462 8.22 8.85 12.84
10/31/2022 1:30:00 PM 9.82 49.676 0.462 8.12 4.42 13
10/31/2022 1:45:00 PM 9.93 49.874 0.461 8.14 3.65 13.1
10/31/2022 2:00:00 PM 10.05 50.09 0.461 8.15 3.81 13.3
10/31/2022 2:15:00 PM 10.19 50.342 0.461 8.19 3.73 13.5
10/31/2022 2:30:00 PM 10.3 50.54 0.46 8.17 3.93 13.64
10/31/2022 2:45:00 PM 10.44 50.792 0.46 8.2 3.81 13.75
10/31/2022 3:00:00 PM 10.55 50.99 0.461 8.21 6.37 13.88
10/31/2022 3:15:00 PM 10.63 51.134 0.461 8.21 5.01 13.9
10/31/2022 3:30:00 PM 10.68 51.224 0.461 8.22 4.7 13.81
10/31/2022 3:45:00 PM 10.74 51.332 0.46 8.25 4.32 13.71
10/31/2022 4:00:00 PM 10.77 51.386 0.46 8.3 4.31 13.53
10/31/2022 4:15:00 PM 10.8 51.44 0.46 8.36 4.34 13.38
10/31/2022 4:30:00 PM 10.84 51.512 0.46 8.45 3.54 13.3
10/31/2022 4:45:00 PM 10.86 51.548 0.46 8.5 3.74 13.1
10/31/2022 5:00:00 PM 10.86 51.548 0.46 8.51 3.8 12.88
10/31/2022 5:15:00 PM 10.86 51.548 0.46 8.53 4.22 12.58
10/31/2022 5:30:00 PM 10.85 51.53 0.461 8.61 3.83 12.29
10/31/2022 5:45:00 PM 10.83 51.494 0.461 8.72 4.32 12.03
10/31/2022 6:00:00 PM 10.81 51.458 0.462 8.85 4.12 11.79
10/31/2022 6:15:00 PM 10.8 51.44 0.462 8.99 3.7 11.54
10/31/2022 6:30:00 PM 10.79 51.422 0.461 9.15 3.8 11.31
10/31/2022 6:45:00 PM 10.78 51.404 0.461 9.32 3.51 11.03
10/31/2022 7:00:00 PM 10.77 51.386 0.461 9.49 3.6 10.76
10/31/2022 7:15:00 PM 10.75 51.35 0.462 9.64 3.51 10.49
10/31/2022 7:30:00 PM 10.74 51.332 0.462 9.88 4.94 10.27
10/31/2022 7:45:00 PM 10.74 51.332 0.461 10.14 3.5 10.06
10/31/2022 8:00:00 PM 10.73 51.314 0.461 10.29 3.77 9.84
10/31/2022 8:15:00 PM 10.72 51.296 0.461 10.44 3.61 9.61
10/31/2022 8:30:00 PM 10.72 51.296 0.461 10.66 4.51 9.47
10/31/2022 8:45:00 PM 10.72 51.296 0.461 10.94 4.32 9.36
10/31/2022 9:00:00 PM 10.72 51.296 0.462 11.29 4.73 9.22
10/31/2022 9:15:00 PM 10.72 51.296 0.461 11.6 4.22 9.12
10/31/2022 9:30:00 PM 10.72 51.296 0.461 12.04 4.15 9.04
10/31/2022 9:45:00 PM 10.72 51.296 0.461 12.37 3.85 8.97
10/31/2022 10:00:00 PM 10.72 51.296 0.461 12.74 3.75 8.87
10/31/2022 10:15:00 PM 10.72 51.296 0.46 13.21 4.04 8.78
10/31/2022 10:30:00 PM 10.72 51.296 0.46 13.62 3.87 8.72
10/31/2022 10:45:00 PM 10.72 51.296 0.46 13.96 4.74 8.67
10/31/2022 11:00:00 PM 10.72 51.296 0.46 14.44 3.96 8.56
10/31/2022 11:15:00 PM 10.72 51.296 0.459 15.29 4.87 8.5
10/31/2022 11:30:00 PM 10.72 51.296 0.458 16.08 4.13 8.44
10/31/2022 11:45:00 PM 10.73 51.314 0.466 16.37 5.11 8.31
11/1/2022 12:00:00 AM 10.73 51.314 0.473 16.47 7.17 8.22
11/1/2022 12:15:00 AM 10.72 51.296 0.468 16.46 4.66 8.14
11/1/2022 12:30:00 AM 10.72 51.296 0.464 16.48 4.63 8.08
11/1/2022 12:45:00 AM 10.71 51.278 0.46 16.39 4.28 8.08
11/1/2022 1:00:00 AM 10.71 51.278 0.459 16.4 4.41 8.03
11/1/2022 1:15:00 AM 10.71 51.278 0.458 16.49 4.08 8.03
11/1/2022 1:30:00 AM 10.7 51.26 0.458 16.55 4.92 7.97
11/1/2022 1:45:00 AM 10.7 51.26 0.457 16.5 4.97 7.9
11/1/2022 2:00:00 AM 10.7 51.26 0.457 16.5 4.57 7.89
11/1/2022 2:15:00 AM 10.69 51.242 0.457 16.52 5.08 7.89
11/1/2022 2:30:00 AM 10.69 51.242 0.457 16.47 4.04 7.85
11/1/2022 2:45:00 AM 10.69 51.242 0.456 16.46 4.22 7.85
11/1/2022 3:00:00 AM 10.69 51.242 0.456 16.46 4.09 7.82
11/1/2022 3:15:00 AM 10.7 51.26 0.456 16.47 4.38 7.79
11/1/2022 3:30:00 AM 10.7 51.26 0.456 16.45 4.16 7.73
11/1/2022 3:45:00 AM 10.71 51.278 0.456 16.52 3.97 7.68
11/1/2022 4:00:00 AM 10.71 51.278 0.456 16.53 4.25 7.67
11/1/2022 4:15:00 AM 10.72 51.296 0.456 16.51 7.98 7.64
11/1/2022 4:30:00 AM 10.73 51.314 0.457 16.5 4.78 7.62
11/1/2022 4:45:00 AM 10.74 51.332 0.456 16.49 4.04 7.62
11/1/2022 5:00:00 AM 10.75 51.35 0.457 16.5 4.44 7.6
11/1/2022 5:15:00 AM 10.76 51.368 0.457 16.42 4.15 7.57
11/1/2022 5:30:00 AM 10.76 51.368 0.457 16.4 4.63 7.59
11/1/2022 5:45:00 AM 10.77 51.386 0.457 16.45 4.44 7.58
11/1/2022 6:00:00 AM 10.78 51.404 0.457 16.5 4.3 7.55
11/1/2022 6:15:00 AM 10.78 51.404 0.457 16.49 4.18 7.55
11/1/2022 6:30:00 AM 10.79 51.422 0.457 16.49 4.53 7.53
11/1/2022 6:45:00 AM 10.81 51.458 0.457 16.63 4.82 7.51
11/1/2022 7:00:00 AM 10.81 51.458 0.457 16.7 4.79 7.47
11/1/2022 7:15:00 AM 10.82 51.476 0.457 16.63 3.87 7.46
11/1/2022 7:30:00 AM 10.83 51.494 0.457 16.53 4.21 7.47
11/1/2022 7:45:00 AM 10.83 51.494 0.457 16.43 4.61 7.47
11/1/2022 8:00:00 AM 10.84 51.512 0.458 16.32 4.08 7.44
11/1/2022 8:15:00 AM 10.85 51.53 0.458 16.43 4.02 7.46
11/1/2022 8:30:00 AM 10.86 51.548 0.458 16.59 4.14 7.51
11/1/2022 8:45:00 AM 10.87 51.566 0.458 16.78 4.49 7.56
11/1/2022 9:00:00 AM 10.88 51.584 0.458 16.71 4.22 7.65
11/1/2022 9:15:00 AM 10.91 51.638 0.458 16.47 4.05 7.76
11/1/2022 9:30:00 AM 10.97 51.746 0.458 16.3 4.5 7.94
11/1/2022 9:45:00 AM 11.04 51.872 0.458 15.45 5.09 8.21
11/1/2022 10:00:00 AM 11.12 52.016 0.458 13.93 3.58 8.48
11/1/2022 10:15:00 AM 11.23 52.214 0.458 11.93 4.83 8.84
11/1/2022 10:30:00 AM 11.31 52.358 0.457 9.66 3.93 9.17
11/1/2022 10:45:00 AM 11.41 52.538 0.457 8.85 4.04 9.55
11/1/2022 11:00:00 AM 11.55 52.79 0.457 8.37 4.48 10.04
11/1/2022 11:15:00 AM 11.7 53.06 0.456 8.08 3.96 10.46
11/1/2022 11:30:00 AM 11.94 53.492 0.455 8 3.99 11.04
11/1/2022 11:45:00 AM 12.06 53.708 0.455 7.96 3.83 11.39
11/1/2022 12:00:00 PM 12.09 53.762 0.454 7.99 4 11.58
11/1/2022 12:15:00 PM 12.17 53.906 0.454 8 3.88 11.82
11/1/2022 12:30:00 PM 12.32 54.176 0.454 8.04 4.2 12.13
11/1/2022 12:45:00 PM 12.45 54.41 0.454 8.04 4.39 12.42
11/1/2022 1:00:00 PM 12.55 54.59 0.453 8.09 6.36 12.53
11/1/2022 1:15:00 PM 12.66 54.788 0.453 8.09 4.11 12.61
11/1/2022 1:30:00 PM 12.92 55.256 0.453 8.1 4.09 12.81
11/1/2022 1:45:00 PM 13.17 55.706 0.452 8.09 4.16 12.98
11/1/2022 2:00:00 PM 13.35 56.03 0.451 8.08 4.5 13.16
11/1/2022 2:15:00 PM 13.44 56.192 0.451 8.07 4.62 13.23
11/1/2022 2:30:00 PM 13.45 56.21 0.451 8.08 11.08 13.13
11/1/2022 2:45:00 PM 13.54 56.372 0.45 8.11 7.78 13.23
11/1/2022 3:00:00 PM 13.71 56.678 0.449 8.12 8.29 13.44
11/1/2022 3:15:00 PM 13.81 56.858 0.449 8.15 8.91 13.46
11/1/2022 3:30:00 PM 13.83 56.894 0.449 8.14 10.82 13.39
11/1/2022 3:45:00 PM 13.88 56.984 0.449 8.16 7.89 13.31
11/1/2022 4:00:00 PM 13.9 57.02 0.449 8.14 7.32 13.22
11/1/2022 4:15:00 PM 13.92 57.056 0.449 8.17 9.79 13.08
11/1/2022 4:30:00 PM 13.91 57.038 0.45 8.15 11.69 12.89
11/1/2022 4:45:00 PM 13.91 57.038 0.45 8.15 22.62 12.68
11/1/2022 5:00:00 PM 13.88 56.984 0.45 8.16 25.3 12.38
11/1/2022 5:15:00 PM 13.86 56.948 0.451 8.19 14.55 12.19
11/1/2022 5:30:00 PM 13.82 56.876 0.451 8.2 13.11 11.93
11/1/2022 5:45:00 PM 13.77 56.786 0.452 8.24 14.12 11.57
11/1/2022 6:00:00 PM 13.71 56.678 0.453 8.28 23.78 11.28
11/1/2022 6:15:00 PM 13.64 56.552 0.453 8.36 18.25 10.96
11/1/2022 6:30:00 PM 13.57 56.426 0.454 8.53 8.13 10.62
11/1/2022 6:45:00 PM 13.51 56.318 0.454 8.77 5.05 10.29
11/1/2022 7:00:00 PM 13.45 56.21 0.454 9.06 5.01 9.97
11/1/2022 7:15:00 PM 13.39 56.102 0.454 9.15 5.94 9.65
11/1/2022 7:30:00 PM 13.32 55.976 0.454 9.13 5.74 9.36
11/1/2022 7:45:00 PM 13.25 55.85 0.455 9 5.25 9.08
11/1/2022 8:00:00 PM 13.19 55.742 0.455 8.89 4.63 8.82
11/1/2022 8:15:00 PM 13.13 55.634 0.453 8.85 4.65 8.63
11/1/2022 8:30:00 PM 13.08 55.544 0.455 9.15 5.43 8.44
11/1/2022 8:45:00 PM 13.05 55.49 0.454 9.71 4.88 8.32
11/1/2022 9:00:00 PM 13.01 55.418 0.454 10.32 5.03 8.19
11/1/2022 9:15:00 PM 12.95 55.31 0.456 10.28 5.9 8.06
11/1/2022 9:30:00 PM 12.9 55.22 0.455 9.68 5.19 7.96
11/1/2022 9:45:00 PM 12.85 55.13 0.455 9.16 4.7 7.86
11/1/2022 10:00:00 PM 12.82 55.076 0.455 8.74 4.93 7.77
11/1/2022 10:15:00 PM 12.78 55.004 0.455 8.46 5.5 7.67
11/1/2022 10:30:00 PM 12.75 54.95 0.455 8.29 5.37 7.63
11/1/2022 10:45:00 PM 12.73 54.914 0.455 8.39 5.25 7.56
11/1/2022 11:00:00 PM 12.71 54.878 0.455 8.58 5.98 7.48
11/1/2022 11:15:00 PM 12.66 54.788 0.456 9.04 7.4 7.41
11/1/2022 11:30:00 PM 12.61 54.698 0.456 8.95 5.17 7.32
11/1/2022 11:45:00 PM 12.56 54.608 0.456 8.66 5.12 7.29
11/2/2022 12:00:00 AM 12.51 54.518 0.456 8.38 4.83 7.23
11/2/2022 12:15:00 AM 12.46 54.428 0.453 8.18 4.97 7.18
11/2/2022 12:30:00 AM 12.41 54.338 0.454 7.97 5.05 7.13
11/2/2022 12:45:00 AM 12.37 54.266 0.451 7.85 4.69 7.12
11/2/2022 1:00:00 AM 12.33 54.194 0.448 7.78 4.68 7.08
11/2/2022 1:15:00 AM 12.28 54.104 0.454 7.77 4.6 7.04
11/2/2022 1:30:00 AM 12.24 54.032 0.455 7.72 7.17 7.01
11/2/2022 1:45:00 AM 12.19 53.942 0.455 7.68 7.32 7.02
11/2/2022 2:00:00 AM 12.15 53.87 0.455 7.68 6.58 6.98
11/2/2022 2:15:00 AM 12.12 53.816 0.455 7.74 6.19 6.95
11/2/2022 2:30:00 AM 12.08 53.744 0.455 7.84 8.81 6.94
11/2/2022 2:45:00 AM 12.05 53.69 0.455 7.85 5.96 6.93
11/2/2022 3:00:00 AM 11.99 53.582 0.455 7.76 5.42 6.93
11/2/2022 3:15:00 AM 11.93 53.474 0.455 7.67 6.12 6.94
11/2/2022 3:30:00 AM 11.89 53.402 0.455 7.61 5.33 6.93
11/2/2022 3:45:00 AM 11.84 53.312 0.455 7.57 6.35 6.92
11/2/2022 4:00:00 AM 11.79 53.222 0.452 7.55 5.85 6.91
11/2/2022 4:15:00 AM 11.75 53.15 0.452 7.54 5.73 6.9
11/2/2022 4:30:00 AM 11.69 53.042 0.452 7.53 5.1 6.9
11/2/2022 4:45:00 AM 11.64 52.952 0.455 7.53 4.57 6.9
11/2/2022 5:00:00 AM 11.59 52.862 0.455 7.52 5.21 6.88
11/2/2022 5:15:00 AM 11.53 52.754 0.456 7.52 5.14 6.9
11/2/2022 5:30:00 AM 11.46 52.628 0.456 7.51 4.54 6.92
11/2/2022 5:45:00 AM 11.4 52.52 0.456 7.51 5.5 6.93
11/2/2022 6:00:00 AM 11.34 52.412 0.455 7.52 5.73 6.93
11/2/2022 6:15:00 AM 11.28 52.304 0.452 7.52 5.55 6.95
11/2/2022 6:30:00 AM 11.22 52.196 0.448 7.51 6.1 6.95
11/2/2022 6:45:00 AM 11.16 52.088 0.455 7.53 5.14 6.94
11/2/2022 7:00:00 AM 11.11 51.998 0.455 7.52 5.4 6.95
11/2/2022 7:15:00 AM 11.05 51.89 0.456 7.52 5.17 6.94
11/2/2022 7:30:00 AM 10.99 51.782 0.456 7.52 5.74 6.96
11/2/2022 7:45:00 AM 10.93 51.674 0.457 7.54 5.34 6.97
11/2/2022 8:00:00 AM 10.89 51.602 0.457 7.54 5.1 7.01
11/2/2022 8:15:00 AM 10.84 51.512 0.457 7.54 5.19 7.04
11/2/2022 8:30:00 AM 10.81 51.458 0.457 7.53 5.51 7.09
11/2/2022 8:45:00 AM 10.77 51.386 0.457 7.54 5.29 7.16
11/2/2022 9:00:00 AM 10.76 51.368 0.458 7.54 4.54 7.3
11/2/2022 9:15:00 AM 10.77 51.386 0.458 7.54 5.12 7.44
11/2/2022 9:30:00 AM 10.8 51.44 0.458 7.54 5.39 7.63
11/2/2022 9:45:00 AM 10.84 51.512 0.458 7.55 5.02 7.87
11/2/2022 10:00:00 AM 10.91 51.638 0.458 7.59 5.4 8.14
11/2/2022 10:15:00 AM 11 51.8 0.458 7.64 5.59 8.42
11/2/2022 10:30:00 AM 11.11 51.998 0.458 7.66 6.44 8.79
11/2/2022 10:45:00 AM 11.24 52.232 0.457 7.66 5.27 9.16
11/2/2022 11:00:00 AM 11.38 52.484 0.457 7.67 5.83 9.54
11/2/2022 11:15:00 AM 11.52 52.736 0.457 7.72 6.72 9.95
11/2/2022 11:30:00 AM 11.67 53.006 0.456 7.77 4.56 10.31
11/2/2022 11:45:00 AM 11.84 53.312 0.456 7.74 5.72 10.67
11/2/2022 12:00:00 PM 12 53.6 0.456 7.78 5.93 11
11/2/2022 12:15:00 PM 12.19 53.942 0.455 7.8 6.11 11.33
11/2/2022 12:30:00 PM 12.38 54.284 0.455 7.84 6.19 11.71
11/2/2022 12:45:00 PM 12.55 54.59 0.454 7.87 27.18 12
11/2/2022 1:00:00 PM 12.75 54.95 0.453 7.91 29.33 12.34
11/2/2022 1:15:00 PM 12.95 55.31 0.453 7.93 23.63 12.59
11/2/2022 1:30:00 PM 13.16 55.688 0.453 7.97 26.87 12.89
11/2/2022 1:45:00 PM 13.37 56.066 0.452 8 30.36 13.12
11/2/2022 2:00:00 PM 13.56 56.408 0.451 8.02 27.08 13.33
11/2/2022 2:15:00 PM 13.72 56.696 0.45 8.06 108.3 13.47
11/2/2022 2:30:00 PM 13.9 57.02 0.45 8.07 74.12 13.62
11/2/2022 2:45:00 PM 14.04 57.272 0.449 8.09 111 13.73
11/2/2022 3:00:00 PM 14.14 57.452 0.449 8.12 149.9 13.78
11/2/2022 3:15:00 PM 14.2 57.56 0.449 8.14 112.1 13.92
11/2/2022 3:30:00 PM 14.26 57.668 0.448 8.16 101.8 13.87
11/2/2022 3:45:00 PM 14.3 57.74 0.448 8.17 37.09 13.84
11/2/2022 4:00:00 PM 14.34 57.812 0.448 8.19 43.8 13.8
11/2/2022 4:15:00 PM 14.37 57.866 0.447 8.22 32.99 13.68
11/2/2022 4:30:00 PM 14.36 57.848 0.447 8.23 9.68 13.54
11/2/2022 4:45:00 PM 14.35 57.83 0.445 8.23 8.43 13.37
11/2/2022 5:00:00 PM 14.31 57.758 0.445 8.24 7.51 13.23
11/2/2022 5:15:00 PM 14.26 57.668 0.443 8.23 8.84 13.05
11/2/2022 5:30:00 PM 14.21 57.578 0.447 8.22 12.3 12.79
11/2/2022 5:45:00 PM 14.13 57.434 0.448 8.28 7.18 12.52
11/2/2022 6:00:00 PM 14.04 57.272 0.449 8.41 10.11 12.19
11/2/2022 6:15:00 PM 13.95 57.11 0.45 8.6 11.32 11.86
11/2/2022 6:30:00 PM 13.86 56.948 0.45 8.69 11.67 11.5
11/2/2022 6:45:00 PM 13.77 56.786 0.45 8.62 11.23 11.12
11/2/2022 7:00:00 PM 13.68 56.624 0.444 8.51 10.58 10.77
11/2/2022 7:15:00 PM 13.59 56.462 0.452 8.37 8.66 10.39
11/2/2022 7:30:00 PM 13.49 56.282 0.452 8.17 8.03 10.02
11/2/2022 7:45:00 PM 13.39 56.102 0.452 8.03 8.09 9.66
11/2/2022 8:00:00 PM 13.31 55.958 0.453 7.94 6.43 9.35
11/2/2022 8:15:00 PM 13.22 55.796 0.452 7.89 8.6 9.06
11/2/2022 8:30:00 PM 13.13 55.634 0.454 7.83 6.25 8.81
11/2/2022 8:45:00 PM 13.05 55.49 0.454 7.8 7.09 8.59
11/2/2022 9:00:00 PM 12.97 55.346 0.455 7.77 7.54 8.42
11/2/2022 9:15:00 PM 12.89 55.202 0.455 7.75 8.57 8.26
11/2/2022 9:30:00 PM 12.82 55.076 0.455 7.74 7.41 8.13
11/2/2022 9:45:00 PM 12.75 54.95 0.455 7.72 7.56 8.02
11/2/2022 10:00:00 PM 12.68 54.824 0.455 7.71 10.56 7.9
11/2/2022 10:15:00 PM 12.6 54.68 0.452 7.7 8.42 7.84
11/2/2022 10:30:00 PM 12.53 54.554 0.434 7.69 7.51 7.78
11/2/2022 10:45:00 PM 12.44 54.392 0.454 7.68 8.64 7.69
11/2/2022 11:00:00 PM 12.36 54.248 0.456 7.68 7.1 7.65
11/2/2022 11:15:00 PM 12.29 54.122 0.442 7.67 8 7.6
11/2/2022 11:30:00 PM 12.2 53.96 0.44 7.66 6.89 7.53
11/2/2022 11:45:00 PM 12.11 53.798 0.456 7.66 9.87 7.48
11/3/2022 12:00:00 AM 12.03 53.654 0.456 7.66 7.82 7.43
11/3/2022 12:15:00 AM 11.95 53.51 0.456 7.66 7.24 7.42
11/3/2022 12:30:00 AM 11.87 53.366 0.457 7.66 8.17 7.35
11/3/2022 12:45:00 AM 11.78 53.204 0.457 7.65 9.23 7.34
11/3/2022 1:00:00 AM 11.7 53.06 0.457 7.65 5.81 7.33
11/3/2022 1:15:00 AM 11.62 52.916 0.457 7.65 7.78 7.29
11/3/2022 1:30:00 AM 11.53 52.754 0.457 7.65 8.25 7.27
11/3/2022 1:45:00 AM 11.44 52.592 0.457 7.64 8.78 7.24
11/3/2022 2:00:00 AM 11.36 52.448 0.457 7.65 6.23 7.22
11/3/2022 2:15:00 AM 11.28 52.304 0.457 7.65 6.57 7.21
11/3/2022 2:30:00 AM 11.2 52.16 0.457 7.64 6.34 7.19
11/3/2022 2:45:00 AM 11.11 51.998 0.457 7.65 6.06 7.2
11/3/2022 3:00:00 AM 11.03 51.854 0.457 7.65 6.15 7.19
11/3/2022 3:15:00 AM 10.95 51.71 0.457 7.65 6.06 7.2
11/3/2022 3:30:00 AM 10.88 51.584 0.458 7.65 6.94 7.19
11/3/2022 3:45:00 AM 10.79 51.422 0.458 7.65 6.1 7.19
11/3/2022 4:00:00 AM 10.72 51.296 0.458 7.64 6.93 7.22
11/3/2022 4:15:00 AM 10.64 51.152 0.458 7.65 6.76 7.22
11/3/2022 4:30:00 AM 10.57 51.026 0.458 7.65 6.58 7.22
11/3/2022 4:45:00 AM 10.5 50.9 0.458 7.65 6.34 7.23
11/3/2022 5:00:00 AM 10.43 50.774 0.458 7.65 6.5 7.26
11/3/2022 5:15:00 AM 10.37 50.666 0.458 7.65 7.42 7.26
11/3/2022 5:30:00 AM 10.3 50.54 0.458 7.65 6.01 7.27
11/3/2022 5:45:00 AM 10.23 50.414 0.458 7.66 7.61 7.28
11/3/2022 6:00:00 AM 10.18 50.324 0.458 7.66 8.2 7.3
11/3/2022 6:15:00 AM 10.12 50.216 0.459 7.65 6.04 7.31
11/3/2022 6:30:00 AM 10.07 50.126 0.459 7.65 6.72 7.31
11/3/2022 6:45:00 AM 10.02 50.036 0.459 7.65 6.37 7.31
11/3/2022 7:00:00 AM 9.98 49.964 0.459 7.65 6.43 7.34
11/3/2022 7:15:00 AM 9.95 49.91 0.459 7.65 5.98 7.36
11/3/2022 7:30:00 AM 9.92 49.856 0.459 7.64 6.42 7.35
11/3/2022 7:45:00 AM 9.89 49.802 0.459 7.64 6.14 7.37
11/3/2022 8:00:00 AM 9.87 49.766 0.46 7.64 6 7.39
11/3/2022 8:15:00 AM 9.85 49.73 0.46 7.63 5.93 7.42
11/3/2022 8:30:00 AM 9.83 49.694 0.46 7.63 9.04 7.48
11/3/2022 8:45:00 AM 9.83 49.694 0.46 7.65 6.5 7.57
11/3/2022 9:00:00 AM 9.84 49.712 0.46 7.64 7.2 7.71
11/3/2022 9:15:00 AM 9.87 49.766 0.461 7.64 6.76 7.86
11/3/2022 9:30:00 AM 9.91 49.838 0.46 7.65 6.24 8.1
11/3/2022 9:45:00 AM 9.95 49.91 0.461 7.66 5.16 8.37
11/3/2022 10:00:00 AM 10 50 0.461 7.67 5.07 8.65
11/3/2022 10:15:00 AM 10.06 50.108 0.461 7.71 5.26 9.03
11/3/2022 10:30:00 AM 10.15 50.27 0.46 7.73 5.77 9.38
11/3/2022 10:45:00 AM 10.29 50.522 0.46 7.71 5.41 9.83
11/3/2022 11:00:00 AM 10.44 50.792 0.46 7.7 5.05 10.26
11/3/2022 11:15:00 AM 10.59 51.062 0.459 7.72 5.43 10.73
11/3/2022 11:30:00 AM 10.75 51.35 0.459 7.79 7.34 11.17
11/3/2022 11:45:00 AM 10.92 51.656 0.459 7.85 5.51 11.54
11/3/2022 12:00:00 PM 11.07 51.926 0.459 7.85 4.9 11.85
11/3/2022 12:15:00 PM 11.24 52.232 0.458 7.88 5 12.13
11/3/2022 12:30:00 PM 11.41 52.538 0.458 7.92 5.32 12.41
11/3/2022 12:45:00 PM 11.59 52.862 0.457 7.94 5.13 12.67
11/3/2022 1:00:00 PM 11.76 53.168 0.457 7.96 5.73 12.94
11/3/2022 1:15:00 PM 11.96 53.528 0.456 7.98 5.55 13.19
11/3/2022 1:30:00 PM 12.14 53.852 0.455 8.01 5.35 13.41
11/3/2022 1:45:00 PM 12.35 54.23 0.455 8.04 5.89 13.62
11/3/2022 2:00:00 PM 12.56 54.608 0.454 8.08 6.17 13.79
11/3/2022 2:15:00 PM 12.76 54.968 0.454 8.1 7.07 14.02
11/3/2022 2:30:00 PM 12.97 55.346 0.453 8.12 9.8 14.14
11/3/2022 2:45:00 PM 13.14 55.652 0.453 8.14 13.78 14.26
11/3/2022 3:00:00 PM 13.31 55.958 0.452 8.16 16.82 14.38
11/3/2022 3:15:00 PM 13.44 56.192 0.452 8.17 26.82 14.43
11/3/2022 3:30:00 PM 13.53 56.354 0.451 8.2 13.4 14.41
11/3/2022 3:45:00 PM 13.58 56.444 0.451 8.21 36.7 14.4
11/3/2022 4:00:00 PM 13.61 56.498 0.451 8.22 10.37 14.29
11/3/2022 4:15:00 PM 13.64 56.552 0.451 8.22 10.5 14.19
11/3/2022 4:30:00 PM 13.65 56.57 0.45 8.22 13.15 14.09
11/3/2022 4:45:00 PM 13.65 56.57 0.45 8.23 20.33 13.89
11/3/2022 5:00:00 PM 13.63 56.534 0.45 8.22 14.13 13.73
11/3/2022 5:15:00 PM 13.6 56.48 0.451 8.22 13.78 13.52
11/3/2022 5:30:00 PM 13.56 56.408 0.452 8.23 19.15 13.3
11/3/2022 5:45:00 PM 13.5 56.3 0.452 8.27 25.44 13
11/3/2022 6:00:00 PM 13.41 56.138 0.453 8.41 25.12 12.7
11/3/2022 6:15:00 PM 13.3 55.94 0.453 8.59 28.56 12.28
11/3/2022 6:30:00 PM 13.19 55.742 0.454 8.71 29.8 11.85
11/3/2022 6:45:00 PM 13.06 55.508 0.455 8.79 39.34 11.42
11/3/2022 7:00:00 PM 12.95 55.31 0.456 8.84 8.8 10.99
11/3/2022 7:15:00 PM 12.83 55.094 0.456 8.78 7.93 10.63
11/3/2022 7:30:00 PM 12.72 54.896 0.457 8.57 7.61 10.24
11/3/2022 7:45:00 PM 12.61 54.698 0.457 8.34 8.35 9.9
11/3/2022 8:00:00 PM 12.52 54.536 0.457 8.19 7.25 9.59
11/3/2022 8:15:00 PM 12.42 54.356 0.458 8.09 7.34 9.33
11/3/2022 8:30:00 PM 12.34 54.212 0.458 8.03 7.6 9.11
11/3/2022 8:45:00 PM 12.25 54.05 0.458 7.97 6.98 8.92
11/3/2022 9:00:00 PM 12.17 53.906 0.458 7.92 6.92 8.75
11/3/2022 9:15:00 PM 12.1 53.78 0.458 7.88 5.89 8.62
11/3/2022 9:30:00 PM 12.03 53.654 0.458 7.86 7.54 8.51
11/3/2022 9:45:00 PM 11.95 53.51 0.458 7.84 6.07 8.4
11/3/2022 10:00:00 PM 11.88 53.384 0.458 7.81 5.92 8.31
11/3/2022 10:15:00 PM 11.8 53.24 0.458 7.79 5.92 8.24
11/3/2022 10:30:00 PM 11.73 53.114 0.458 7.78 5.78 8.16
11/3/2022 10:45:00 PM 11.67 53.006 0.458 7.77 7.84 8.11
11/3/2022 11:00:00 PM 11.59 52.862 0.459 7.75 7.28 8.05
11/3/2022 11:15:00 PM 11.52 52.736 0.459 7.74 6.7 8
11/3/2022 11:30:00 PM 11.44 52.592 0.459 7.74 6.55 7.94
11/3/2022 11:45:00 PM 11.37 52.466 0.459 7.73 6.86 7.88
11/4/2022 12:00:00 AM 11.29 52.322 0.459 7.73 6.62 7.84
11/4/2022 12:15:00 AM 11.21 52.178 0.459 7.72 6.45 7.79
11/4/2022 12:30:00 AM 11.14 52.052 0.459 7.72 6.05 7.76
11/4/2022 12:45:00 AM 11.07 51.926 0.459 7.72 6.98 7.72
11/4/2022 1:00:00 AM 10.99 51.782 0.459 7.71 6.46 7.67
11/4/2022 1:15:00 AM 10.92 51.656 0.459 7.71 6.65 7.63
11/4/2022 1:30:00 AM 10.84 51.512 0.459 7.71 6.99 7.62
11/4/2022 1:45:00 AM 10.77 51.386 0.459 7.7 6.53 7.59
11/4/2022 2:00:00 AM 10.7 51.26 0.459 7.7 6.71 7.57
11/4/2022 2:15:00 AM 10.61 51.098 0.459 7.7 6.77 7.55
11/4/2022 2:30:00 AM 10.54 50.972 0.459 7.7 7.48 7.54
11/4/2022 2:45:00 AM 10.47 50.846 0.459 7.69 8.05 7.52
11/4/2022 3:00:00 AM 10.4 50.72 0.459 7.69 6.59 7.5
11/4/2022 3:15:00 AM 10.32 50.576 0.459 7.69 6.76 7.51
11/4/2022 3:30:00 AM 10.25 50.45 0.459 7.69 6.73 7.49
11/4/2022 3:45:00 AM 10.18 50.324 0.46 7.69 6.52 7.5
11/4/2022 4:00:00 AM 10.11 50.198 0.46 7.69 7.92 7.5
11/4/2022 4:15:00 AM 10.05 50.09 0.46 7.69 7.14 7.52
11/4/2022 4:30:00 AM 9.98 49.964 0.46 7.69 7.13 7.51
11/4/2022 4:45:00 AM 9.91 49.838 0.46 7.69 6.9 7.52
11/4/2022 5:00:00 AM 9.85 49.73 0.46 7.69 7.19 7.54
11/4/2022 5:15:00 AM 9.79 49.622 0.46 7.69 7.02 7.53
11/4/2022 5:30:00 AM 9.72 49.496 0.46 7.69 6.88 7.54
11/4/2022 5:45:00 AM 9.66 49.388 0.46 7.69 7.23 7.57
11/4/2022 6:00:00 AM 9.61 49.298 0.46 7.69 7.31 7.57
11/4/2022 6:15:00 AM 9.55 49.19 0.46 7.69 7.24 7.59
11/4/2022 6:30:00 AM 9.5 49.1 0.46 7.7 8.77 7.6
11/4/2022 6:45:00 AM 9.45 49.01 0.46 7.7 7.17 7.63
11/4/2022 7:00:00 AM 9.39 48.902 0.46 7.7 9.13 7.64
11/4/2022 7:15:00 AM 9.35 48.83 0.461 7.7 7.06 7.66
11/4/2022 7:30:00 AM 9.3 48.74 0.461 7.7 7.02 7.65
11/4/2022 7:45:00 AM 9.27 48.686 0.461 7.7 7.38 7.68
11/4/2022 8:00:00 AM 9.22 48.596 0.461 7.7 7.18 7.71
11/4/2022 8:15:00 AM 9.2 48.56 0.461 7.7 7.54 7.77
11/4/2022 8:30:00 AM 9.18 48.524 0.462 7.7 7.47 7.84
11/4/2022 8:45:00 AM 9.17 48.506 0.462 7.69 7.04 7.95
11/4/2022 9:00:00 AM 9.18 48.524 0.462 7.7 6.71 8.09
11/4/2022 9:15:00 AM 9.19 48.542 0.462 7.7 6.65 8.27
11/4/2022 9:30:00 AM 9.22 48.596 0.462 7.72 7.61 8.47
11/4/2022 9:45:00 AM 9.26 48.668 0.463 7.74 7.4 8.76
11/4/2022 10:00:00 AM 9.31 48.758 0.463 7.78 7.29 9.06
11/4/2022 10:15:00 AM 9.41 48.938 0.463 7.86 7.49 9.41
11/4/2022 10:30:00 AM 9.54 49.172 0.463 7.9 6.81 9.83
11/4/2022 10:45:00 AM 9.7 49.46 0.463 7.85 7.14 10.27
11/4/2022 11:00:00 AM 9.85 49.73 0.462 7.76 6.85 10.69
11/4/2022 11:15:00 AM 10.02 50.036 0.462 7.8 6.9 11.09
11/4/2022 11:30:00 AM 10.19 50.342 0.462 7.84 6.77 11.47
11/4/2022 11:45:00 AM 10.35 50.63 0.462 7.86 6.98 11.79
11/4/2022 12:00:00 PM 10.53 50.954 0.462 7.88 11.78 12.13
11/4/2022 12:15:00 PM 10.72 51.296 0.461 7.91 11.64 12.44
11/4/2022 12:30:00 PM 10.93 51.674 0.461 7.93 12.13 12.74
11/4/2022 12:45:00 PM 11.13 52.034 0.461 7.96 16.73 13.03
11/4/2022 1:00:00 PM 11.36 52.448 0.46 7.99 18.07 13.34
11/4/2022 1:15:00 PM 11.6 52.88 0.46 8.02 8.53 13.64
11/4/2022 1:30:00 PM 11.84 53.312 0.46 8.05 8.11 13.88
11/4/2022 1:45:00 PM 12.08 53.744 0.459 8.09 9.85 14.09
11/4/2022 2:00:00 PM 12.32 54.176 0.459 8.11 14.21 14.23
11/4/2022 2:15:00 PM 12.55 54.59 0.458 8.14 9.06 14.38
11/4/2022 2:30:00 PM 12.78 55.004 0.456 8.17 7.94 14.52
11/4/2022 2:45:00 PM 12.98 55.364 0.455 8.2 12.2 14.67
11/4/2022 3:00:00 PM 13.17 55.706 0.455 8.22 81.94 14.81
11/4/2022 3:15:00 PM 13.34 56.012 0.453 8.24 14.14 14.81
11/4/2022 3:30:00 PM 13.44 56.192 0.453 8.27 23.92 14.86
11/4/2022 3:45:00 PM 13.54 56.372 0.453 8.28 66.48 14.86
11/4/2022 4:00:00 PM 13.6 56.48 0.452 8.31 232.1 14.8
11/4/2022 4:15:00 PM 13.66 56.588 0.453 8.31 217.5 14.68
11/4/2022 4:30:00 PM 13.7 56.66 0.453 8.31 17.81 14.6
11/4/2022 4:45:00 PM 13.73 56.714 0.453 8.3 14.29 14.49
11/4/2022 5:00:00 PM 13.73 56.714 0.452 8.34 20.88 14.34
11/4/2022 5:15:00 PM 13.72 56.696 0.452 8.3 20.08 14.14
11/4/2022 5:30:00 PM 13.7 56.66 0.453 8.27 13.4 13.86
11/4/2022 5:45:00 PM 13.66 56.588 0.453 8.27 15.83 13.57
11/4/2022 6:00:00 PM 13.61 56.498 0.454 8.28 16.5 13.25
11/4/2022 6:15:00 PM 13.55 56.39 0.454 8.28 18.67 12.84
11/4/2022 6:30:00 PM 13.48 56.264 0.453 8.33 20.86 12.44
11/4/2022 6:45:00 PM 13.41 56.138 0.455 8.37 29.15 12.04
11/4/2022 7:00:00 PM 13.35 56.03 0.453 8.41 13.9 11.56
11/4/2022 7:15:00 PM 13.29 55.922 0.455 8.42 13.7 11.11
11/4/2022 7:30:00 PM 13.23 55.814 0.456 8.42 13.54 10.65
11/4/2022 7:45:00 PM 13.17 55.706 0.458 8.39 24.25 10.27
11/4/2022 8:00:00 PM 13.12 55.616 0.458 8.41 22.17 9.88
11/4/2022 8:15:00 PM 13.09 55.562 0.458 8.4 19.4 9.56
11/4/2022 8:30:00 PM 13.05 55.49 0.456 8.43 18.04 9.26
11/4/2022 8:45:00 PM 13.02 55.436 0.452 8.5 18.12 9.01
11/4/2022 9:00:00 PM 12.99 55.382 0.459 8.55 15.36 8.8
11/4/2022 9:15:00 PM 12.97 55.346 0.459 8.66 13.75 8.62
11/4/2022 9:30:00 PM 12.94 55.292 0.459 8.82 14.03 8.46
11/4/2022 9:45:00 PM 12.91 55.238 0.459 8.93 13.85 8.32
11/4/2022 10:00:00 PM 12.89 55.202 0.459 9.25 14.04 8.18
11/4/2022 10:15:00 PM 12.88 55.184 0.46 9.65 11.54 8.06
11/4/2022 10:30:00 PM 12.87 55.166 0.46 9.81 11.68 7.95
11/4/2022 10:45:00 PM 12.85 55.13 0.46 9.79 10.64 7.85
11/4/2022 11:00:00 PM 12.84 55.112 0.46 9.71 11.63 7.74
11/4/2022 11:15:00 PM 12.84 55.112 0.46 9.67 10.79 7.64
11/4/2022 11:30:00 PM 12.83 55.094 0.461 9.5 10.41 7.53
11/4/2022 11:45:00 PM 12.82 55.076 0.461 9.26 10.83 7.46
11/5/2022 12:00:00 AM 12.8 55.04 0.461 8.99 10.15 7.39
11/5/2022 12:15:00 AM 12.78 55.004 0.461 8.94 10.57 7.3
11/5/2022 12:30:00 AM 12.77 54.986 0.461 8.89 10.37 7.23
11/5/2022 12:45:00 AM 12.75 54.95 0.461 8.9 10.93 7.15
11/5/2022 1:00:00 AM 12.74 54.932 0.461 8.9 8.99 7.11
11/5/2022 1:15:00 AM 12.72 54.896 0.461 8.85 10.5 7.05
11/5/2022 1:30:00 AM 12.7 54.86 0.461 8.78 11.22 7
11/5/2022 1:45:00 AM 12.66 54.788 0.461 8.77 12.37 6.96
11/5/2022 2:00:00 AM 12.62 54.716 0.461 8.84 11.47 6.91
11/5/2022 2:15:00 AM 12.59 54.662 0.461 9.07 11.55 6.89
11/5/2022 2:30:00 AM 12.55 54.59 0.461 9.26 12.06 6.84
11/5/2022 2:45:00 AM 12.52 54.536 0.461 9.5 10.28 6.82
11/5/2022 3:00:00 AM 12.48 54.464 0.461 9.69 9.48 6.79
11/5/2022 3:15:00 AM 12.44 54.392 0.461 9.89 12.42 6.76
11/5/2022 3:30:00 AM 12.41 54.338 0.461 10.09 13.31 6.73
11/5/2022 3:45:00 AM 12.38 54.284 0.461 10.44 9.3 6.73
11/5/2022 4:00:00 AM 12.36 54.248 0.461 10.99 10.95 6.71
11/5/2022 4:15:00 AM 12.33 54.194 0.461 11.62 14.1 6.7
11/5/2022 4:30:00 AM 12.31 54.158 0.461 12.5 13.69 6.7
11/5/2022 4:45:00 AM 12.28 54.104 0.461 13.45 15.3 6.69
11/5/2022 5:00:00 AM 12.27 54.086 0.461 13.88 14.63 6.67
11/5/2022 5:15:00 AM 12.26 54.068 0.461 15.35 21.89 6.68
11/5/2022 5:30:00 AM 12.25 54.05 0.461 16.66 15.62 6.68
11/5/2022 5:45:00 AM 12.23 54.014 0.461 17.95 18.61 6.66
11/5/2022 6:00:00 AM 12.23 54.014 0.461 19.29 13.52 6.64
11/5/2022 6:15:00 AM 12.23 54.014 0.461 20.24 19.52 6.63
11/5/2022 6:30:00 AM 12.23 54.014 0.462 20.71 15.04 6.64
11/5/2022 6:45:00 AM 12.23 54.014 0.463 21.3 15.5 6.62
11/5/2022 7:00:00 AM 12.23 54.014 0.465 21.73 15.89 6.6
11/5/2022 7:15:00 AM 12.22 53.996 0.467 21.89 15.26 6.59
11/5/2022 7:30:00 AM 12.22 53.996 0.468 22.15 16.85 6.58
11/5/2022 7:45:00 AM 12.23 54.014 0.47 22.32 16.23 6.56
11/5/2022 8:00:00 AM 12.24 54.032 0.471 22.54 15.42 6.55
11/5/2022 8:15:00 AM 12.27 54.086 0.472 23.15 15.61 6.57
11/5/2022 8:30:00 AM 12.3 54.14 0.472 23.9 15.53 6.62
11/5/2022 8:45:00 AM 12.33 54.194 0.472 24.24 15.63 6.68
11/5/2022 9:00:00 AM 12.37 54.266 0.472 22.79 14.91 6.81
11/5/2022 9:15:00 AM 12.4 54.32 0.472 20.51 12.27 6.93
11/5/2022 9:30:00 AM 12.48 54.464 0.471 17.86 12.98 7.09
11/5/2022 9:45:00 AM 12.55 54.59 0.47 14.49 12.66 7.32
11/5/2022 10:00:00 AM 12.66 54.788 0.469 11.29 13.56 7.67
11/5/2022 10:15:00 AM 12.79 55.022 0.469 8.96 14.16 8.16
11/5/2022 10:30:00 AM 12.92 55.256 0.468 8.09 14.9 8.6
11/5/2022 10:45:00 AM 13.04 55.472 0.467 7.92 13.39 9.03
11/5/2022 11:00:00 AM 13.13 55.634 0.466 7.88 14 9.35
11/5/2022 11:15:00 AM 13.24 55.832 0.466 7.89 15.35 9.78
11/5/2022 11:30:00 AM 13.37 56.066 0.465 7.9 13.97 10.23
11/5/2022 11:45:00 AM 13.5 56.3 0.464 7.92 13.27 10.7
11/5/2022 12:00:00 PM 13.65 56.57 0.463 7.94 13.64 11.22
11/5/2022 12:15:00 PM 13.8 56.84 0.463 7.96 13.59 11.57
11/5/2022 12:30:00 PM 13.93 57.074 0.462 7.98 13.7 11.93
11/5/2022 12:45:00 PM 14.09 57.362 0.462 8 14 12.21
11/5/2022 1:00:00 PM 14.22 57.596 0.461 8.01 14.27 12.41
11/5/2022 1:15:00 PM 14.33 57.794 0.461 8.04 14.54 12.58
11/5/2022 1:30:00 PM 14.39 57.902 0.46 8.05 20.94 12.62
11/5/2022 1:45:00 PM 14.48 58.064 0.46 8.06 26.86 12.62
11/5/2022 2:00:00 PM 14.56 58.208 0.46 8.09 30.2 12.7
11/5/2022 2:15:00 PM 14.64 58.352 0.459 8.09 41.78 12.7
11/5/2022 2:30:00 PM 14.71 58.478 0.459 8.1 46.58 12.58
11/5/2022 2:45:00 PM 14.79 58.622 0.459 8.11 73.02 12.58
11/5/2022 3:00:00 PM 14.88 58.784 0.459 8.12 84 12.59
11/5/2022 3:15:00 PM 14.94 58.892 0.459 8.11 57.65 12.44
11/5/2022 3:30:00 PM 15.03 59.054 0.459 8.09 25.47 12.3
11/5/2022 3:45:00 PM 15.08 59.144 0.459 8.08 27.41 12.15
11/5/2022 4:00:00 PM 15.13 59.234 0.459 8.06 52.77 11.94
11/5/2022 4:15:00 PM 15.18 59.324 0.458 8.05 72.27 11.83
11/5/2022 4:30:00 PM 15.24 59.432 0.457 8.05 18.26 11.87
11/5/2022 4:45:00 PM 15.26 59.468 0.458 8.07 18.34 11.76
11/5/2022 5:00:00 PM 15.28 59.504 0.456 8.05 19.49 11.62
11/5/2022 5:15:00 PM 15.31 59.558 0.459 8.05 20.99 11.49
11/5/2022 5:30:00 PM 15.34 59.612 0.46 8.06 20.87 11.36
11/5/2022 5:45:00 PM 15.35 59.63 0.46 8.04 21.11 11.13
11/5/2022 6:00:00 PM 15.36 59.648 0.46 8.04 24.91 10.84
11/5/2022 6:15:00 PM 15.36 59.648 0.46 8 35.76 10.56
11/5/2022 6:30:00 PM 15.34 59.612 0.46 7.99 53.31 10.18
11/5/2022 6:45:00 PM 15.33 59.594 0.46 7.97 98.59 9.82
11/5/2022 7:00:00 PM 15.32 59.576 0.46 7.96 114 9.44
11/5/2022 7:15:00 PM 15.3 59.54 0.461 7.94 58.41 9.06
11/5/2022 7:30:00 PM 15.29 59.522 0.461 7.9 59.33 8.66
11/5/2022 7:45:00 PM 15.28 59.504 0.455 7.89 72.13 8.32
11/5/2022 8:00:00 PM 15.25 59.45 0.462 7.88 20.14 7.97
11/5/2022 8:15:00 PM 15.22 59.396 0.463 7.86 21.58 7.7
11/5/2022 8:30:00 PM 15.19 59.342 0.461 7.86 22.35 7.46
11/5/2022 8:45:00 PM 15.16 59.288 0.463 7.85 19.77 7.25
11/5/2022 9:00:00 PM 15.13 59.234 0.461 7.84 22.37 7.06
11/5/2022 9:15:00 PM 15.1 59.18 0.46 7.83 26.98 6.91
11/5/2022 9:30:00 PM 15.08 59.144 0.459 7.82 24.56 6.79
11/5/2022 9:45:00 PM 15.06 59.108 0.459 7.81 24.73 6.69
11/5/2022 10:00:00 PM 15.03 59.054 0.458 7.8 22.54 6.59
11/5/2022 10:15:00 PM 15.03 59.054 0.462 7.79 22.79 6.5
11/5/2022 10:30:00 PM 15.03 59.054 0.463 7.75 21.35 6.44
11/5/2022 10:45:00 PM 15.03 59.054 0.463 7.73 22.63 6.36
11/5/2022 11:00:00 PM 15.04 59.072 0.463 7.73 21.85 6.33
11/5/2022 11:15:00 PM 15.04 59.072 0.463 7.71 22.13 6.27
11/5/2022 11:30:00 PM 15.05 59.09 0.463 7.7 24.36 6.21
11/5/2022 11:45:00 PM 15.06 59.108 0.463 7.7 28.12 6.17
11/6/2022 12:00:00 AM 15.08 59.144 0.463 7.7 25.73 6.13
11/6/2022 12:15:00 AM 15.09 59.162 0.463 7.69 25.04 6.07
11/6/2022 12:30:00 AM 15.12 59.216 0.463 7.69 22.34 6.03
11/6/2022 12:45:00 AM 15.13 59.234 0.463 7.7 22.42 5.98
11/6/2022 1:00:00 AM 15.16 59.288 0.463 7.7 21.52 5.92
11/6/2022 1:15:00 AM 15.19 59.342 0.462 7.68 22.94 5.89
11/6/2022 1:30:00 AM 15.21 59.378 0.463 7.67 22.45 5.84
11/6/2022 1:45:00 AM 15.23 59.414 0.463 7.67 22.91 5.79
11/6/2022 2:00:00 AM 15.24 59.432 0.46 7.67 22.17 5.77
11/6/2022 2:15:00 AM 15.25 59.45 0.463 7.67 25.29 5.73
11/6/2022 2:30:00 AM 15.26 59.468 0.463 7.67 23.19 5.68
11/6/2022 2:45:00 AM 15.26 59.468 0.463 7.67 23.78 5.65
11/6/2022 3:00:00 AM 15.25 59.45 0.462 7.67 22.56 5.62
11/6/2022 3:15:00 AM 15.26 59.468 0.462 7.68 22.61 5.59
11/6/2022 3:30:00 AM 15.27 59.486 0.462 7.66 22.48 5.56
11/6/2022 3:45:00 AM 15.27 59.486 0.462 7.65 22.38 5.51
11/6/2022 4:00:00 AM 15.27 59.486 0.462 7.65 25.83 5.49
11/6/2022 4:15:00 AM 15.27 59.486 0.462 7.66 22.33 5.49
11/6/2022 4:30:00 AM 15.28 59.504 0.463 7.65 22.52 5.46
11/6/2022 4:45:00 AM 15.3 59.54 0.462 7.63 19.84 5.43
11/6/2022 5:00:00 AM 15.29 59.522 0.462 7.63 18.96 5.4
11/6/2022 5:15:00 AM 15.27 59.486 0.462 7.65 22.25 5.39
11/6/2022 5:30:00 AM 15.26 59.468 0.462 7.64 20.74 5.36
11/6/2022 5:45:00 AM 15.25 59.45 0.462 7.63 19.11 5.35
11/6/2022 6:00:00 AM 15.22 59.396 0.462 7.65 20.25 5.31
11/6/2022 6:15:00 AM 15.2 59.36 0.462 7.66 21.26 5.3
11/6/2022 6:30:00 AM 15.18 59.324 0.462 7.67 22.26 5.29
11/6/2022 6:45:00 AM 15.18 59.324 0.461 7.7 20.77 5.29
11/6/2022 7:00:00 AM 15.17 59.306 0.461 7.72 19.67 5.26
11/6/2022 7:15:00 AM 15.16 59.288 0.462 7.74 20.39 5.27
11/6/2022 7:30:00 AM 15.15 59.27 0.462 7.74 19.64 5.26
11/6/2022 7:45:00 AM 15.14 59.252 0.463 7.75 19.3 5.26
11/6/2022 8:00:00 AM 15.14 59.252 0.462 7.77 19.87 5.26
11/6/2022 8:15:00 AM 15.14 59.252 0.462 7.78 19.68 5.26
11/6/2022 8:30:00 AM 15.14 59.252 0.462 7.74 19.36 5.3
11/6/2022 8:45:00 AM 15.14 59.252 0.462 7.72 19.98 5.36
11/6/2022 9:00:00 AM 15.17 59.306 0.462 7.69 20.95 5.46
11/6/2022 9:15:00 AM 15.19 59.342 0.462 7.67 20.62 5.56
11/6/2022 9:30:00 AM 15.21 59.378 0.462 7.63 20.36 5.7
11/6/2022 9:45:00 AM 15.25 59.45 0.462 7.62 19.02 5.89
11/6/2022 10:00:00 AM 15.33 59.594 0.462 7.61 18.87 6.17
11/6/2022 10:15:00 AM 15.41 59.738 0.463 7.63 18.01 6.49
11/6/2022 10:30:00 AM 15.48 59.864 0.463 7.65 17.94 6.79
11/6/2022 10:45:00 AM 15.56 60.008 0.463 7.66 17.7 7.14
11/6/2022 11:00:00 AM 15.64 60.152 0.46 7.66 17.9 7.56
11/6/2022 11:15:00 AM 15.73 60.314 0.461 7.68 18.39 7.99
11/6/2022 11:30:00 AM 15.82 60.476 0.462 7.71 18.93 8.42
11/6/2022 11:45:00 AM 15.9 60.62 0.462 7.73 18.65 8.78
11/6/2022 12:00:00 PM 16.07 60.926 0.463 7.74 17.86 9.27
11/6/2022 12:15:00 PM 16.25 61.25 0.462 7.76 19.89 9.81
11/6/2022 12:30:00 PM 16.49 61.682 0.462 7.79 9.39 10.39
11/6/2022 12:45:00 PM 16.67 62.006 0.461 7.82 14.06 10.87
11/6/2022 1:00:00 PM 16.78 62.204 0.461 7.84 10.38 11.16
11/6/2022 1:15:00 PM 16.81 62.258 0.46 7.87 12.04 11.38
11/6/2022 1:30:00 PM 16.87 62.366 0.459 7.91 9.76 11.54
11/6/2022 1:45:00 PM 16.98 62.564 0.46 7.95 11.29 11.7
11/6/2022 2:00:00 PM 17.12 62.816 0.459 7.98 14.58 11.97
11/6/2022 2:15:00 PM 17.27 63.086 0.458 8 15.43 12.3
11/6/2022 2:30:00 PM 17.37 63.266 0.457 8.03 17.22 12.5
11/6/2022 2:45:00 PM 17.5 63.5 0.457 8.06 21.53 12.67
11/6/2022 3:00:00 PM 17.74 63.932 0.455 8.06 18.83 12.95
11/6/2022 3:15:00 PM 17.84 64.112 0.455 8.07 21.66 12.99
11/6/2022 3:30:00 PM 17.93 64.274 0.454 8.08 17.33 13.03
11/6/2022 3:45:00 PM 17.97 64.346 0.454 8.09 19.15 13.02
11/6/2022 4:00:00 PM 17.98 64.364 0.454 8.1 19.25 12.95
11/6/2022 4:15:00 PM 18.01 64.418 0.455 8.12 13.65 12.84
11/6/2022 4:30:00 PM 18.02 64.436 0.455 8.12 14.95 12.7
11/6/2022 4:45:00 PM 18.03 64.454 0.454 8.12 14.22 12.52
11/6/2022 5:00:00 PM 18.03 64.454 0.454 8.11 13.44 12.31
11/6/2022 5:15:00 PM 18.01 64.418 0.455 8.1 13.85 12.03
11/6/2022 5:30:00 PM 17.98 64.364 0.456 8.09 18.25 11.72
11/6/2022 5:45:00 PM 17.94 64.292 0.456 8.06 12.37 11.34
11/6/2022 6:00:00 PM 17.89 64.202 0.457 8.02 11.32 10.91
11/6/2022 6:15:00 PM 17.83 64.094 0.457 7.99 11.9 10.38
11/6/2022 6:30:00 PM 17.76 63.968 0.458 7.94 12.61 9.91
11/6/2022 6:45:00 PM 17.7 63.86 0.458 7.91 12.16 9.39
11/6/2022 7:00:00 PM 17.64 63.752 0.459 7.88 12.23 8.85
11/6/2022 7:15:00 PM 17.58 63.644 0.46 7.84 14.44 8.38
11/6/2022 7:30:00 PM 17.52 63.536 0.461 7.83 12.88 7.93
11/6/2022 7:45:00 PM 17.45 63.41 0.461 7.78 12.6 7.54
11/6/2022 8:00:00 PM 17.39 63.302 0.462 7.77 13.55 7.23
11/6/2022 8:15:00 PM 17.34 63.212 0.462 7.75 12.74 6.93
11/6/2022 8:30:00 PM 17.28 63.104 0.462 7.73 14.11 6.69
11/6/2022 8:45:00 PM 17.24 63.032 0.463 7.72 13.96 6.48
11/6/2022 9:00:00 PM 17.2 62.96 0.463 7.71 14.39 6.25
11/6/2022 9:15:00 PM 17.17 62.906 0.463 7.68 13.82 6.09
11/6/2022 9:30:00 PM 17.14 62.852 0.463 7.68 15.32 5.97
11/6/2022 9:45:00 PM 17.11 62.798 0.463 7.66 15.12 5.87
11/6/2022 10:00:00 PM 17.08 62.744 0.463 7.65 14.86 5.76
11/6/2022 10:15:00 PM 17.07 62.726 0.463 7.64 15.24 5.68
11/6/2022 10:30:00 PM 17.04 62.672 0.463 7.62 14.87 5.61
11/6/2022 10:45:00 PM 17.01 62.618 0.464 7.61 15.21 5.55
11/6/2022 11:00:00 PM 17 62.6 0.463 7.66 15.07 5.49
11/6/2022 11:15:00 PM 16.98 62.564 0.466 7.6 15.32 5.44
11/6/2022 11:30:00 PM 16.98 62.564 0.462 7.61 15.35 5.4
11/6/2022 11:45:00 PM 16.98 62.564 0.461 7.6 15.65 5.34
11/7/2022 12:00:00 AM 16.97 62.546 0.464 7.6 16.09 5.29
11/7/2022 12:15:00 AM 16.97 62.546 0.456 7.58 15.87 5.24
11/7/2022 12:30:00 AM 16.96 62.528 0.464 7.58 16.93 5.17
11/7/2022 12:45:00 AM 16.95 62.51 0.464 7.57 17.21 5.12
11/7/2022 1:00:00 AM 16.94 62.492 0.464 7.57 16.44 5.08
11/7/2022 1:15:00 AM 16.91 62.438 0.464 7.56 17.06 5.03
11/7/2022 1:30:00 AM 16.87 62.366 0.464 7.56 16.26 5
11/7/2022 1:45:00 AM 16.81 62.258 0.464 7.56 16.22 4.96
11/7/2022 2:00:00 AM 16.76 62.168 0.464 7.55 17.11 4.9
11/7/2022 2:15:00 AM 16.7 62.06 0.464 7.56 19.88 4.88
11/7/2022 2:30:00 AM 16.64 61.952 0.464 7.55 17.32 4.85
11/7/2022 2:45:00 AM 16.57 61.826 0.464 7.52 18.06 4.83
11/7/2022 3:00:00 AM 16.49 61.682 0.464 7.51 17.65 4.83
11/7/2022 3:15:00 AM 16.41 61.538 0.464 7.5 17.86 4.8
11/7/2022 3:30:00 AM 16.33 61.394 0.464 7.46 17.87 4.8
11/7/2022 3:45:00 AM 16.26 61.268 0.464 7.46 18.98 4.79
11/7/2022 4:00:00 AM 16.19 61.142 0.464 7.46 18.46 4.77
11/7/2022 4:15:00 AM 16.12 61.016 0.464 7.45 19.04 4.78
11/7/2022 4:30:00 AM 16.04 60.872 0.464 7.46 19.14 4.76
11/7/2022 4:45:00 AM 15.96 60.728 0.464 7.44 19.68 4.8
11/7/2022 5:00:00 AM 15.9 60.62 0.464 7.44 19.19 4.8
11/7/2022 5:15:00 AM 15.84 60.512 0.464 7.43 19.82 4.81
11/7/2022 5:30:00 AM 15.77 60.386 0.464 7.42 20.03 4.81
11/7/2022 5:45:00 AM 15.7 60.26 0.464 7.43 19.75 4.84
11/7/2022 6:00:00 AM 15.63 60.134 0.464 7.42 19.99 4.86
11/7/2022 6:15:00 AM 15.55 59.99 0.464 7.42 20.03 4.86
11/7/2022 6:30:00 AM 15.48 59.864 0.464 7.43 20.12 4.89
11/7/2022 6:45:00 AM 15.42 59.756 0.465 7.43 20.05 4.89
11/7/2022 7:00:00 AM 15.35 59.63 0.465 7.43 21.98 4.93
11/7/2022 7:15:00 AM 15.28 59.504 0.463 7.43 21.06 4.93
11/7/2022 7:30:00 AM 15.2 59.36 0.465 7.44 20.91 4.94
11/7/2022 7:45:00 AM 15.12 59.216 0.464 7.45 21.03 4.95
11/7/2022 8:00:00 AM 15.04 59.072 0.453 7.44 20.87 5
11/7/2022 8:15:00 AM 14.98 58.964 0.454 7.44 21.56 5.05
11/7/2022 8:30:00 AM 14.91 58.838 0.454 7.44 21.3 5.11
11/7/2022 8:45:00 AM 14.85 58.73 0.455 7.44 22.14 5.17
11/7/2022 9:00:00 AM 14.79 58.622 0.464 7.45 21.76 5.27
11/7/2022 9:15:00 AM 14.77 58.586 0.463 7.46 21.48 5.43
11/7/2022 9:30:00 AM 14.77 58.586 0.463 7.48 22.11 5.59
11/7/2022 9:45:00 AM 14.76 58.568 0.463 7.5 22.38 5.85
11/7/2022 10:00:00 AM 15.1 59.18 0.463 7.6 22.74 7.75
11/7/2022 10:15:00 AM 15.21 59.378 0.462 7.59 22.09 8.17
11/7/2022 10:30:00 AM 15.31 59.558 0.462 7.61 22.82 8.63
11/7/2022 10:45:00 AM 15.42 59.756 0.462 7.63 22.59 9.03
11/7/2022 11:00:00 AM 15.54 59.972 0.462 7.66 23.97 9.43
11/7/2022 11:15:00 AM 15.64 60.152 0.463 7.69 22.37 9.83
11/7/2022 11:30:00 AM 15.77 60.386 0.463 7.73 23.98 10.24
11/7/2022 11:45:00 AM 15.9 60.62 0.462 7.77 23.82 10.64
11/7/2022 12:00:00 PM 16.03 60.854 0.461 7.81 26.02 11.06
11/7/2022 12:15:00 PM 16.19 61.142 0.461 7.83 27.91 11.44
11/7/2022 12:30:00 PM 16.34 61.412 0.459 7.87 27.15 11.81
11/7/2022 12:45:00 PM 16.48 61.664 0.458 7.91 29.34 12.12
11/7/2022 1:00:00 PM 16.61 61.898 0.46 7.94 40.48 12.39
11/7/2022 1:15:00 PM 16.74 62.132 0.46 7.97 24.76 12.63
11/7/2022 1:30:00 PM 16.87 62.366 0.459 7.99 24.04 12.81
11/7/2022 1:45:00 PM 16.95 62.51 0.459 8.02 27.17 12.97
11/7/2022 2:00:00 PM 17.02 62.636 0.458 8.05 30.34 13.1
11/7/2022 2:15:00 PM 17.05 62.69 0.459 8.07 35.93 13.1
11/7/2022 2:30:00 PM 17.05 62.69 0.458 8.1 27.77 13.11
11/7/2022 2:45:00 PM 17.01 62.618 0.458 8.1 28.75 13.06
11/7/2022 3:00:00 PM 16.97 62.546 0.456 8.12 37.67 12.92
11/7/2022 3:15:00 PM 16.92 62.456 0.457 8.12 42.8 12.82
11/7/2022 3:30:00 PM 16.85 62.33 0.456 8.11 37.7 12.69
11/7/2022 3:45:00 PM 16.79 62.222 0.456 8.12 26.03 12.48
11/7/2022 4:00:00 PM 16.69 62.042 0.456 8.11 26.51 12.27
11/7/2022 4:15:00 PM 16.58 61.844 0.456 8.11 26.84 12.02
11/7/2022 4:30:00 PM 16.48 61.664 0.457 8.11 29.39 11.74
11/7/2022 4:45:00 PM 16.36 61.448 0.457 8.12 28.97 11.46
11/7/2022 5:00:00 PM 16.23 61.214 0.458 8.08 30.16 11.1
11/7/2022 5:15:00 PM 16.06 60.908 0.458 8.03 30.85 10.7
11/7/2022 5:30:00 PM 15.91 60.638 0.414 7.98 26.05 10.27
11/7/2022 5:45:00 PM 15.75 60.35 0.459 7.94 25.91 9.85
11/7/2022 6:00:00 PM 15.59 60.062 0.457 7.89 25.66 9.41
11/7/2022 6:15:00 PM 15.44 59.792 0.459 7.86 26.09 9.01
11/7/2022 6:30:00 PM 15.3 59.54 0.46 7.82 25.38 8.63
11/7/2022 6:45:00 PM 15.17 59.306 0.46 7.78 24.05 8.28
11/7/2022 7:00:00 PM 15.04 59.072 0.461 7.76 27.34 7.95
11/7/2022 7:15:00 PM 14.9 58.82 0.461 7.73 36.23 7.68
11/7/2022 7:30:00 PM 14.78 58.604 0.461 7.71 26.75 7.43
11/7/2022 7:45:00 PM 14.66 58.388 0.461 7.69 28.46 7.24
11/7/2022 8:00:00 PM 14.54 58.172 0.461 7.68 28.18 7.11
11/7/2022 8:15:00 PM 14.42 57.956 0.461 7.67 29.75 6.98
11/7/2022 8:30:00 PM 14.31 57.758 0.461 7.67 27.81 6.89
11/7/2022 8:45:00 PM 14.21 57.578 0.427 7.67 27.6 6.79
11/7/2022 9:00:00 PM 14.11 57.398 0.462 7.67 27.03 6.71
11/7/2022 9:15:00 PM 14 57.2 0.462 7.66 28.27 6.66
11/7/2022 9:30:00 PM 13.91 57.038 0.462 7.66 26.56 6.58
11/7/2022 9:45:00 PM 13.81 56.858 0.462 7.65 27.5 6.53
11/7/2022 10:00:00 PM 13.7 56.66 0.462 7.64 29.66 6.47
11/7/2022 10:15:00 PM 13.63 56.534 0.462 7.65 29.15 6.45
11/7/2022 10:30:00 PM 13.53 56.354 0.462 7.65 27.66 6.4
11/7/2022 10:45:00 PM 13.45 56.21 0.462 7.66 25.98 6.38
11/7/2022 11:00:00 PM 13.35 56.03 0.462 7.65 29.97 6.34
11/7/2022 11:15:00 PM 13.26 55.868 0.462 7.65 26.85 6.3
11/7/2022 11:30:00 PM 13.16 55.688 0.462 7.64 31.84 6.28
11/7/2022 11:45:00 PM 13.06 55.508 0.462 7.63 28.56 6.26
11/8/2022 12:00:00 AM 12.96 55.328 0.462 7.64 27.4 6.25
11/8/2022 12:15:00 AM 12.88 55.184 0.462 7.64 30.12 6.22
11/8/2022 12:30:00 AM 12.79 55.022 0.462 7.64 27.54 6.21
11/8/2022 12:45:00 AM 12.7 54.86 0.463 7.64 30.46 6.2
11/8/2022 1:00:00 AM 12.62 54.716 0.463 7.64 27.5 6.21
11/8/2022 1:15:00 AM 12.54 54.572 0.463 7.63 32.67 6.19
11/8/2022 1:30:00 AM 12.45 54.41 0.463 7.63 36.63 6.19
11/8/2022 1:45:00 AM 12.36 54.248 0.463 7.63 27.77 6.17
11/8/2022 2:00:00 AM 12.28 54.104 0.463 7.63 27.86 6.19
11/8/2022 2:15:00 AM 12.18 53.924 0.463 7.64 33.35 6.18
11/8/2022 2:30:00 AM 12.08 53.744 0.463 7.63 29.78 6.18
11/8/2022 2:45:00 AM 11.98 53.564 0.462 7.64 30.33 6.21
11/8/2022 3:00:00 AM 11.9 53.42 0.462 7.64 31.16 6.23
11/8/2022 3:15:00 AM 11.79 53.222 0.461 7.64 32.4 6.25
11/8/2022 3:30:00 AM 11.72 53.096 0.464 7.64 30.84 6.26
11/8/2022 3:45:00 AM 11.63 52.934 0.464 7.64 31.01 6.26
11/8/2022 4:00:00 AM 11.55 52.79 0.464 7.64 29.31 6.3
11/8/2022 4:15:00 AM 11.46 52.628 0.464 7.65 30.86 6.32
11/8/2022 4:30:00 AM 11.37 52.466 0.464 7.65 31.1 6.32
11/8/2022 4:45:00 AM 11.28 52.304 0.464 7.65 33.81 6.33
11/8/2022 5:00:00 AM 11.19 52.142 0.464 7.65 32.21 6.35
11/8/2022 5:15:00 AM 11.12 52.016 0.464 7.65 32.44 6.4
11/8/2022 5:30:00 AM 11.05 51.89 0.464 7.65 38.3 6.42
11/8/2022 5:45:00 AM 10.97 51.746 0.464 7.66 39.6 6.42
11/8/2022 6:00:00 AM 10.88 51.584 0.464 7.65 32.86 6.45
11/8/2022 6:15:00 AM 10.8 51.44 0.464 7.66 36.18 6.49
11/8/2022 6:30:00 AM 10.73 51.314 0.464 7.66 40.61 6.53
11/8/2022 6:45:00 AM 10.66 51.188 0.464 7.66 34.46 6.57
11/8/2022 7:00:00 AM 10.6 51.08 0.465 7.67 31.74 6.6
11/8/2022 7:15:00 AM 10.54 50.972 0.465 7.67 31.66 6.68
11/8/2022 7:30:00 AM 10.48 50.864 0.465 7.68 34.82 6.78
11/8/2022 7:45:00 AM 10.44 50.792 0.465 7.67 34.07 6.86
11/8/2022 8:00:00 AM 10.41 50.738 0.465 7.68 37.64 6.94
11/8/2022 8:15:00 AM 10.41 50.738 0.465 7.67 32.62 7.09
11/8/2022 8:30:00 AM 10.42 50.756 0.465 7.68 33.01 7.3
11/8/2022 8:45:00 AM 10.44 50.792 0.465 7.68 35.77 7.58
11/8/2022 9:00:00 AM 10.47 50.846 0.465 7.69 35.75 7.91
11/8/2022 9:15:00 AM 10.51 50.918 0.464 7.7 35.81 8.27
11/8/2022 9:30:00 AM 10.57 51.026 0.464 7.72 35.84 8.68
11/8/2022 9:45:00 AM 10.65 51.17 0.464 7.73 35.94 9.08
11/8/2022 10:00:00 AM 10.75 51.35 0.464 7.72 38.41 9.54
11/8/2022 10:15:00 AM 10.87 51.566 0.464 7.75 33.5 9.95
11/8/2022 10:30:00 AM 11 51.8 0.463 7.75 38.27 10.37
11/8/2022 10:45:00 AM 11.12 52.016 0.463 7.74 33.18 10.76
11/8/2022 11:00:00 AM 11.24 52.232 0.462 7.72 36.08 11.13
11/8/2022 11:15:00 AM 11.37 52.466 0.462 7.75 36.19 11.49
11/8/2022 11:30:00 AM 11.49 52.682 0.462 7.78 36.45 11.88
11/8/2022 11:45:00 AM 11.62 52.916 0.461 7.81 37.5 12.25
11/8/2022 12:00:00 PM 11.76 53.168 0.46 7.85 34.13 12.62
11/8/2022 12:15:00 PM 11.92 53.456 0.46 7.91 37.06 12.96
11/8/2022 12:30:00 PM 12.08 53.744 0.459 7.95 34.54 13.3
11/8/2022 12:45:00 PM 12.23 54.014 0.459 8 37.41 13.6
11/8/2022 1:00:00 PM 12.41 54.338 0.458 8.05 40.88 13.87
11/8/2022 1:15:00 PM 12.56 54.608 0.458 8.06 46.89 14.08
11/8/2022 1:30:00 PM 12.71 54.878 0.457 8.09 39.34 14.27
11/8/2022 1:45:00 PM 12.86 55.148 0.457 8.12 49.05 14.47
11/8/2022 2:00:00 PM 12.97 55.346 0.457 8.16 70.93 14.58
11/8/2022 2:15:00 PM 13.06 55.508 0.455 8.18 102.8 14.58
11/8/2022 2:30:00 PM 13.11 55.598 0.456 8.2 51.56 14.66
11/8/2022 2:45:00 PM 13.13 55.634 0.456 8.22 54.8 14.6
11/8/2022 3:00:00 PM 13.13 55.634 0.455 8.23 72.62 14.53
11/8/2022 3:15:00 PM 13.13 55.634 0.456 8.25 54.87 14.4
11/8/2022 3:30:00 PM 13.1 55.58 0.456 8.24 44.83 14.28
11/8/2022 3:45:00 PM 13.06 55.508 0.456 8.26 49.81 14.16
11/8/2022 4:00:00 PM 13.02 55.436 0.456 8.28 34.97 13.98
11/8/2022 4:15:00 PM 12.97 55.346 0.456 8.36 41.72 13.78
11/8/2022 4:30:00 PM 12.92 55.256 0.456 8.54 46.89 13.58
11/8/2022 4:45:00 PM 12.83 55.094 0.456 8.64 45.44 13.3
11/8/2022 5:00:00 PM 12.74 54.932 0.457 8.54 46.52 13.02
11/8/2022 5:15:00 PM 12.62 54.716 0.457 8.32 50.18 12.66
11/8/2022 5:30:00 PM 12.49 54.482 0.458 8.16 38.36 12.24
11/8/2022 5:45:00 PM 12.36 54.248 0.458 8.08 38.33 11.84
11/8/2022 6:00:00 PM 12.21 53.978 0.459 8.04 42.85 11.39
11/8/2022 6:15:00 PM 12.07 53.726 0.459 8.01 41.81 10.99
11/8/2022 6:30:00 PM 11.92 53.456 0.46 7.98 43.49 10.6
11/8/2022 6:45:00 PM 11.79 53.222 0.461 7.95 37.61 10.22
11/8/2022 7:00:00 PM 11.66 52.988 0.461 7.92 40.39 9.9
11/8/2022 7:15:00 PM 11.53 52.754 0.461 7.89 41.6 9.61
11/8/2022 7:30:00 PM 11.42 52.556 0.462 7.88 36.78 9.35
11/8/2022 7:45:00 PM 11.31 52.358 0.462 7.86 39.72 9.12
11/8/2022 8:00:00 PM 11.21 52.178 0.463 7.85 41.08 8.95
11/8/2022 8:15:00 PM 11.1 51.98 0.463 7.84 41.19 8.77
11/8/2022 8:30:00 PM 11 51.8 0.463 7.82 45.78 8.65
11/8/2022 8:45:00 PM 10.91 51.638 0.463 7.82 43 8.54
11/8/2022 9:00:00 PM 10.82 51.476 0.463 7.81 37 8.44
11/8/2022 9:15:00 PM 10.73 51.314 0.464 7.8 40.01 8.35
11/8/2022 9:30:00 PM 10.65 51.17 0.464 7.8 43.11 8.29
11/8/2022 9:45:00 PM 10.56 51.008 0.464 7.8 42.27 8.23
11/8/2022 10:00:00 PM 10.47 50.846 0.464 7.8 41.18 8.19
11/8/2022 10:15:00 PM 10.39 50.702 0.464 7.8 37.3 8.13
11/8/2022 10:30:00 PM 10.31 50.558 0.464 7.79 40.97 8.08
11/8/2022 10:45:00 PM 10.23 50.414 0.464 7.79 42.56 8.05
11/8/2022 11:00:00 PM 10.14 50.252 0.464 7.79 36.2 8.02
11/8/2022 11:15:00 PM 10.06 50.108 0.464 7.79 37.65 7.97
11/8/2022 11:30:00 PM 9.98 49.964 0.464 7.79 37.53 7.94
11/8/2022 11:45:00 PM 9.89 49.802 0.465 7.79 36.52 7.9
11/9/2022 12:00:00 AM 9.81 49.658 0.465 7.79 43.4 7.86
11/9/2022 12:15:00 AM 9.72 49.496 0.465 7.78 43.96 7.83
11/9/2022 12:30:00 AM 9.64 49.352 0.465 7.78 47.16 7.8
11/9/2022 12:45:00 AM 9.55 49.19 0.465 7.78 43.77 7.78
11/9/2022 1:00:00 AM 9.47 49.046 0.465 7.78 39.59 7.74
11/9/2022 1:15:00 AM 9.37 48.866 0.465 7.78 43.32 7.75
11/9/2022 1:30:00 AM 9.3 48.74 0.465 7.78 45.77 7.73
11/9/2022 1:45:00 AM 9.2 48.56 0.465 7.78 44.31 7.72
11/9/2022 2:00:00 AM 9.12 48.416 0.465 7.78 46.2 7.7
11/9/2022 2:15:00 AM 9.03 48.254 0.465 7.78 45.6 7.72
11/9/2022 2:30:00 AM 8.95 48.11 0.465 7.78 43.39 7.72
11/9/2022 2:45:00 AM 8.87 47.966 0.465 7.78 48 7.73
11/9/2022 3:00:00 AM 8.78 47.804 0.465 7.78 45.89 7.74
11/9/2022 3:15:00 AM 8.7 47.66 0.465 7.79 47.23 7.74
11/9/2022 3:30:00 AM 8.62 47.516 0.465 7.78 44.08 7.75
11/9/2022 3:45:00 AM 8.54 47.372 0.465 7.78 45.6 7.78
11/9/2022 4:00:00 AM 8.46 47.228 0.465 7.78 39.61 7.78
11/9/2022 4:15:00 AM 8.38 47.084 0.465 7.78 46.68 7.83
11/9/2022 4:30:00 AM 8.3 46.94 0.465 7.78 46.96 7.84
11/9/2022 4:45:00 AM 8.23 46.814 0.465 7.79 39.13 7.85
11/9/2022 5:00:00 AM 8.15 46.67 0.465 7.79 39.58 7.88
11/9/2022 5:15:00 AM 8.07 46.526 0.465 7.79 46.05 7.92
11/9/2022 5:30:00 AM 8 46.4 0.465 7.79 39.65 7.94
11/9/2022 5:45:00 AM 7.93 46.274 0.465 7.79 47.58 7.96
11/9/2022 6:00:00 AM 7.85 46.13 0.465 7.79 45.38 7.98
11/9/2022 6:15:00 AM 7.78 46.004 0.465 7.8 48.86 8.03
11/9/2022 6:30:00 AM 7.71 45.878 0.465 7.79 47.04 8.04
11/9/2022 6:45:00 AM 7.65 45.77 0.465 7.8 45.06 8.06
11/9/2022 7:00:00 AM 7.58 45.644 0.465 7.8 48.65 8.12
11/9/2022 7:15:00 AM 7.52 45.536 0.465 7.8 48.23 8.18
11/9/2022 7:30:00 AM 7.47 45.446 0.465 7.81 48.31 8.26
11/9/2022 7:45:00 AM 7.41 45.338 0.465 7.81 44.47 8.35
11/9/2022 8:00:00 AM 7.38 45.284 0.465 7.82 45.06 8.45
11/9/2022 8:15:00 AM 7.36 45.248 0.465 7.82 48.09 8.59
11/9/2022 8:30:00 AM 7.37 45.266 0.465 7.82 47.69 8.77
11/9/2022 8:45:00 AM 7.39 45.302 0.465 7.83 47.57 9.05
11/9/2022 9:00:00 AM 7.44 45.392 0.465 7.83 46.67 9.33
11/9/2022 9:15:00 AM 7.53 45.554 0.465 7.83 47.64 9.68
11/9/2022 9:30:00 AM 7.64 45.752 0.465 7.8 48.4 10.04
11/9/2022 9:45:00 AM 7.77 45.986 0.464 7.78 42.44 10.41
11/9/2022 10:00:00 AM 7.9 46.22 0.464 7.76 43.97 10.81
11/9/2022 10:15:00 AM 8.05 46.49 0.464 7.78 49.59 11.19
11/9/2022 10:30:00 AM 8.17 46.706 0.464 7.8 41.73 11.59
11/9/2022 10:45:00 AM 8.33 46.994 0.463 7.81 52.87 11.95
11/9/2022 11:00:00 AM 8.49 47.282 0.463 7.82 52.57 12.29
11/9/2022 11:15:00 AM 8.65 47.57 0.462 7.85 51.81 12.65
11/9/2022 11:30:00 AM 8.83 47.894 0.462 7.88 47.39 13.03
11/9/2022 11:45:00 AM 9 48.2 0.461 7.87 49.55 13.36
11/9/2022 12:00:00 PM 9.17 48.506 0.461 7.9 50.41 13.71
11/9/2022 12:15:00 PM 9.37 48.866 0.46 7.96 48.51 14.02
11/9/2022 12:30:00 PM 9.55 49.19 0.46 8.04 48.61 14.33
11/9/2022 12:45:00 PM 9.77 49.586 0.46 8.07 60.12 14.62
11/9/2022 1:00:00 PM 9.97 49.946 0.46 8.1 47.09 14.83
11/9/2022 1:15:00 PM 10.17 50.306 0.459 8.13 50.57 14.98
11/9/2022 1:30:00 PM 10.34 50.612 0.458 8.18 57.38 15.16
11/9/2022 1:45:00 PM 10.52 50.936 0.458 8.2 61.08 15.33
11/9/2022 2:00:00 PM 10.66 51.188 0.457 8.22 58.99 15.45
11/9/2022 2:15:00 PM 10.8 51.44 0.457 8.25 63.02 15.54
11/9/2022 2:30:00 PM 10.89 51.602 0.456 8.27 76.2 15.54
11/9/2022 2:45:00 PM 10.95 51.71 0.457 8.29 55.51 15.54
11/9/2022 3:00:00 PM 10.98 51.764 0.457 8.3 42.44 15.56
11/9/2022 3:15:00 PM 11.01 51.818 0.457 8.32 47.77 15.49
11/9/2022 3:30:00 PM 11.01 51.818 0.458 8.32 63.67 15.3
11/9/2022 3:45:00 PM 11.01 51.818 0.457 8.33 52.86 15.11
11/9/2022 4:00:00 PM 10.99 51.782 0.457 8.36 62.14 14.96
11/9/2022 4:15:00 PM 10.96 51.728 0.457 8.49 63.22 14.8
11/9/2022 4:30:00 PM 10.92 51.656 0.456 8.79 70.9 14.61
11/9/2022 4:45:00 PM 10.85 51.53 0.458 9.04 61.89 14.35
11/9/2022 5:00:00 PM 10.78 51.404 0.459 9.25 48.5 14.01
11/9/2022 5:15:00 PM 10.69 51.242 0.458 9.33 42.67 13.66
11/9/2022 5:30:00 PM 10.57 51.026 0.459 9.42 46.05 13.25
11/9/2022 5:45:00 PM 10.46 50.828 0.46 9.19 42.74 12.85
11/9/2022 6:00:00 PM 10.34 50.612 0.461 8.96 47.27 12.44
11/9/2022 6:15:00 PM 10.22 50.396 0.461 8.66 46.48 12.03
11/9/2022 6:30:00 PM 10.11 50.198 0.459 8.42 47.54 11.65
11/9/2022 6:45:00 PM 10 50 0.451 8.26 44.63 11.31
11/9/2022 7:00:00 PM 9.9 49.82 0.461 8.17 157.5 10.94
11/9/2022 7:15:00 PM 9.8 49.64 0.463 8.1 52.5 10.64
11/9/2022 7:30:00 PM 9.71 49.478 0.463 8.05 52.29 10.37
11/9/2022 7:45:00 PM 9.64 49.352 0.463 8.01 43.02 10.15
11/9/2022 8:00:00 PM 9.55 49.19 0.464 7.97 49.49 9.95
11/9/2022 8:15:00 PM 9.47 49.046 0.464 7.94 52.92 9.78
11/9/2022 8:30:00 PM 9.4 48.92 0.463 7.92 47.21 9.64
11/9/2022 8:45:00 PM 9.32 48.776 0.447 7.91 62.39 9.54
11/9/2022 9:00:00 PM 9.26 48.668 0.441 7.9 62.67 9.45
11/9/2022 9:15:00 PM 9.19 48.542 0.437 7.9 37.34 9.36
11/9/2022 9:30:00 PM 9.12 48.416 0.436 7.88 51.9 9.3
11/9/2022 9:45:00 PM 9.06 48.308 0.464 7.89 41.78 9.22
11/9/2022 10:00:00 PM 8.99 48.182 0.464 7.88 55.72 9.16
11/9/2022 10:15:00 PM 8.93 48.074 0.462 7.87 41.69 9.12
11/9/2022 10:30:00 PM 8.87 47.966 0.465 7.86 41.89 9.08
11/9/2022 10:45:00 PM 8.8 47.84 0.465 7.86 42.52 9.02
11/9/2022 11:00:00 PM 8.74 47.732 0.465 7.85 55.06 8.99
11/9/2022 11:15:00 PM 8.67 47.606 0.465 7.84 52.99 8.95
11/9/2022 11:30:00 PM 8.62 47.516 0.465 7.84 50.6 8.9
11/9/2022 11:45:00 PM 8.55 47.39 0.466 7.84 54.19 8.86
11/10/2022 12:00:00 AM 8.49 47.282 0.466 7.84 76.67 8.82
11/10/2022 12:15:00 AM 8.42 47.156 0.465 7.83 63.94 8.78
11/10/2022 12:30:00 AM 8.36 47.048 0.466 7.83 63.48 8.75
11/10/2022 12:45:00 AM 8.29 46.922 0.466 7.83 64.31 8.71
11/10/2022 1:00:00 AM 8.22 46.796 0.466 7.83 63.54 8.67
11/10/2022 1:15:00 AM 8.15 46.67 0.467 7.84 61.08 8.65
11/10/2022 1:30:00 AM 8.09 46.562 0.467 7.82 68.08 8.62
11/10/2022 1:45:00 AM 8.02 46.436 0.467 7.82 70.52 8.6
11/10/2022 2:00:00 AM 7.94 46.292 0.467 7.81 68.14 8.57
11/10/2022 2:15:00 AM 7.88 46.184 0.467 7.81 65.5 8.57
11/10/2022 2:30:00 AM 7.81 46.058 0.467 7.81 50.77 8.53
11/10/2022 2:45:00 AM 7.74 45.932 0.467 7.81 64.22 8.55
11/10/2022 3:00:00 AM 7.67 45.806 0.467 7.81 70.78 8.54
11/10/2022 3:15:00 AM 7.61 45.698 0.467 7.81 69.9 8.54
11/10/2022 3:30:00 AM 7.55 45.59 0.467 7.81 70.5 8.56
11/10/2022 3:45:00 AM 7.48 45.464 0.467 7.81 69.15 8.56
11/10/2022 4:00:00 AM 7.42 45.356 0.467 7.81 66.99 8.55
11/10/2022 4:15:00 AM 7.36 45.248 0.467 7.81 64.52 8.58
11/10/2022 4:30:00 AM 7.3 45.14 0.467 7.81 61.25 8.57
11/10/2022 4:45:00 AM 7.25 45.05 0.467 7.81 49.05 8.58
11/10/2022 5:00:00 AM 7.19 44.942 0.467 7.8 67.42 8.58
11/10/2022 5:15:00 AM 7.14 44.852 0.467 7.8 50.91 8.6
11/10/2022 5:30:00 AM 7.08 44.744 0.467 7.81 66.16 8.62
11/10/2022 5:45:00 AM 7.03 44.654 0.467 7.82 50.8 8.63
11/10/2022 6:00:00 AM 6.98 44.564 0.467 7.81 63.83 8.64
11/10/2022 6:15:00 AM 6.93 44.474 0.466 7.82 66.85 8.65
11/10/2022 6:30:00 AM 6.88 44.384 0.466 7.82 66.47 8.67
11/10/2022 6:45:00 AM 6.83 44.294 0.467 7.82 68.44 8.7
11/10/2022 7:00:00 AM 6.79 44.222 0.466 7.81 51.18 8.72
11/10/2022 7:15:00 AM 6.75 44.15 0.467 7.82 66.61 8.77
11/10/2022 7:30:00 AM 6.72 44.096 0.467 7.82 64.81 8.84
11/10/2022 7:45:00 AM 6.7 44.06 0.466 7.83 66.32 8.92
11/10/2022 8:00:00 AM 6.68 44.024 0.466 7.82 67.83 9.01
11/10/2022 8:15:00 AM 6.68 44.024 0.466 7.83 51.76 9.13
11/10/2022 8:30:00 AM 6.7 44.06 0.466 7.84 51.87<